<?xml version="1.0" encoding="UTF-8" standalone="no" ?>
<gpx xmlns="http://www.topografix.com/GPX/1/1" xmlns:xsi="http://www.w3.org/2001/XMLSchema-instance" xsi:schemaLocation="http://www.topografix.com/GPX/1/1 http://www.topografix.com/GPX/1/1/gpx.xsd" version="1.1" creator="VisuGPX - https://www.visugpx.com">
  <metadata>
    <name>Irancy</name>
    <desc><![CDATA[prépa séjour]]></desc>
  </metadata>
  <trk>
    <name><![CDATA[track]]></name>
    <trkseg>
      <trkpt lat="47.71497" lon="3.66345">
        <ele>159</ele>
        <time>2014-09-07T07:00:48Z</time>
      </trkpt>
      <trkpt lat="47.71497" lon="3.66345">
        <ele>159</ele>
        <time>2014-09-07T07:01:21Z</time>
      </trkpt>
      <trkpt lat="47.71497" lon="3.66345">
        <ele>160</ele>
        <time>2014-09-07T07:01:38Z</time>
      </trkpt>
      <trkpt lat="47.71497" lon="3.66345">
        <ele>160</ele>
        <time>2014-09-07T07:01:56Z</time>
      </trkpt>
      <trkpt lat="47.71497" lon="3.66345">
        <ele>160</ele>
        <time>2014-09-07T07:02:24Z</time>
      </trkpt>
      <trkpt lat="47.71497" lon="3.66345">
        <ele>160</ele>
        <time>2014-09-07T07:02:51Z</time>
      </trkpt>
      <trkpt lat="47.71497" lon="3.66345">
        <ele>159</ele>
        <time>2014-09-07T07:03:10Z</time>
      </trkpt>
      <trkpt lat="47.71497" lon="3.66345">
        <ele>161</ele>
        <time>2014-09-07T07:03:15Z</time>
      </trkpt>
      <trkpt lat="47.71497" lon="3.66345">
        <ele>160</ele>
        <time>2014-09-07T07:03:43Z</time>
      </trkpt>
      <trkpt lat="47.71497" lon="3.66345">
        <ele>160</ele>
        <time>2014-09-07T07:04:05Z</time>
      </trkpt>
      <trkpt lat="47.71497" lon="3.66345">
        <ele>160</ele>
        <time>2014-09-07T07:04:29Z</time>
      </trkpt>
      <trkpt lat="47.71497" lon="3.66345">
        <ele>160</ele>
        <time>2014-09-07T07:05:01Z</time>
      </trkpt>
      <trkpt lat="47.71497" lon="3.66345">
        <ele>160</ele>
        <time>2014-09-07T07:05:23Z</time>
      </trkpt>
      <trkpt lat="47.71497" lon="3.66346">
        <ele>161</ele>
        <time>2014-09-07T07:05:51Z</time>
      </trkpt>
      <trkpt lat="47.71497" lon="3.66346">
        <ele>160</ele>
        <time>2014-09-07T07:06:13Z</time>
      </trkpt>
      <trkpt lat="47.71497" lon="3.66346">
        <ele>161</ele>
        <time>2014-09-07T07:06:35Z</time>
      </trkpt>
      <trkpt lat="47.71495" lon="3.66343">
        <ele>161</ele>
        <time>2014-09-07T07:06:58Z</time>
      </trkpt>
      <trkpt lat="47.71493" lon="3.66342">
        <ele>161</ele>
        <time>2014-09-07T07:07:01Z</time>
      </trkpt>
      <trkpt lat="47.71491" lon="3.66338">
        <ele>160</ele>
        <time>2014-09-07T07:07:05Z</time>
      </trkpt>
      <trkpt lat="47.71487" lon="3.66329">
        <ele>161</ele>
        <time>2014-09-07T07:07:13Z</time>
      </trkpt>
      <trkpt lat="47.71484" lon="3.66327">
        <ele>161</ele>
        <time>2014-09-07T07:07:16Z</time>
      </trkpt>
      <trkpt lat="47.71478" lon="3.66328">
        <ele>162</ele>
        <time>2014-09-07T07:07:23Z</time>
      </trkpt>
      <trkpt lat="47.71471" lon="3.66345">
        <ele>163</ele>
        <time>2014-09-07T07:07:37Z</time>
      </trkpt>
      <trkpt lat="47.71471" lon="3.66348">
        <ele>164</ele>
        <time>2014-09-07T07:07:39Z</time>
      </trkpt>
      <trkpt lat="47.71477" lon="3.66369">
        <ele>163</ele>
        <time>2014-09-07T07:07:55Z</time>
      </trkpt>
      <trkpt lat="47.71484" lon="3.66391">
        <ele>164</ele>
        <time>2014-09-07T07:08:10Z</time>
      </trkpt>
      <trkpt lat="47.71485" lon="3.66393">
        <ele>163</ele>
        <time>2014-09-07T07:08:11Z</time>
      </trkpt>
      <trkpt lat="47.71491" lon="3.66405">
        <ele>164</ele>
        <time>2014-09-07T07:08:20Z</time>
      </trkpt>
      <trkpt lat="47.71494" lon="3.66415">
        <ele>164</ele>
        <time>2014-09-07T07:08:28Z</time>
      </trkpt>
      <trkpt lat="47.71495" lon="3.66419">
        <ele>164</ele>
        <time>2014-09-07T07:08:31Z</time>
      </trkpt>
      <trkpt lat="47.71498" lon="3.66438">
        <ele>164</ele>
        <time>2014-09-07T07:08:43Z</time>
      </trkpt>
      <trkpt lat="47.71496" lon="3.66459">
        <ele>164</ele>
        <time>2014-09-07T07:08:56Z</time>
      </trkpt>
      <trkpt lat="47.71492" lon="3.66479">
        <ele>164</ele>
        <time>2014-09-07T07:09:09Z</time>
      </trkpt>
      <trkpt lat="47.71491" lon="3.66481">
        <ele>164</ele>
        <time>2014-09-07T07:09:11Z</time>
      </trkpt>
      <trkpt lat="47.7149" lon="3.66488">
        <ele>164</ele>
        <time>2014-09-07T07:09:15Z</time>
      </trkpt>
      <trkpt lat="47.71488" lon="3.66509">
        <ele>165</ele>
        <time>2014-09-07T07:09:27Z</time>
      </trkpt>
      <trkpt lat="47.71485" lon="3.66526">
        <ele>165</ele>
        <time>2014-09-07T07:09:39Z</time>
      </trkpt>
      <trkpt lat="47.71481" lon="3.66539">
        <ele>164</ele>
        <time>2014-09-07T07:09:48Z</time>
      </trkpt>
      <trkpt lat="47.71475" lon="3.6655">
        <ele>165</ele>
        <time>2014-09-07T07:09:56Z</time>
      </trkpt>
      <trkpt lat="47.71473" lon="3.66556">
        <ele>164</ele>
        <time>2014-09-07T07:10:00Z</time>
      </trkpt>
      <trkpt lat="47.71461" lon="3.66576">
        <ele>164</ele>
        <time>2014-09-07T07:10:16Z</time>
      </trkpt>
      <trkpt lat="47.71457" lon="3.66596">
        <ele>166</ele>
        <time>2014-09-07T07:10:30Z</time>
      </trkpt>
      <trkpt lat="47.71455" lon="3.66609">
        <ele>167</ele>
        <time>2014-09-07T07:10:43Z</time>
      </trkpt>
      <trkpt lat="47.7145" lon="3.66621">
        <ele>169</ele>
        <time>2014-09-07T07:10:56Z</time>
      </trkpt>
      <trkpt lat="47.71441" lon="3.66623">
        <ele>170</ele>
        <time>2014-09-07T07:11:04Z</time>
      </trkpt>
      <trkpt lat="47.71427" lon="3.66623">
        <ele>171</ele>
        <time>2014-09-07T07:11:18Z</time>
      </trkpt>
      <trkpt lat="47.7142" lon="3.6663">
        <ele>172</ele>
        <time>2014-09-07T07:11:31Z</time>
      </trkpt>
      <trkpt lat="47.71418" lon="3.66633">
        <ele>172</ele>
        <time>2014-09-07T07:11:45Z</time>
      </trkpt>
      <trkpt lat="47.71412" lon="3.66633">
        <ele>172</ele>
        <time>2014-09-07T07:12:04Z</time>
      </trkpt>
      <trkpt lat="47.71401" lon="3.66608">
        <ele>172</ele>
        <time>2014-09-07T07:12:29Z</time>
      </trkpt>
      <trkpt lat="47.71396" lon="3.66608">
        <ele>172</ele>
        <time>2014-09-07T07:12:50Z</time>
      </trkpt>
      <trkpt lat="47.71412" lon="3.66622">
        <ele>172</ele>
        <time>2014-09-07T07:13:08Z</time>
      </trkpt>
      <trkpt lat="47.71412" lon="3.6662">
        <ele>171</ele>
        <time>2014-09-07T07:13:21Z</time>
      </trkpt>
      <trkpt lat="47.71414" lon="3.66627">
        <ele>172</ele>
        <time>2014-09-07T07:13:36Z</time>
      </trkpt>
      <trkpt lat="47.71412" lon="3.6663">
        <ele>172</ele>
        <time>2014-09-07T07:13:54Z</time>
      </trkpt>
      <trkpt lat="47.71412" lon="3.66631">
        <ele>172</ele>
        <time>2014-09-07T07:14:17Z</time>
      </trkpt>
      <trkpt lat="47.71409" lon="3.6663">
        <ele>172</ele>
        <time>2014-09-07T07:14:32Z</time>
      </trkpt>
      <trkpt lat="47.71407" lon="3.66629">
        <ele>173</ele>
        <time>2014-09-07T07:14:42Z</time>
      </trkpt>
      <trkpt lat="47.71399" lon="3.66626">
        <ele>174</ele>
        <time>2014-09-07T07:14:56Z</time>
      </trkpt>
      <trkpt lat="47.71398" lon="3.66626">
        <ele>175</ele>
        <time>2014-09-07T07:15:03Z</time>
      </trkpt>
      <trkpt lat="47.71391" lon="3.66626">
        <ele>175</ele>
        <time>2014-09-07T07:15:09Z</time>
      </trkpt>
      <trkpt lat="47.71388" lon="3.66625">
        <ele>175</ele>
        <time>2014-09-07T07:15:12Z</time>
      </trkpt>
      <trkpt lat="47.71385" lon="3.66616">
        <ele>175</ele>
        <time>2014-09-07T07:15:17Z</time>
      </trkpt>
      <trkpt lat="47.71386" lon="3.66609">
        <ele>175</ele>
        <time>2014-09-07T07:15:21Z</time>
      </trkpt>
      <trkpt lat="47.71387" lon="3.66606">
        <ele>175</ele>
        <time>2014-09-07T07:15:23Z</time>
      </trkpt>
      <trkpt lat="47.71384" lon="3.6659">
        <ele>175</ele>
        <time>2014-09-07T07:15:32Z</time>
      </trkpt>
      <trkpt lat="47.71382" lon="3.66568">
        <ele>175</ele>
        <time>2014-09-07T07:15:44Z</time>
      </trkpt>
      <trkpt lat="47.71381" lon="3.66558">
        <ele>175</ele>
        <time>2014-09-07T07:15:54Z</time>
      </trkpt>
      <trkpt lat="47.71382" lon="3.66539">
        <ele>175</ele>
        <time>2014-09-07T07:16:06Z</time>
      </trkpt>
      <trkpt lat="47.71382" lon="3.6653">
        <ele>175</ele>
        <time>2014-09-07T07:16:11Z</time>
      </trkpt>
      <trkpt lat="47.7138" lon="3.66519">
        <ele>174</ele>
        <time>2014-09-07T07:16:17Z</time>
      </trkpt>
      <trkpt lat="47.71377" lon="3.66492">
        <ele>173</ele>
        <time>2014-09-07T07:16:34Z</time>
      </trkpt>
      <trkpt lat="47.71376" lon="3.66489">
        <ele>174</ele>
        <time>2014-09-07T07:16:36Z</time>
      </trkpt>
      <trkpt lat="47.71373" lon="3.66484">
        <ele>173</ele>
        <time>2014-09-07T07:16:40Z</time>
      </trkpt>
      <trkpt lat="47.71367" lon="3.66466">
        <ele>173</ele>
        <time>2014-09-07T07:16:52Z</time>
      </trkpt>
      <trkpt lat="47.71358" lon="3.66445">
        <ele>172</ele>
        <time>2014-09-07T07:17:04Z</time>
      </trkpt>
      <trkpt lat="47.71352" lon="3.66436">
        <ele>172</ele>
        <time>2014-09-07T07:17:19Z</time>
      </trkpt>
      <trkpt lat="47.71352" lon="3.66435">
        <ele>171</ele>
        <time>2014-09-07T07:17:39Z</time>
      </trkpt>
      <trkpt lat="47.71351" lon="3.66434">
        <ele>171</ele>
        <time>2014-09-07T07:17:58Z</time>
      </trkpt>
      <trkpt lat="47.71351" lon="3.66434">
        <ele>171</ele>
        <time>2014-09-07T07:18:16Z</time>
      </trkpt>
      <trkpt lat="47.7135" lon="3.66433">
        <ele>171</ele>
        <time>2014-09-07T07:18:29Z</time>
      </trkpt>
      <trkpt lat="47.7135" lon="3.66434">
        <ele>171</ele>
        <time>2014-09-07T07:18:50Z</time>
      </trkpt>
      <trkpt lat="47.7135" lon="3.66434">
        <ele>170</ele>
        <time>2014-09-07T07:19:10Z</time>
      </trkpt>
      <trkpt lat="47.71351" lon="3.66434">
        <ele>170</ele>
        <time>2014-09-07T07:19:27Z</time>
      </trkpt>
      <trkpt lat="47.7135" lon="3.66435">
        <ele>169</ele>
        <time>2014-09-07T07:19:43Z</time>
      </trkpt>
      <trkpt lat="47.71344" lon="3.66429">
        <ele>169</ele>
        <time>2014-09-07T07:19:57Z</time>
      </trkpt>
      <trkpt lat="47.71337" lon="3.66422">
        <ele>169</ele>
        <time>2014-09-07T07:20:12Z</time>
      </trkpt>
      <trkpt lat="47.71331" lon="3.66427">
        <ele>168</ele>
        <time>2014-09-07T07:20:25Z</time>
      </trkpt>
      <trkpt lat="47.71328" lon="3.6643">
        <ele>169</ele>
        <time>2014-09-07T07:20:35Z</time>
      </trkpt>
      <trkpt lat="47.71326" lon="3.66432">
        <ele>169</ele>
        <time>2014-09-07T07:20:37Z</time>
      </trkpt>
      <trkpt lat="47.71321" lon="3.66437">
        <ele>169</ele>
        <time>2014-09-07T07:20:41Z</time>
      </trkpt>
      <trkpt lat="47.71319" lon="3.66439">
        <ele>170</ele>
        <time>2014-09-07T07:20:43Z</time>
      </trkpt>
      <trkpt lat="47.71314" lon="3.66444">
        <ele>169</ele>
        <time>2014-09-07T07:20:47Z</time>
      </trkpt>
      <trkpt lat="47.71311" lon="3.66449">
        <ele>170</ele>
        <time>2014-09-07T07:20:51Z</time>
      </trkpt>
      <trkpt lat="47.71305" lon="3.66453">
        <ele>170</ele>
        <time>2014-09-07T07:20:56Z</time>
      </trkpt>
      <trkpt lat="47.71301" lon="3.66458">
        <ele>170</ele>
        <time>2014-09-07T07:21:00Z</time>
      </trkpt>
      <trkpt lat="47.71292" lon="3.6647">
        <ele>171</ele>
        <time>2014-09-07T07:21:14Z</time>
      </trkpt>
      <trkpt lat="47.7129" lon="3.66471">
        <ele>170</ele>
        <time>2014-09-07T07:21:19Z</time>
      </trkpt>
      <trkpt lat="47.71282" lon="3.66476">
        <ele>171</ele>
        <time>2014-09-07T07:21:26Z</time>
      </trkpt>
      <trkpt lat="47.71279" lon="3.66479">
        <ele>172</ele>
        <time>2014-09-07T07:21:33Z</time>
      </trkpt>
      <trkpt lat="47.71269" lon="3.66488">
        <ele>172</ele>
        <time>2014-09-07T07:21:42Z</time>
      </trkpt>
      <trkpt lat="47.71249" lon="3.66494">
        <ele>174</ele>
        <time>2014-09-07T07:21:54Z</time>
      </trkpt>
      <trkpt lat="47.71244" lon="3.66498">
        <ele>174</ele>
        <time>2014-09-07T07:22:08Z</time>
      </trkpt>
      <trkpt lat="47.71243" lon="3.66496">
        <ele>173</ele>
        <time>2014-09-07T07:22:19Z</time>
      </trkpt>
      <trkpt lat="47.71244" lon="3.66493">
        <ele>173</ele>
        <time>2014-09-07T07:22:27Z</time>
      </trkpt>
      <trkpt lat="47.71244" lon="3.66491">
        <ele>173</ele>
        <time>2014-09-07T07:22:29Z</time>
      </trkpt>
      <trkpt lat="47.71243" lon="3.66485">
        <ele>173</ele>
        <time>2014-09-07T07:22:33Z</time>
      </trkpt>
      <trkpt lat="47.71239" lon="3.66467">
        <ele>173</ele>
        <time>2014-09-07T07:22:49Z</time>
      </trkpt>
      <trkpt lat="47.71235" lon="3.66444">
        <ele>172</ele>
        <time>2014-09-07T07:23:05Z</time>
      </trkpt>
      <trkpt lat="47.71234" lon="3.66439">
        <ele>172</ele>
        <time>2014-09-07T07:23:08Z</time>
      </trkpt>
      <trkpt lat="47.71237" lon="3.66417">
        <ele>171</ele>
        <time>2014-09-07T07:23:21Z</time>
      </trkpt>
      <trkpt lat="47.71239" lon="3.66403">
        <ele>171</ele>
        <time>2014-09-07T07:23:30Z</time>
      </trkpt>
      <trkpt lat="47.71244" lon="3.66383">
        <ele>170</ele>
        <time>2014-09-07T07:23:42Z</time>
      </trkpt>
      <trkpt lat="47.7124" lon="3.66366">
        <ele>170</ele>
        <time>2014-09-07T07:23:56Z</time>
      </trkpt>
      <trkpt lat="47.71232" lon="3.66375">
        <ele>172</ele>
        <time>2014-09-07T07:24:10Z</time>
      </trkpt>
      <trkpt lat="47.71225" lon="3.66373">
        <ele>173</ele>
        <time>2014-09-07T07:24:14Z</time>
      </trkpt>
      <trkpt lat="47.71212" lon="3.66382">
        <ele>175</ele>
        <time>2014-09-07T07:24:27Z</time>
      </trkpt>
      <trkpt lat="47.71201" lon="3.66392">
        <ele>176</ele>
        <time>2014-09-07T07:24:39Z</time>
      </trkpt>
      <trkpt lat="47.71187" lon="3.66406">
        <ele>177</ele>
        <time>2014-09-07T07:24:54Z</time>
      </trkpt>
      <trkpt lat="47.71179" lon="3.66413">
        <ele>178</ele>
        <time>2014-09-07T07:25:04Z</time>
      </trkpt>
      <trkpt lat="47.71166" lon="3.66411">
        <ele>179</ele>
        <time>2014-09-07T07:25:17Z</time>
      </trkpt>
      <trkpt lat="47.71153" lon="3.66403">
        <ele>180</ele>
        <time>2014-09-07T07:25:31Z</time>
      </trkpt>
      <trkpt lat="47.7115" lon="3.66401">
        <ele>181</ele>
        <time>2014-09-07T07:25:34Z</time>
      </trkpt>
      <trkpt lat="47.71145" lon="3.66396">
        <ele>181</ele>
        <time>2014-09-07T07:25:41Z</time>
      </trkpt>
      <trkpt lat="47.7114" lon="3.66394">
        <ele>181</ele>
        <time>2014-09-07T07:25:46Z</time>
      </trkpt>
      <trkpt lat="47.71136" lon="3.66391">
        <ele>182</ele>
        <time>2014-09-07T07:25:51Z</time>
      </trkpt>
      <trkpt lat="47.71122" lon="3.66379">
        <ele>183</ele>
        <time>2014-09-07T07:26:06Z</time>
      </trkpt>
      <trkpt lat="47.71119" lon="3.66377">
        <ele>183</ele>
        <time>2014-09-07T07:26:09Z</time>
      </trkpt>
      <trkpt lat="47.71105" lon="3.66365">
        <ele>184</ele>
        <time>2014-09-07T07:26:24Z</time>
      </trkpt>
      <trkpt lat="47.71098" lon="3.66358">
        <ele>185</ele>
        <time>2014-09-07T07:26:33Z</time>
      </trkpt>
      <trkpt lat="47.71084" lon="3.66345">
        <ele>186</ele>
        <time>2014-09-07T07:26:49Z</time>
      </trkpt>
      <trkpt lat="47.71072" lon="3.66336">
        <ele>187</ele>
        <time>2014-09-07T07:27:01Z</time>
      </trkpt>
      <trkpt lat="47.7106" lon="3.66327">
        <ele>188</ele>
        <time>2014-09-07T07:27:14Z</time>
      </trkpt>
      <trkpt lat="47.71047" lon="3.6632">
        <ele>189</ele>
        <time>2014-09-07T07:27:27Z</time>
      </trkpt>
      <trkpt lat="47.71037" lon="3.66313">
        <ele>190</ele>
        <time>2014-09-07T07:27:39Z</time>
      </trkpt>
      <trkpt lat="47.71022" lon="3.66306">
        <ele>190</ele>
        <time>2014-09-07T07:27:54Z</time>
      </trkpt>
      <trkpt lat="47.71005" lon="3.66297">
        <ele>192</ele>
        <time>2014-09-07T07:28:10Z</time>
      </trkpt>
      <trkpt lat="47.70991" lon="3.66293">
        <ele>193</ele>
        <time>2014-09-07T07:28:23Z</time>
      </trkpt>
      <trkpt lat="47.70974" lon="3.6629">
        <ele>194</ele>
        <time>2014-09-07T07:28:39Z</time>
      </trkpt>
      <trkpt lat="47.70959" lon="3.66289">
        <ele>195</ele>
        <time>2014-09-07T07:28:53Z</time>
      </trkpt>
      <trkpt lat="47.70957" lon="3.66289">
        <ele>195</ele>
        <time>2014-09-07T07:28:55Z</time>
      </trkpt>
      <trkpt lat="47.7094" lon="3.66288">
        <ele>196</ele>
        <time>2014-09-07T07:29:11Z</time>
      </trkpt>
      <trkpt lat="47.70925" lon="3.66286">
        <ele>197</ele>
        <time>2014-09-07T07:29:24Z</time>
      </trkpt>
      <trkpt lat="47.70923" lon="3.66286">
        <ele>197</ele>
        <time>2014-09-07T07:29:26Z</time>
      </trkpt>
      <trkpt lat="47.70907" lon="3.66281">
        <ele>198</ele>
        <time>2014-09-07T07:29:40Z</time>
      </trkpt>
      <trkpt lat="47.70893" lon="3.66276">
        <ele>199</ele>
        <time>2014-09-07T07:29:53Z</time>
      </trkpt>
      <trkpt lat="47.70878" lon="3.6627">
        <ele>199</ele>
        <time>2014-09-07T07:30:08Z</time>
      </trkpt>
      <trkpt lat="47.70864" lon="3.66264">
        <ele>200</ele>
        <time>2014-09-07T07:30:21Z</time>
      </trkpt>
      <trkpt lat="47.70849" lon="3.66256">
        <ele>200</ele>
        <time>2014-09-07T07:30:35Z</time>
      </trkpt>
      <trkpt lat="47.70836" lon="3.66251">
        <ele>200</ele>
        <time>2014-09-07T07:30:47Z</time>
      </trkpt>
      <trkpt lat="47.70818" lon="3.66244">
        <ele>200</ele>
        <time>2014-09-07T07:31:03Z</time>
      </trkpt>
      <trkpt lat="47.70804" lon="3.6624">
        <ele>200</ele>
        <time>2014-09-07T07:31:16Z</time>
      </trkpt>
      <trkpt lat="47.70789" lon="3.66234">
        <ele>199</ele>
        <time>2014-09-07T07:31:31Z</time>
      </trkpt>
      <trkpt lat="47.70776" lon="3.66228">
        <ele>199</ele>
        <time>2014-09-07T07:31:44Z</time>
      </trkpt>
      <trkpt lat="47.70769" lon="3.66226">
        <ele>199</ele>
        <time>2014-09-07T07:31:51Z</time>
      </trkpt>
      <trkpt lat="47.70761" lon="3.66244">
        <ele>199</ele>
        <time>2014-09-07T07:32:06Z</time>
      </trkpt>
      <trkpt lat="47.70758" lon="3.66261">
        <ele>201</ele>
        <time>2014-09-07T07:32:18Z</time>
      </trkpt>
      <trkpt lat="47.70756" lon="3.66275">
        <ele>202</ele>
        <time>2014-09-07T07:32:28Z</time>
      </trkpt>
      <trkpt lat="47.70755" lon="3.66283">
        <ele>202</ele>
        <time>2014-09-07T07:32:34Z</time>
      </trkpt>
      <trkpt lat="47.70747" lon="3.66299">
        <ele>203</ele>
        <time>2014-09-07T07:32:47Z</time>
      </trkpt>
      <trkpt lat="47.70736" lon="3.66311">
        <ele>204</ele>
        <time>2014-09-07T07:33:00Z</time>
      </trkpt>
      <trkpt lat="47.70733" lon="3.66316">
        <ele>204</ele>
        <time>2014-09-07T07:33:05Z</time>
      </trkpt>
      <trkpt lat="47.70729" lon="3.66325">
        <ele>205</ele>
        <time>2014-09-07T07:33:12Z</time>
      </trkpt>
      <trkpt lat="47.70726" lon="3.66343">
        <ele>205</ele>
        <time>2014-09-07T07:33:25Z</time>
      </trkpt>
      <trkpt lat="47.70725" lon="3.66349">
        <ele>205</ele>
        <time>2014-09-07T07:33:29Z</time>
      </trkpt>
      <trkpt lat="47.70726" lon="3.66374">
        <ele>206</ele>
        <time>2014-09-07T07:33:45Z</time>
      </trkpt>
      <trkpt lat="47.70728" lon="3.664">
        <ele>207</ele>
        <time>2014-09-07T07:34:00Z</time>
      </trkpt>
      <trkpt lat="47.7073" lon="3.66422">
        <ele>208</ele>
        <time>2014-09-07T07:34:13Z</time>
      </trkpt>
      <trkpt lat="47.70731" lon="3.66428">
        <ele>208</ele>
        <time>2014-09-07T07:34:17Z</time>
      </trkpt>
      <trkpt lat="47.70731" lon="3.66444">
        <ele>209</ele>
        <time>2014-09-07T07:34:27Z</time>
      </trkpt>
      <trkpt lat="47.70732" lon="3.66457">
        <ele>209</ele>
        <time>2014-09-07T07:34:34Z</time>
      </trkpt>
      <trkpt lat="47.70732" lon="3.66461">
        <ele>209</ele>
        <time>2014-09-07T07:34:37Z</time>
      </trkpt>
      <trkpt lat="47.70733" lon="3.66464">
        <ele>209</ele>
        <time>2014-09-07T07:34:39Z</time>
      </trkpt>
      <trkpt lat="47.70734" lon="3.66485">
        <ele>209</ele>
        <time>2014-09-07T07:34:51Z</time>
      </trkpt>
      <trkpt lat="47.70732" lon="3.66508">
        <ele>210</ele>
        <time>2014-09-07T07:35:05Z</time>
      </trkpt>
      <trkpt lat="47.7073" lon="3.6652">
        <ele>210</ele>
        <time>2014-09-07T07:35:12Z</time>
      </trkpt>
      <trkpt lat="47.70729" lon="3.66527">
        <ele>211</ele>
        <time>2014-09-07T07:35:17Z</time>
      </trkpt>
      <trkpt lat="47.70727" lon="3.66537">
        <ele>211</ele>
        <time>2014-09-07T07:35:24Z</time>
      </trkpt>
      <trkpt lat="47.7072" lon="3.66559">
        <ele>213</ele>
        <time>2014-09-07T07:35:39Z</time>
      </trkpt>
      <trkpt lat="47.70715" lon="3.66578">
        <ele>213</ele>
        <time>2014-09-07T07:35:52Z</time>
      </trkpt>
      <trkpt lat="47.70714" lon="3.66583">
        <ele>214</ele>
        <time>2014-09-07T07:35:55Z</time>
      </trkpt>
      <trkpt lat="47.70713" lon="3.66602">
        <ele>215</ele>
        <time>2014-09-07T07:36:08Z</time>
      </trkpt>
      <trkpt lat="47.70713" lon="3.66605">
        <ele>215</ele>
        <time>2014-09-07T07:36:10Z</time>
      </trkpt>
      <trkpt lat="47.70711" lon="3.66627">
        <ele>216</ele>
        <time>2014-09-07T07:36:24Z</time>
      </trkpt>
      <trkpt lat="47.70709" lon="3.66647">
        <ele>218</ele>
        <time>2014-09-07T07:36:37Z</time>
      </trkpt>
      <trkpt lat="47.70711" lon="3.66666">
        <ele>218</ele>
        <time>2014-09-07T07:36:52Z</time>
      </trkpt>
      <trkpt lat="47.70712" lon="3.66669">
        <ele>219</ele>
        <time>2014-09-07T07:36:54Z</time>
      </trkpt>
      <trkpt lat="47.707" lon="3.66682">
        <ele>220</ele>
        <time>2014-09-07T07:37:09Z</time>
      </trkpt>
      <trkpt lat="47.70694" lon="3.66684">
        <ele>220</ele>
        <time>2014-09-07T07:37:15Z</time>
      </trkpt>
      <trkpt lat="47.70679" lon="3.66689">
        <ele>219</ele>
        <time>2014-09-07T07:37:32Z</time>
      </trkpt>
      <trkpt lat="47.70672" lon="3.6669">
        <ele>218</ele>
        <time>2014-09-07T07:37:39Z</time>
      </trkpt>
      <trkpt lat="47.70656" lon="3.6669">
        <ele>218</ele>
        <time>2014-09-07T07:37:53Z</time>
      </trkpt>
      <trkpt lat="47.7065" lon="3.66689">
        <ele>218</ele>
        <time>2014-09-07T07:37:59Z</time>
      </trkpt>
      <trkpt lat="47.70647" lon="3.66687">
        <ele>218</ele>
        <time>2014-09-07T07:38:02Z</time>
      </trkpt>
      <trkpt lat="47.7063" lon="3.66684">
        <ele>219</ele>
        <time>2014-09-07T07:38:18Z</time>
      </trkpt>
      <trkpt lat="47.70617" lon="3.66679">
        <ele>220</ele>
        <time>2014-09-07T07:38:33Z</time>
      </trkpt>
      <trkpt lat="47.70603" lon="3.66676">
        <ele>221</ele>
        <time>2014-09-07T07:38:47Z</time>
      </trkpt>
      <trkpt lat="47.70593" lon="3.66675">
        <ele>222</ele>
        <time>2014-09-07T07:38:58Z</time>
      </trkpt>
      <trkpt lat="47.7059" lon="3.66675">
        <ele>223</ele>
        <time>2014-09-07T07:39:01Z</time>
      </trkpt>
      <trkpt lat="47.70583" lon="3.66672">
        <ele>224</ele>
        <time>2014-09-07T07:39:08Z</time>
      </trkpt>
      <trkpt lat="47.70571" lon="3.66663">
        <ele>224</ele>
        <time>2014-09-07T07:39:20Z</time>
      </trkpt>
      <trkpt lat="47.7057" lon="3.66661">
        <ele>224</ele>
        <time>2014-09-07T07:39:22Z</time>
      </trkpt>
      <trkpt lat="47.7056" lon="3.66649">
        <ele>225</ele>
        <time>2014-09-07T07:39:34Z</time>
      </trkpt>
      <trkpt lat="47.70548" lon="3.66634">
        <ele>226</ele>
        <time>2014-09-07T07:39:48Z</time>
      </trkpt>
      <trkpt lat="47.70542" lon="3.66627">
        <ele>225</ele>
        <time>2014-09-07T07:39:55Z</time>
      </trkpt>
      <trkpt lat="47.70541" lon="3.66626">
        <ele>225</ele>
        <time>2014-09-07T07:39:57Z</time>
      </trkpt>
      <trkpt lat="47.70539" lon="3.66624">
        <ele>225</ele>
        <time>2014-09-07T07:39:59Z</time>
      </trkpt>
      <trkpt lat="47.7053" lon="3.66618">
        <ele>226</ele>
        <time>2014-09-07T07:40:08Z</time>
      </trkpt>
      <trkpt lat="47.70526" lon="3.66616">
        <ele>226</ele>
        <time>2014-09-07T07:40:12Z</time>
      </trkpt>
      <trkpt lat="47.70524" lon="3.66615">
        <ele>226</ele>
        <time>2014-09-07T07:40:14Z</time>
      </trkpt>
      <trkpt lat="47.70509" lon="3.66608">
        <ele>227</ele>
        <time>2014-09-07T07:40:29Z</time>
      </trkpt>
      <trkpt lat="47.70506" lon="3.66606">
        <ele>227</ele>
        <time>2014-09-07T07:40:32Z</time>
      </trkpt>
      <trkpt lat="47.70504" lon="3.66606">
        <ele>227</ele>
        <time>2014-09-07T07:40:34Z</time>
      </trkpt>
      <trkpt lat="47.7049" lon="3.66598">
        <ele>228</ele>
        <time>2014-09-07T07:40:48Z</time>
      </trkpt>
      <trkpt lat="47.70478" lon="3.66588">
        <ele>229</ele>
        <time>2014-09-07T07:41:01Z</time>
      </trkpt>
      <trkpt lat="47.70468" lon="3.66579">
        <ele>229</ele>
        <time>2014-09-07T07:41:12Z</time>
      </trkpt>
      <trkpt lat="47.70459" lon="3.6657">
        <ele>229</ele>
        <time>2014-09-07T07:41:21Z</time>
      </trkpt>
      <trkpt lat="47.70454" lon="3.66563">
        <ele>229</ele>
        <time>2014-09-07T07:41:27Z</time>
      </trkpt>
      <trkpt lat="47.70442" lon="3.66552">
        <ele>230</ele>
        <time>2014-09-07T07:41:40Z</time>
      </trkpt>
      <trkpt lat="47.70437" lon="3.66549">
        <ele>230</ele>
        <time>2014-09-07T07:41:45Z</time>
      </trkpt>
      <trkpt lat="47.70423" lon="3.6654">
        <ele>231</ele>
        <time>2014-09-07T07:41:59Z</time>
      </trkpt>
      <trkpt lat="47.7041" lon="3.66535">
        <ele>231</ele>
        <time>2014-09-07T07:42:12Z</time>
      </trkpt>
      <trkpt lat="47.70397" lon="3.66536">
        <ele>232</ele>
        <time>2014-09-07T07:42:25Z</time>
      </trkpt>
      <trkpt lat="47.70395" lon="3.66538">
        <ele>233</ele>
        <time>2014-09-07T07:42:28Z</time>
      </trkpt>
      <trkpt lat="47.70392" lon="3.66543">
        <ele>233</ele>
        <time>2014-09-07T07:42:33Z</time>
      </trkpt>
      <trkpt lat="47.70382" lon="3.66563">
        <ele>233</ele>
        <time>2014-09-07T07:42:50Z</time>
      </trkpt>
      <trkpt lat="47.70378" lon="3.66582">
        <ele>235</ele>
        <time>2014-09-07T07:43:03Z</time>
      </trkpt>
      <trkpt lat="47.70371" lon="3.66598">
        <ele>235</ele>
        <time>2014-09-07T07:43:15Z</time>
      </trkpt>
      <trkpt lat="47.70369" lon="3.66602">
        <ele>235</ele>
        <time>2014-09-07T07:43:18Z</time>
      </trkpt>
      <trkpt lat="47.70363" lon="3.66614">
        <ele>235</ele>
        <time>2014-09-07T07:43:27Z</time>
      </trkpt>
      <trkpt lat="47.70356" lon="3.66635">
        <ele>237</ele>
        <time>2014-09-07T07:43:43Z</time>
      </trkpt>
      <trkpt lat="47.70355" lon="3.66637">
        <ele>237</ele>
        <time>2014-09-07T07:43:45Z</time>
      </trkpt>
      <trkpt lat="47.70353" lon="3.6664">
        <ele>238</ele>
        <time>2014-09-07T07:43:47Z</time>
      </trkpt>
      <trkpt lat="47.70342" lon="3.66649">
        <ele>237</ele>
        <time>2014-09-07T07:43:59Z</time>
      </trkpt>
      <trkpt lat="47.70331" lon="3.66658">
        <ele>237</ele>
        <time>2014-09-07T07:44:11Z</time>
      </trkpt>
      <trkpt lat="47.70325" lon="3.66663">
        <ele>237</ele>
        <time>2014-09-07T07:44:18Z</time>
      </trkpt>
      <trkpt lat="47.70309" lon="3.66673">
        <ele>238</ele>
        <time>2014-09-07T07:44:33Z</time>
      </trkpt>
      <trkpt lat="47.70296" lon="3.6668">
        <ele>238</ele>
        <time>2014-09-07T07:44:46Z</time>
      </trkpt>
      <trkpt lat="47.70294" lon="3.66683">
        <ele>238</ele>
        <time>2014-09-07T07:44:59Z</time>
      </trkpt>
      <trkpt lat="47.70293" lon="3.66683">
        <ele>238</ele>
        <time>2014-09-07T07:45:15Z</time>
      </trkpt>
      <trkpt lat="47.70293" lon="3.66683">
        <ele>238</ele>
        <time>2014-09-07T07:45:38Z</time>
      </trkpt>
      <trkpt lat="47.70294" lon="3.66683">
        <ele>238</ele>
        <time>2014-09-07T07:46:00Z</time>
      </trkpt>
      <trkpt lat="47.70294" lon="3.66683">
        <ele>238</ele>
        <time>2014-09-07T07:46:28Z</time>
      </trkpt>
      <trkpt lat="47.70294" lon="3.66683">
        <ele>238</ele>
        <time>2014-09-07T07:46:46Z</time>
      </trkpt>
      <trkpt lat="47.70294" lon="3.66683">
        <ele>238</ele>
        <time>2014-09-07T07:47:01Z</time>
      </trkpt>
      <trkpt lat="47.70294" lon="3.66683">
        <ele>238</ele>
        <time>2014-09-07T07:47:27Z</time>
      </trkpt>
      <trkpt lat="47.70293" lon="3.66683">
        <ele>238</ele>
        <time>2014-09-07T07:47:48Z</time>
      </trkpt>
      <trkpt lat="47.70293" lon="3.66683">
        <ele>238</ele>
        <time>2014-09-07T07:48:09Z</time>
      </trkpt>
      <trkpt lat="47.70293" lon="3.66683">
        <ele>239</ele>
        <time>2014-09-07T07:48:31Z</time>
      </trkpt>
      <trkpt lat="47.70292" lon="3.66684">
        <ele>238</ele>
        <time>2014-09-07T07:48:51Z</time>
      </trkpt>
      <trkpt lat="47.70292" lon="3.66684">
        <ele>238</ele>
        <time>2014-09-07T07:49:16Z</time>
      </trkpt>
      <trkpt lat="47.70283" lon="3.66688">
        <ele>238</ele>
        <time>2014-09-07T07:49:29Z</time>
      </trkpt>
      <trkpt lat="47.70269" lon="3.66696">
        <ele>238</ele>
        <time>2014-09-07T07:49:42Z</time>
      </trkpt>
      <trkpt lat="47.70264" lon="3.66699">
        <ele>238</ele>
        <time>2014-09-07T07:49:47Z</time>
      </trkpt>
      <trkpt lat="47.7025" lon="3.66707">
        <ele>238</ele>
        <time>2014-09-07T07:50:00Z</time>
      </trkpt>
      <trkpt lat="47.70235" lon="3.66714">
        <ele>237</ele>
        <time>2014-09-07T07:50:13Z</time>
      </trkpt>
      <trkpt lat="47.70221" lon="3.66721">
        <ele>237</ele>
        <time>2014-09-07T07:50:25Z</time>
      </trkpt>
      <trkpt lat="47.70203" lon="3.66732">
        <ele>237</ele>
        <time>2014-09-07T07:50:42Z</time>
      </trkpt>
      <trkpt lat="47.70188" lon="3.66736">
        <ele>237</ele>
        <time>2014-09-07T07:50:56Z</time>
      </trkpt>
      <trkpt lat="47.70172" lon="3.66738">
        <ele>235</ele>
        <time>2014-09-07T07:51:10Z</time>
      </trkpt>
      <trkpt lat="47.70154" lon="3.6674">
        <ele>234</ele>
        <time>2014-09-07T07:51:26Z</time>
      </trkpt>
      <trkpt lat="47.70137" lon="3.66742">
        <ele>234</ele>
        <time>2014-09-07T07:51:41Z</time>
      </trkpt>
      <trkpt lat="47.70122" lon="3.66745">
        <ele>233</ele>
        <time>2014-09-07T07:51:54Z</time>
      </trkpt>
      <trkpt lat="47.70109" lon="3.66755">
        <ele>232</ele>
        <time>2014-09-07T07:52:07Z</time>
      </trkpt>
      <trkpt lat="47.70101" lon="3.6677">
        <ele>233</ele>
        <time>2014-09-07T07:52:19Z</time>
      </trkpt>
      <trkpt lat="47.70099" lon="3.66793">
        <ele>233</ele>
        <time>2014-09-07T07:52:33Z</time>
      </trkpt>
      <trkpt lat="47.70103" lon="3.66817">
        <ele>233</ele>
        <time>2014-09-07T07:52:47Z</time>
      </trkpt>
      <trkpt lat="47.70108" lon="3.66836">
        <ele>234</ele>
        <time>2014-09-07T07:53:00Z</time>
      </trkpt>
      <trkpt lat="47.70115" lon="3.66855">
        <ele>235</ele>
        <time>2014-09-07T07:53:14Z</time>
      </trkpt>
      <trkpt lat="47.70118" lon="3.66865">
        <ele>235</ele>
        <time>2014-09-07T07:53:21Z</time>
      </trkpt>
      <trkpt lat="47.70121" lon="3.66876">
        <ele>235</ele>
        <time>2014-09-07T07:53:28Z</time>
      </trkpt>
      <trkpt lat="47.70126" lon="3.66892">
        <ele>236</ele>
        <time>2014-09-07T07:53:40Z</time>
      </trkpt>
      <trkpt lat="47.70128" lon="3.669">
        <ele>236</ele>
        <time>2014-09-07T07:53:46Z</time>
      </trkpt>
      <trkpt lat="47.70128" lon="3.66907">
        <ele>236</ele>
        <time>2014-09-07T07:53:50Z</time>
      </trkpt>
      <trkpt lat="47.70138" lon="3.66929">
        <ele>236</ele>
        <time>2014-09-07T07:54:06Z</time>
      </trkpt>
      <trkpt lat="47.70146" lon="3.66945">
        <ele>237</ele>
        <time>2014-09-07T07:54:21Z</time>
      </trkpt>
      <trkpt lat="47.70147" lon="3.66947">
        <ele>237</ele>
        <time>2014-09-07T07:54:23Z</time>
      </trkpt>
      <trkpt lat="47.70151" lon="3.66952">
        <ele>237</ele>
        <time>2014-09-07T07:54:28Z</time>
      </trkpt>
      <trkpt lat="47.70157" lon="3.66965">
        <ele>238</ele>
        <time>2014-09-07T07:54:36Z</time>
      </trkpt>
      <trkpt lat="47.70165" lon="3.66988">
        <ele>238</ele>
        <time>2014-09-07T07:54:51Z</time>
      </trkpt>
      <trkpt lat="47.70172" lon="3.67008">
        <ele>238</ele>
        <time>2014-09-07T07:55:04Z</time>
      </trkpt>
      <trkpt lat="47.70172" lon="3.6701">
        <ele>239</ele>
        <time>2014-09-07T07:55:05Z</time>
      </trkpt>
      <trkpt lat="47.70175" lon="3.67017">
        <ele>239</ele>
        <time>2014-09-07T07:55:10Z</time>
      </trkpt>
      <trkpt lat="47.70178" lon="3.67024">
        <ele>239</ele>
        <time>2014-09-07T07:55:14Z</time>
      </trkpt>
      <trkpt lat="47.70188" lon="3.67045">
        <ele>238</ele>
        <time>2014-09-07T07:55:28Z</time>
      </trkpt>
      <trkpt lat="47.70191" lon="3.67053">
        <ele>238</ele>
        <time>2014-09-07T07:55:33Z</time>
      </trkpt>
      <trkpt lat="47.70195" lon="3.67065">
        <ele>238</ele>
        <time>2014-09-07T07:55:41Z</time>
      </trkpt>
      <trkpt lat="47.70198" lon="3.67074">
        <ele>238</ele>
        <time>2014-09-07T07:55:46Z</time>
      </trkpt>
      <trkpt lat="47.702" lon="3.6708">
        <ele>238</ele>
        <time>2014-09-07T07:55:50Z</time>
      </trkpt>
      <trkpt lat="47.70203" lon="3.67096">
        <ele>237</ele>
        <time>2014-09-07T07:55:59Z</time>
      </trkpt>
      <trkpt lat="47.70207" lon="3.67108">
        <ele>237</ele>
        <time>2014-09-07T07:56:06Z</time>
      </trkpt>
      <trkpt lat="47.70212" lon="3.67117">
        <ele>238</ele>
        <time>2014-09-07T07:56:12Z</time>
      </trkpt>
      <trkpt lat="47.70216" lon="3.67132">
        <ele>237</ele>
        <time>2014-09-07T07:56:21Z</time>
      </trkpt>
      <trkpt lat="47.70222" lon="3.67149">
        <ele>237</ele>
        <time>2014-09-07T07:56:32Z</time>
      </trkpt>
      <trkpt lat="47.70223" lon="3.67152">
        <ele>237</ele>
        <time>2014-09-07T07:56:34Z</time>
      </trkpt>
      <trkpt lat="47.70224" lon="3.67155">
        <ele>237</ele>
        <time>2014-09-07T07:56:36Z</time>
      </trkpt>
      <trkpt lat="47.70232" lon="3.67175">
        <ele>237</ele>
        <time>2014-09-07T07:56:50Z</time>
      </trkpt>
      <trkpt lat="47.70233" lon="3.67176">
        <ele>237</ele>
        <time>2014-09-07T07:56:51Z</time>
      </trkpt>
      <trkpt lat="47.70234" lon="3.67179">
        <ele>237</ele>
        <time>2014-09-07T07:56:53Z</time>
      </trkpt>
      <trkpt lat="47.70238" lon="3.67189">
        <ele>236</ele>
        <time>2014-09-07T07:57:00Z</time>
      </trkpt>
      <trkpt lat="47.7024" lon="3.67199">
        <ele>237</ele>
        <time>2014-09-07T07:57:06Z</time>
      </trkpt>
      <trkpt lat="47.70244" lon="3.67209">
        <ele>237</ele>
        <time>2014-09-07T07:57:12Z</time>
      </trkpt>
      <trkpt lat="47.70246" lon="3.67216">
        <ele>236</ele>
        <time>2014-09-07T07:57:16Z</time>
      </trkpt>
      <trkpt lat="47.70247" lon="3.67218">
        <ele>236</ele>
        <time>2014-09-07T07:57:18Z</time>
      </trkpt>
      <trkpt lat="47.70251" lon="3.67228">
        <ele>236</ele>
        <time>2014-09-07T07:57:24Z</time>
      </trkpt>
      <trkpt lat="47.70256" lon="3.67244">
        <ele>236</ele>
        <time>2014-09-07T07:57:33Z</time>
      </trkpt>
      <trkpt lat="47.70257" lon="3.67247">
        <ele>236</ele>
        <time>2014-09-07T07:57:35Z</time>
      </trkpt>
      <trkpt lat="47.70258" lon="3.67252">
        <ele>236</ele>
        <time>2014-09-07T07:57:38Z</time>
      </trkpt>
      <trkpt lat="47.70263" lon="3.67263">
        <ele>235</ele>
        <time>2014-09-07T07:57:45Z</time>
      </trkpt>
      <trkpt lat="47.70268" lon="3.67278">
        <ele>235</ele>
        <time>2014-09-07T07:57:54Z</time>
      </trkpt>
      <trkpt lat="47.70277" lon="3.673">
        <ele>235</ele>
        <time>2014-09-07T07:58:07Z</time>
      </trkpt>
      <trkpt lat="47.7028" lon="3.67313">
        <ele>235</ele>
        <time>2014-09-07T07:58:15Z</time>
      </trkpt>
      <trkpt lat="47.70283" lon="3.6733">
        <ele>234</ele>
        <time>2014-09-07T07:58:24Z</time>
      </trkpt>
      <trkpt lat="47.70287" lon="3.67351">
        <ele>233</ele>
        <time>2014-09-07T07:58:36Z</time>
      </trkpt>
      <trkpt lat="47.7029" lon="3.67371">
        <ele>233</ele>
        <time>2014-09-07T07:58:47Z</time>
      </trkpt>
      <trkpt lat="47.70291" lon="3.67374">
        <ele>233</ele>
        <time>2014-09-07T07:58:49Z</time>
      </trkpt>
      <trkpt lat="47.70293" lon="3.67387">
        <ele>232</ele>
        <time>2014-09-07T07:58:56Z</time>
      </trkpt>
      <trkpt lat="47.70293" lon="3.67391">
        <ele>232</ele>
        <time>2014-09-07T07:58:58Z</time>
      </trkpt>
      <trkpt lat="47.70294" lon="3.67397">
        <ele>232</ele>
        <time>2014-09-07T07:59:02Z</time>
      </trkpt>
      <trkpt lat="47.70295" lon="3.67423">
        <ele>230</ele>
        <time>2014-09-07T07:59:16Z</time>
      </trkpt>
      <trkpt lat="47.70295" lon="3.67427">
        <ele>230</ele>
        <time>2014-09-07T07:59:18Z</time>
      </trkpt>
      <trkpt lat="47.70297" lon="3.67441">
        <ele>229</ele>
        <time>2014-09-07T07:59:26Z</time>
      </trkpt>
      <trkpt lat="47.70298" lon="3.67454">
        <ele>229</ele>
        <time>2014-09-07T07:59:33Z</time>
      </trkpt>
      <trkpt lat="47.70299" lon="3.67472">
        <ele>228</ele>
        <time>2014-09-07T07:59:42Z</time>
      </trkpt>
      <trkpt lat="47.70299" lon="3.6748">
        <ele>228</ele>
        <time>2014-09-07T07:59:47Z</time>
      </trkpt>
      <trkpt lat="47.70299" lon="3.67502">
        <ele>227</ele>
        <time>2014-09-07T07:59:58Z</time>
      </trkpt>
      <trkpt lat="47.70303" lon="3.67528">
        <ele>227</ele>
        <time>2014-09-07T08:00:13Z</time>
      </trkpt>
      <trkpt lat="47.70304" lon="3.67547">
        <ele>226</ele>
        <time>2014-09-07T08:00:23Z</time>
      </trkpt>
      <trkpt lat="47.70305" lon="3.67571">
        <ele>226</ele>
        <time>2014-09-07T08:00:37Z</time>
      </trkpt>
      <trkpt lat="47.70304" lon="3.6758">
        <ele>225</ele>
        <time>2014-09-07T08:00:42Z</time>
      </trkpt>
      <trkpt lat="47.703" lon="3.67603">
        <ele>225</ele>
        <time>2014-09-07T08:00:54Z</time>
      </trkpt>
      <trkpt lat="47.70295" lon="3.67628">
        <ele>225</ele>
        <time>2014-09-07T08:01:09Z</time>
      </trkpt>
      <trkpt lat="47.7029" lon="3.67652">
        <ele>225</ele>
        <time>2014-09-07T08:01:25Z</time>
      </trkpt>
      <trkpt lat="47.70285" lon="3.67673">
        <ele>225</ele>
        <time>2014-09-07T08:01:39Z</time>
      </trkpt>
      <trkpt lat="47.70282" lon="3.67694">
        <ele>225</ele>
        <time>2014-09-07T08:01:51Z</time>
      </trkpt>
      <trkpt lat="47.70279" lon="3.67711">
        <ele>225</ele>
        <time>2014-09-07T08:02:02Z</time>
      </trkpt>
      <trkpt lat="47.70279" lon="3.67713">
        <ele>225</ele>
        <time>2014-09-07T08:02:17Z</time>
      </trkpt>
      <trkpt lat="47.70279" lon="3.67714">
        <ele>226</ele>
        <time>2014-09-07T08:02:30Z</time>
      </trkpt>
      <trkpt lat="47.70279" lon="3.67714">
        <ele>225</ele>
        <time>2014-09-07T08:02:48Z</time>
      </trkpt>
      <trkpt lat="47.70279" lon="3.67714">
        <ele>222</ele>
        <time>2014-09-07T08:02:57Z</time>
      </trkpt>
      <trkpt lat="47.70279" lon="3.67714">
        <ele>225</ele>
        <time>2014-09-07T08:02:58Z</time>
      </trkpt>
      <trkpt lat="47.70279" lon="3.67714">
        <ele>228</ele>
        <time>2014-09-07T08:03:18Z</time>
      </trkpt>
      <trkpt lat="47.70279" lon="3.67714">
        <ele>226</ele>
        <time>2014-09-07T08:03:19Z</time>
      </trkpt>
      <trkpt lat="47.70279" lon="3.67716">
        <ele>226</ele>
        <time>2014-09-07T08:03:26Z</time>
      </trkpt>
      <trkpt lat="47.70277" lon="3.67746">
        <ele>227</ele>
        <time>2014-09-07T08:03:40Z</time>
      </trkpt>
      <trkpt lat="47.70279" lon="3.67764">
        <ele>227</ele>
        <time>2014-09-07T08:03:49Z</time>
      </trkpt>
      <trkpt lat="47.70282" lon="3.67776">
        <ele>227</ele>
        <time>2014-09-07T08:03:55Z</time>
      </trkpt>
      <trkpt lat="47.70289" lon="3.67806">
        <ele>227</ele>
        <time>2014-09-07T08:04:11Z</time>
      </trkpt>
      <trkpt lat="47.70301" lon="3.67831">
        <ele>228</ele>
        <time>2014-09-07T08:04:27Z</time>
      </trkpt>
      <trkpt lat="47.70314" lon="3.67849">
        <ele>230</ele>
        <time>2014-09-07T08:04:41Z</time>
      </trkpt>
      <trkpt lat="47.70328" lon="3.67867">
        <ele>230</ele>
        <time>2014-09-07T08:04:56Z</time>
      </trkpt>
      <trkpt lat="47.70343" lon="3.67886">
        <ele>231</ele>
        <time>2014-09-07T08:05:12Z</time>
      </trkpt>
      <trkpt lat="47.7036" lon="3.67904">
        <ele>232</ele>
        <time>2014-09-07T08:05:30Z</time>
      </trkpt>
      <trkpt lat="47.70374" lon="3.67917">
        <ele>233</ele>
        <time>2014-09-07T08:05:45Z</time>
      </trkpt>
      <trkpt lat="47.70379" lon="3.67923">
        <ele>233</ele>
        <time>2014-09-07T08:05:51Z</time>
      </trkpt>
      <trkpt lat="47.70387" lon="3.67933">
        <ele>234</ele>
        <time>2014-09-07T08:06:01Z</time>
      </trkpt>
      <trkpt lat="47.70389" lon="3.67937">
        <ele>234</ele>
        <time>2014-09-07T08:06:04Z</time>
      </trkpt>
      <trkpt lat="47.70396" lon="3.6795">
        <ele>234</ele>
        <time>2014-09-07T08:06:14Z</time>
      </trkpt>
      <trkpt lat="47.70406" lon="3.67971">
        <ele>236</ele>
        <time>2014-09-07T08:06:29Z</time>
      </trkpt>
      <trkpt lat="47.70408" lon="3.67976">
        <ele>236</ele>
        <time>2014-09-07T08:06:33Z</time>
      </trkpt>
      <trkpt lat="47.70414" lon="3.67995">
        <ele>237</ele>
        <time>2014-09-07T08:06:45Z</time>
      </trkpt>
      <trkpt lat="47.70416" lon="3.68004">
        <ele>238</ele>
        <time>2014-09-07T08:06:51Z</time>
      </trkpt>
      <trkpt lat="47.70421" lon="3.68018">
        <ele>238</ele>
        <time>2014-09-07T08:07:00Z</time>
      </trkpt>
      <trkpt lat="47.70427" lon="3.6804">
        <ele>239</ele>
        <time>2014-09-07T08:07:14Z</time>
      </trkpt>
      <trkpt lat="47.70433" lon="3.68066">
        <ele>240</ele>
        <time>2014-09-07T08:07:30Z</time>
      </trkpt>
      <trkpt lat="47.70438" lon="3.68088">
        <ele>239</ele>
        <time>2014-09-07T08:07:44Z</time>
      </trkpt>
      <trkpt lat="47.70445" lon="3.68109">
        <ele>240</ele>
        <time>2014-09-07T08:07:57Z</time>
      </trkpt>
      <trkpt lat="47.70455" lon="3.68131">
        <ele>240</ele>
        <time>2014-09-07T08:08:12Z</time>
      </trkpt>
      <trkpt lat="47.70464" lon="3.68148">
        <ele>241</ele>
        <time>2014-09-07T08:08:25Z</time>
      </trkpt>
      <trkpt lat="47.70473" lon="3.68168">
        <ele>242</ele>
        <time>2014-09-07T08:08:40Z</time>
      </trkpt>
      <trkpt lat="47.70483" lon="3.68187">
        <ele>243</ele>
        <time>2014-09-07T08:08:54Z</time>
      </trkpt>
      <trkpt lat="47.70492" lon="3.68206">
        <ele>244</ele>
        <time>2014-09-07T08:09:08Z</time>
      </trkpt>
      <trkpt lat="47.70497" lon="3.68215">
        <ele>245</ele>
        <time>2014-09-07T08:09:15Z</time>
      </trkpt>
      <trkpt lat="47.70501" lon="3.68223">
        <ele>245</ele>
        <time>2014-09-07T08:09:21Z</time>
      </trkpt>
      <trkpt lat="47.70515" lon="3.68243">
        <ele>246</ele>
        <time>2014-09-07T08:09:38Z</time>
      </trkpt>
      <trkpt lat="47.70525" lon="3.6826">
        <ele>247</ele>
        <time>2014-09-07T08:09:52Z</time>
      </trkpt>
      <trkpt lat="47.70531" lon="3.68266">
        <ele>248</ele>
        <time>2014-09-07T08:09:58Z</time>
      </trkpt>
      <trkpt lat="47.70535" lon="3.68273">
        <ele>248</ele>
        <time>2014-09-07T08:10:04Z</time>
      </trkpt>
      <trkpt lat="47.70542" lon="3.68279">
        <ele>249</ele>
        <time>2014-09-07T08:10:11Z</time>
      </trkpt>
      <trkpt lat="47.70547" lon="3.68288">
        <ele>249</ele>
        <time>2014-09-07T08:10:18Z</time>
      </trkpt>
      <trkpt lat="47.70548" lon="3.68291">
        <ele>250</ele>
        <time>2014-09-07T08:10:20Z</time>
      </trkpt>
      <trkpt lat="47.70561" lon="3.68307">
        <ele>250</ele>
        <time>2014-09-07T08:10:35Z</time>
      </trkpt>
      <trkpt lat="47.70572" lon="3.68323">
        <ele>251</ele>
        <time>2014-09-07T08:10:48Z</time>
      </trkpt>
      <trkpt lat="47.70573" lon="3.68325">
        <ele>251</ele>
        <time>2014-09-07T08:10:50Z</time>
      </trkpt>
      <trkpt lat="47.70587" lon="3.68343">
        <ele>252</ele>
        <time>2014-09-07T08:11:05Z</time>
      </trkpt>
      <trkpt lat="47.70599" lon="3.68359">
        <ele>253</ele>
        <time>2014-09-07T08:11:19Z</time>
      </trkpt>
      <trkpt lat="47.70613" lon="3.68376">
        <ele>253</ele>
        <time>2014-09-07T08:11:34Z</time>
      </trkpt>
      <trkpt lat="47.70623" lon="3.6839">
        <ele>254</ele>
        <time>2014-09-07T08:11:46Z</time>
      </trkpt>
      <trkpt lat="47.70635" lon="3.68406">
        <ele>254</ele>
        <time>2014-09-07T08:12:00Z</time>
      </trkpt>
      <trkpt lat="47.70649" lon="3.68424">
        <ele>255</ele>
        <time>2014-09-07T08:12:15Z</time>
      </trkpt>
      <trkpt lat="47.7066" lon="3.6844">
        <ele>255</ele>
        <time>2014-09-07T08:12:28Z</time>
      </trkpt>
      <trkpt lat="47.70672" lon="3.6846">
        <ele>256</ele>
        <time>2014-09-07T08:12:43Z</time>
      </trkpt>
      <trkpt lat="47.70682" lon="3.68474">
        <ele>256</ele>
        <time>2014-09-07T08:12:55Z</time>
      </trkpt>
      <trkpt lat="47.70694" lon="3.68495">
        <ele>257</ele>
        <time>2014-09-07T08:13:10Z</time>
      </trkpt>
      <trkpt lat="47.70707" lon="3.68517">
        <ele>257</ele>
        <time>2014-09-07T08:13:26Z</time>
      </trkpt>
      <trkpt lat="47.70714" lon="3.68529">
        <ele>258</ele>
        <time>2014-09-07T08:13:34Z</time>
      </trkpt>
      <trkpt lat="47.70726" lon="3.68549">
        <ele>258</ele>
        <time>2014-09-07T08:13:49Z</time>
      </trkpt>
      <trkpt lat="47.70738" lon="3.68568">
        <ele>259</ele>
        <time>2014-09-07T08:14:04Z</time>
      </trkpt>
      <trkpt lat="47.70749" lon="3.68586">
        <ele>258</ele>
        <time>2014-09-07T08:14:17Z</time>
      </trkpt>
      <trkpt lat="47.70761" lon="3.68608">
        <ele>259</ele>
        <time>2014-09-07T08:14:33Z</time>
      </trkpt>
      <trkpt lat="47.70762" lon="3.6861">
        <ele>259</ele>
        <time>2014-09-07T08:14:34Z</time>
      </trkpt>
      <trkpt lat="47.70774" lon="3.68629">
        <ele>260</ele>
        <time>2014-09-07T08:14:49Z</time>
      </trkpt>
      <trkpt lat="47.70774" lon="3.68631">
        <ele>260</ele>
        <time>2014-09-07T08:14:50Z</time>
      </trkpt>
      <trkpt lat="47.70779" lon="3.68639">
        <ele>260</ele>
        <time>2014-09-07T08:14:56Z</time>
      </trkpt>
      <trkpt lat="47.70789" lon="3.68652">
        <ele>261</ele>
        <time>2014-09-07T08:15:12Z</time>
      </trkpt>
      <trkpt lat="47.70791" lon="3.68654">
        <ele>261</ele>
        <time>2014-09-07T08:15:24Z</time>
      </trkpt>
      <trkpt lat="47.70792" lon="3.68655">
        <ele>262</ele>
        <time>2014-09-07T08:15:35Z</time>
      </trkpt>
      <trkpt lat="47.70791" lon="3.68655">
        <ele>261</ele>
        <time>2014-09-07T08:15:47Z</time>
      </trkpt>
      <trkpt lat="47.70791" lon="3.68654">
        <ele>261</ele>
        <time>2014-09-07T08:15:59Z</time>
      </trkpt>
      <trkpt lat="47.70791" lon="3.68654">
        <ele>262</ele>
        <time>2014-09-07T08:16:15Z</time>
      </trkpt>
      <trkpt lat="47.70791" lon="3.68654">
        <ele>261</ele>
        <time>2014-09-07T08:16:37Z</time>
      </trkpt>
      <trkpt lat="47.70791" lon="3.68654">
        <ele>262</ele>
        <time>2014-09-07T08:16:59Z</time>
      </trkpt>
      <trkpt lat="47.7079" lon="3.68654">
        <ele>260</ele>
        <time>2014-09-07T08:17:16Z</time>
      </trkpt>
      <trkpt lat="47.7079" lon="3.6865">
        <ele>261</ele>
        <time>2014-09-07T08:17:31Z</time>
      </trkpt>
      <trkpt lat="47.7079" lon="3.6865">
        <ele>261</ele>
        <time>2014-09-07T08:17:57Z</time>
      </trkpt>
      <trkpt lat="47.7079" lon="3.6865">
        <ele>261</ele>
        <time>2014-09-07T08:18:30Z</time>
      </trkpt>
      <trkpt lat="47.70791" lon="3.6865">
        <ele>261</ele>
        <time>2014-09-07T08:19:12Z</time>
      </trkpt>
      <trkpt lat="47.70791" lon="3.6865">
        <ele>261</ele>
        <time>2014-09-07T08:19:47Z</time>
      </trkpt>
      <trkpt lat="47.70791" lon="3.6865">
        <ele>261</ele>
        <time>2014-09-07T08:20:17Z</time>
      </trkpt>
      <trkpt lat="47.70791" lon="3.6865">
        <ele>261</ele>
        <time>2014-09-07T08:20:48Z</time>
      </trkpt>
      <trkpt lat="47.70791" lon="3.6865">
        <ele>262</ele>
        <time>2014-09-07T08:21:03Z</time>
      </trkpt>
      <trkpt lat="47.70791" lon="3.68642">
        <ele>262</ele>
        <time>2014-09-07T08:21:16Z</time>
      </trkpt>
      <trkpt lat="47.70794" lon="3.6863">
        <ele>263</ele>
        <time>2014-09-07T08:21:29Z</time>
      </trkpt>
      <trkpt lat="47.70795" lon="3.68628">
        <ele>263</ele>
        <time>2014-09-07T08:21:31Z</time>
      </trkpt>
      <trkpt lat="47.70796" lon="3.6862">
        <ele>263</ele>
        <time>2014-09-07T08:21:37Z</time>
      </trkpt>
      <trkpt lat="47.70799" lon="3.68604">
        <ele>264</ele>
        <time>2014-09-07T08:21:50Z</time>
      </trkpt>
      <trkpt lat="47.70801" lon="3.68585">
        <ele>265</ele>
        <time>2014-09-07T08:22:04Z</time>
      </trkpt>
      <trkpt lat="47.70801" lon="3.68582">
        <ele>265</ele>
        <time>2014-09-07T08:22:06Z</time>
      </trkpt>
      <trkpt lat="47.70802" lon="3.68579">
        <ele>265</ele>
        <time>2014-09-07T08:22:08Z</time>
      </trkpt>
      <trkpt lat="47.70804" lon="3.68558">
        <ele>267</ele>
        <time>2014-09-07T08:22:23Z</time>
      </trkpt>
      <trkpt lat="47.70807" lon="3.68539">
        <ele>269</ele>
        <time>2014-09-07T08:22:36Z</time>
      </trkpt>
      <trkpt lat="47.70809" lon="3.68519">
        <ele>271</ele>
        <time>2014-09-07T08:22:50Z</time>
      </trkpt>
      <trkpt lat="47.7081" lon="3.68515">
        <ele>271</ele>
        <time>2014-09-07T08:22:54Z</time>
      </trkpt>
      <trkpt lat="47.7081" lon="3.68496">
        <ele>272</ele>
        <time>2014-09-07T08:23:08Z</time>
      </trkpt>
      <trkpt lat="47.7081" lon="3.68479">
        <ele>274</ele>
        <time>2014-09-07T08:23:21Z</time>
      </trkpt>
      <trkpt lat="47.70807" lon="3.68458">
        <ele>275</ele>
        <time>2014-09-07T08:23:35Z</time>
      </trkpt>
      <trkpt lat="47.70806" lon="3.68441">
        <ele>277</ele>
        <time>2014-09-07T08:23:47Z</time>
      </trkpt>
      <trkpt lat="47.70807" lon="3.68437">
        <ele>277</ele>
        <time>2014-09-07T08:23:50Z</time>
      </trkpt>
      <trkpt lat="47.70806" lon="3.68418">
        <ele>278</ele>
        <time>2014-09-07T08:24:03Z</time>
      </trkpt>
      <trkpt lat="47.70805" lon="3.684">
        <ele>279</ele>
        <time>2014-09-07T08:24:15Z</time>
      </trkpt>
      <trkpt lat="47.70804" lon="3.68389">
        <ele>279</ele>
        <time>2014-09-07T08:24:22Z</time>
      </trkpt>
      <trkpt lat="47.70804" lon="3.68366">
        <ele>281</ele>
        <time>2014-09-07T08:24:37Z</time>
      </trkpt>
      <trkpt lat="47.70803" lon="3.68354">
        <ele>282</ele>
        <time>2014-09-07T08:24:50Z</time>
      </trkpt>
      <trkpt lat="47.70803" lon="3.68354">
        <ele>282</ele>
        <time>2014-09-07T08:25:09Z</time>
      </trkpt>
      <trkpt lat="47.70803" lon="3.68354">
        <ele>282</ele>
        <time>2014-09-07T08:25:23Z</time>
      </trkpt>
      <trkpt lat="47.70803" lon="3.68354">
        <ele>282</ele>
        <time>2014-09-07T08:25:38Z</time>
      </trkpt>
      <trkpt lat="47.70803" lon="3.68354">
        <ele>282</ele>
        <time>2014-09-07T08:25:53Z</time>
      </trkpt>
      <trkpt lat="47.70804" lon="3.68352">
        <ele>282</ele>
        <time>2014-09-07T08:26:15Z</time>
      </trkpt>
      <trkpt lat="47.70803" lon="3.68329">
        <ele>284</ele>
        <time>2014-09-07T08:26:30Z</time>
      </trkpt>
      <trkpt lat="47.708" lon="3.68309">
        <ele>285</ele>
        <time>2014-09-07T08:26:42Z</time>
      </trkpt>
      <trkpt lat="47.70792" lon="3.68287">
        <ele>286</ele>
        <time>2014-09-07T08:26:56Z</time>
      </trkpt>
      <trkpt lat="47.7079" lon="3.68282">
        <ele>286</ele>
        <time>2014-09-07T08:27:00Z</time>
      </trkpt>
      <trkpt lat="47.70784" lon="3.68264">
        <ele>287</ele>
        <time>2014-09-07T08:27:12Z</time>
      </trkpt>
      <trkpt lat="47.70782" lon="3.68259">
        <ele>287</ele>
        <time>2014-09-07T08:27:15Z</time>
      </trkpt>
      <trkpt lat="47.70778" lon="3.68251">
        <ele>287</ele>
        <time>2014-09-07T08:27:21Z</time>
      </trkpt>
      <trkpt lat="47.7077" lon="3.68231">
        <ele>288</ele>
        <time>2014-09-07T08:27:34Z</time>
      </trkpt>
      <trkpt lat="47.70765" lon="3.68216">
        <ele>288</ele>
        <time>2014-09-07T08:27:43Z</time>
      </trkpt>
      <trkpt lat="47.70763" lon="3.68212">
        <ele>288</ele>
        <time>2014-09-07T08:27:46Z</time>
      </trkpt>
      <trkpt lat="47.70762" lon="3.68209">
        <ele>288</ele>
        <time>2014-09-07T08:27:48Z</time>
      </trkpt>
      <trkpt lat="47.70753" lon="3.6819">
        <ele>288</ele>
        <time>2014-09-07T08:28:01Z</time>
      </trkpt>
      <trkpt lat="47.7075" lon="3.68182">
        <ele>289</ele>
        <time>2014-09-07T08:28:06Z</time>
      </trkpt>
      <trkpt lat="47.70748" lon="3.68173">
        <ele>289</ele>
        <time>2014-09-07T08:28:12Z</time>
      </trkpt>
      <trkpt lat="47.70743" lon="3.68155">
        <ele>289</ele>
        <time>2014-09-07T08:28:23Z</time>
      </trkpt>
      <trkpt lat="47.70741" lon="3.68127">
        <ele>290</ele>
        <time>2014-09-07T08:28:40Z</time>
      </trkpt>
      <trkpt lat="47.70741" lon="3.68125">
        <ele>290</ele>
        <time>2014-09-07T08:28:41Z</time>
      </trkpt>
      <trkpt lat="47.7074" lon="3.68118">
        <ele>291</ele>
        <time>2014-09-07T08:28:45Z</time>
      </trkpt>
      <trkpt lat="47.70738" lon="3.681">
        <ele>292</ele>
        <time>2014-09-07T08:28:58Z</time>
      </trkpt>
      <trkpt lat="47.7074" lon="3.68081">
        <ele>292</ele>
        <time>2014-09-07T08:29:09Z</time>
      </trkpt>
      <trkpt lat="47.70742" lon="3.68072">
        <ele>292</ele>
        <time>2014-09-07T08:29:14Z</time>
      </trkpt>
      <trkpt lat="47.70746" lon="3.68054">
        <ele>293</ele>
        <time>2014-09-07T08:29:24Z</time>
      </trkpt>
      <trkpt lat="47.70745" lon="3.68051">
        <ele>293</ele>
        <time>2014-09-07T08:29:26Z</time>
      </trkpt>
      <trkpt lat="47.70746" lon="3.68048">
        <ele>293</ele>
        <time>2014-09-07T08:29:28Z</time>
      </trkpt>
      <trkpt lat="47.70748" lon="3.68022">
        <ele>293</ele>
        <time>2014-09-07T08:29:40Z</time>
      </trkpt>
      <trkpt lat="47.70747" lon="3.68009">
        <ele>293</ele>
        <time>2014-09-07T08:29:47Z</time>
      </trkpt>
      <trkpt lat="47.70743" lon="3.67986">
        <ele>293</ele>
        <time>2014-09-07T08:30:01Z</time>
      </trkpt>
      <trkpt lat="47.70742" lon="3.67983">
        <ele>292</ele>
        <time>2014-09-07T08:30:03Z</time>
      </trkpt>
      <trkpt lat="47.70739" lon="3.67958">
        <ele>292</ele>
        <time>2014-09-07T08:30:17Z</time>
      </trkpt>
      <trkpt lat="47.70734" lon="3.67933">
        <ele>291</ele>
        <time>2014-09-07T08:30:32Z</time>
      </trkpt>
      <trkpt lat="47.70731" lon="3.67919">
        <ele>291</ele>
        <time>2014-09-07T08:30:40Z</time>
      </trkpt>
      <trkpt lat="47.7073" lon="3.67909">
        <ele>291</ele>
        <time>2014-09-07T08:30:46Z</time>
      </trkpt>
      <trkpt lat="47.70726" lon="3.6788">
        <ele>290</ele>
        <time>2014-09-07T08:31:02Z</time>
      </trkpt>
      <trkpt lat="47.70725" lon="3.67857">
        <ele>289</ele>
        <time>2014-09-07T08:31:15Z</time>
      </trkpt>
      <trkpt lat="47.70723" lon="3.67833">
        <ele>289</ele>
        <time>2014-09-07T08:31:29Z</time>
      </trkpt>
      <trkpt lat="47.70721" lon="3.67814">
        <ele>289</ele>
        <time>2014-09-07T08:31:40Z</time>
      </trkpt>
      <trkpt lat="47.7072" lon="3.67806">
        <ele>288</ele>
        <time>2014-09-07T08:31:44Z</time>
      </trkpt>
      <trkpt lat="47.70717" lon="3.67778">
        <ele>288</ele>
        <time>2014-09-07T08:32:00Z</time>
      </trkpt>
      <trkpt lat="47.70713" lon="3.6776">
        <ele>287</ele>
        <time>2014-09-07T08:32:11Z</time>
      </trkpt>
      <trkpt lat="47.70709" lon="3.67731">
        <ele>286</ele>
        <time>2014-09-07T08:32:27Z</time>
      </trkpt>
      <trkpt lat="47.70705" lon="3.67713">
        <ele>285</ele>
        <time>2014-09-07T08:32:38Z</time>
      </trkpt>
      <trkpt lat="47.70704" lon="3.67705">
        <ele>284</ele>
        <time>2014-09-07T08:32:43Z</time>
      </trkpt>
      <trkpt lat="47.70699" lon="3.67677">
        <ele>283</ele>
        <time>2014-09-07T08:32:59Z</time>
      </trkpt>
      <trkpt lat="47.70693" lon="3.67654">
        <ele>283</ele>
        <time>2014-09-07T08:33:13Z</time>
      </trkpt>
      <trkpt lat="47.70689" lon="3.67635">
        <ele>282</ele>
        <time>2014-09-07T08:33:24Z</time>
      </trkpt>
      <trkpt lat="47.70684" lon="3.67615">
        <ele>280</ele>
        <time>2014-09-07T08:33:36Z</time>
      </trkpt>
      <trkpt lat="47.70678" lon="3.67591">
        <ele>280</ele>
        <time>2014-09-07T08:33:50Z</time>
      </trkpt>
      <trkpt lat="47.70672" lon="3.6757">
        <ele>279</ele>
        <time>2014-09-07T08:34:02Z</time>
      </trkpt>
      <trkpt lat="47.70669" lon="3.67554">
        <ele>279</ele>
        <time>2014-09-07T08:34:11Z</time>
      </trkpt>
      <trkpt lat="47.70665" lon="3.67536">
        <ele>278</ele>
        <time>2014-09-07T08:34:22Z</time>
      </trkpt>
      <trkpt lat="47.70664" lon="3.67534">
        <ele>278</ele>
        <time>2014-09-07T08:34:23Z</time>
      </trkpt>
      <trkpt lat="47.70662" lon="3.67511">
        <ele>277</ele>
        <time>2014-09-07T08:34:36Z</time>
      </trkpt>
      <trkpt lat="47.70659" lon="3.67492">
        <ele>276</ele>
        <time>2014-09-07T08:34:48Z</time>
      </trkpt>
      <trkpt lat="47.70661" lon="3.67471">
        <ele>275</ele>
        <time>2014-09-07T08:35:01Z</time>
      </trkpt>
      <trkpt lat="47.70663" lon="3.6745">
        <ele>273</ele>
        <time>2014-09-07T08:35:13Z</time>
      </trkpt>
      <trkpt lat="47.70664" lon="3.67446">
        <ele>273</ele>
        <time>2014-09-07T08:35:15Z</time>
      </trkpt>
      <trkpt lat="47.70665" lon="3.67422">
        <ele>271</ele>
        <time>2014-09-07T08:35:28Z</time>
      </trkpt>
      <trkpt lat="47.70667" lon="3.67406">
        <ele>271</ele>
        <time>2014-09-07T08:35:36Z</time>
      </trkpt>
      <trkpt lat="47.70669" lon="3.67383">
        <ele>269</ele>
        <time>2014-09-07T08:35:50Z</time>
      </trkpt>
      <trkpt lat="47.70673" lon="3.67368">
        <ele>268</ele>
        <time>2014-09-07T08:36:00Z</time>
      </trkpt>
      <trkpt lat="47.70674" lon="3.67363">
        <ele>267</ele>
        <time>2014-09-07T08:36:03Z</time>
      </trkpt>
      <trkpt lat="47.70678" lon="3.6735">
        <ele>267</ele>
        <time>2014-09-07T08:36:11Z</time>
      </trkpt>
      <trkpt lat="47.70679" lon="3.67345">
        <ele>266</ele>
        <time>2014-09-07T08:36:14Z</time>
      </trkpt>
      <trkpt lat="47.70684" lon="3.6733">
        <ele>266</ele>
        <time>2014-09-07T08:36:24Z</time>
      </trkpt>
      <trkpt lat="47.70688" lon="3.67319">
        <ele>265</ele>
        <time>2014-09-07T08:36:31Z</time>
      </trkpt>
      <trkpt lat="47.70693" lon="3.67299">
        <ele>263</ele>
        <time>2014-09-07T08:36:44Z</time>
      </trkpt>
      <trkpt lat="47.70693" lon="3.67295">
        <ele>263</ele>
        <time>2014-09-07T08:36:46Z</time>
      </trkpt>
      <trkpt lat="47.70696" lon="3.67285">
        <ele>262</ele>
        <time>2014-09-07T08:36:52Z</time>
      </trkpt>
      <trkpt lat="47.70698" lon="3.67282">
        <ele>262</ele>
        <time>2014-09-07T08:36:55Z</time>
      </trkpt>
      <trkpt lat="47.70701" lon="3.67268">
        <ele>261</ele>
        <time>2014-09-07T08:37:04Z</time>
      </trkpt>
      <trkpt lat="47.70703" lon="3.67266">
        <ele>261</ele>
        <time>2014-09-07T08:37:06Z</time>
      </trkpt>
      <trkpt lat="47.70707" lon="3.67253">
        <ele>260</ele>
        <time>2014-09-07T08:37:16Z</time>
      </trkpt>
      <trkpt lat="47.7071" lon="3.6725">
        <ele>259</ele>
        <time>2014-09-07T08:37:28Z</time>
      </trkpt>
      <trkpt lat="47.70709" lon="3.67254">
        <ele>260</ele>
        <time>2014-09-07T08:37:42Z</time>
      </trkpt>
      <trkpt lat="47.70709" lon="3.67255">
        <ele>260</ele>
        <time>2014-09-07T08:37:54Z</time>
      </trkpt>
      <trkpt lat="47.70709" lon="3.67255">
        <ele>260</ele>
        <time>2014-09-07T08:38:16Z</time>
      </trkpt>
      <trkpt lat="47.70709" lon="3.67255">
        <ele>260</ele>
        <time>2014-09-07T08:38:41Z</time>
      </trkpt>
      <trkpt lat="47.70709" lon="3.67254">
        <ele>260</ele>
        <time>2014-09-07T08:39:12Z</time>
      </trkpt>
      <trkpt lat="47.70709" lon="3.67254">
        <ele>260</ele>
        <time>2014-09-07T08:39:41Z</time>
      </trkpt>
      <trkpt lat="47.70709" lon="3.67255">
        <ele>260</ele>
        <time>2014-09-07T08:40:10Z</time>
      </trkpt>
      <trkpt lat="47.70708" lon="3.67254">
        <ele>260</ele>
        <time>2014-09-07T08:40:40Z</time>
      </trkpt>
      <trkpt lat="47.70708" lon="3.67255">
        <ele>260</ele>
        <time>2014-09-07T08:41:08Z</time>
      </trkpt>
      <trkpt lat="47.70708" lon="3.67255">
        <ele>260</ele>
        <time>2014-09-07T08:41:35Z</time>
      </trkpt>
      <trkpt lat="47.70708" lon="3.67255">
        <ele>260</ele>
        <time>2014-09-07T08:42:05Z</time>
      </trkpt>
      <trkpt lat="47.70708" lon="3.67254">
        <ele>260</ele>
        <time>2014-09-07T08:42:39Z</time>
      </trkpt>
      <trkpt lat="47.70708" lon="3.67255">
        <ele>260</ele>
        <time>2014-09-07T08:43:06Z</time>
      </trkpt>
      <trkpt lat="47.70708" lon="3.67255">
        <ele>260</ele>
        <time>2014-09-07T08:43:30Z</time>
      </trkpt>
      <trkpt lat="47.70708" lon="3.67255">
        <ele>260</ele>
        <time>2014-09-07T08:43:53Z</time>
      </trkpt>
      <trkpt lat="47.70708" lon="3.67255">
        <ele>260</ele>
        <time>2014-09-07T08:44:14Z</time>
      </trkpt>
      <trkpt lat="47.70708" lon="3.67255">
        <ele>260</ele>
        <time>2014-09-07T08:44:38Z</time>
      </trkpt>
      <trkpt lat="47.70708" lon="3.67255">
        <ele>260</ele>
        <time>2014-09-07T08:45:00Z</time>
      </trkpt>
      <trkpt lat="47.70708" lon="3.67255">
        <ele>260</ele>
        <time>2014-09-07T08:45:29Z</time>
      </trkpt>
      <trkpt lat="47.70708" lon="3.67254">
        <ele>260</ele>
        <time>2014-09-07T08:45:53Z</time>
      </trkpt>
      <trkpt lat="47.70708" lon="3.67254">
        <ele>260</ele>
        <time>2014-09-07T08:46:16Z</time>
      </trkpt>
      <trkpt lat="47.70708" lon="3.67254">
        <ele>260</ele>
        <time>2014-09-07T08:46:36Z</time>
      </trkpt>
      <trkpt lat="47.70712" lon="3.67243">
        <ele>259</ele>
        <time>2014-09-07T08:46:48Z</time>
      </trkpt>
      <trkpt lat="47.70712" lon="3.67239">
        <ele>258</ele>
        <time>2014-09-07T08:47:00Z</time>
      </trkpt>
      <trkpt lat="47.70714" lon="3.67245">
        <ele>258</ele>
        <time>2014-09-07T08:47:12Z</time>
      </trkpt>
      <trkpt lat="47.70712" lon="3.67251">
        <ele>259</ele>
        <time>2014-09-07T08:47:25Z</time>
      </trkpt>
      <trkpt lat="47.70713" lon="3.67257">
        <ele>259</ele>
        <time>2014-09-07T08:47:38Z</time>
      </trkpt>
      <trkpt lat="47.70723" lon="3.67258">
        <ele>256</ele>
        <time>2014-09-07T08:47:49Z</time>
      </trkpt>
      <trkpt lat="47.70735" lon="3.67254">
        <ele>254</ele>
        <time>2014-09-07T08:48:03Z</time>
      </trkpt>
      <trkpt lat="47.7074" lon="3.67252">
        <ele>253</ele>
        <time>2014-09-07T08:48:09Z</time>
      </trkpt>
      <trkpt lat="47.70754" lon="3.67246">
        <ele>250</ele>
        <time>2014-09-07T08:48:24Z</time>
      </trkpt>
      <trkpt lat="47.70756" lon="3.67245">
        <ele>250</ele>
        <time>2014-09-07T08:48:27Z</time>
      </trkpt>
      <trkpt lat="47.70764" lon="3.67242">
        <ele>248</ele>
        <time>2014-09-07T08:48:38Z</time>
      </trkpt>
      <trkpt lat="47.70766" lon="3.6724">
        <ele>248</ele>
        <time>2014-09-07T08:48:55Z</time>
      </trkpt>
      <trkpt lat="47.70773" lon="3.67238">
        <ele>247</ele>
        <time>2014-09-07T08:49:06Z</time>
      </trkpt>
      <trkpt lat="47.70784" lon="3.67232">
        <ele>246</ele>
        <time>2014-09-07T08:49:20Z</time>
      </trkpt>
      <trkpt lat="47.70788" lon="3.67231">
        <ele>245</ele>
        <time>2014-09-07T08:49:24Z</time>
      </trkpt>
      <trkpt lat="47.70796" lon="3.67229">
        <ele>243</ele>
        <time>2014-09-07T08:49:33Z</time>
      </trkpt>
      <trkpt lat="47.70806" lon="3.67229">
        <ele>241</ele>
        <time>2014-09-07T08:49:44Z</time>
      </trkpt>
      <trkpt lat="47.70805" lon="3.6723">
        <ele>241</ele>
        <time>2014-09-07T08:49:45Z</time>
      </trkpt>
      <trkpt lat="47.70793" lon="3.67249">
        <ele>241</ele>
        <time>2014-09-07T08:50:00Z</time>
      </trkpt>
      <trkpt lat="47.70792" lon="3.67251">
        <ele>241</ele>
        <time>2014-09-07T08:50:01Z</time>
      </trkpt>
      <trkpt lat="47.70786" lon="3.67258">
        <ele>241</ele>
        <time>2014-09-07T08:50:08Z</time>
      </trkpt>
      <trkpt lat="47.70783" lon="3.67263">
        <ele>241</ele>
        <time>2014-09-07T08:50:11Z</time>
      </trkpt>
      <trkpt lat="47.7078" lon="3.67266">
        <ele>241</ele>
        <time>2014-09-07T08:50:14Z</time>
      </trkpt>
      <trkpt lat="47.70777" lon="3.67278">
        <ele>241</ele>
        <time>2014-09-07T08:50:24Z</time>
      </trkpt>
      <trkpt lat="47.70773" lon="3.67299">
        <ele>242</ele>
        <time>2014-09-07T08:50:36Z</time>
      </trkpt>
      <trkpt lat="47.70767" lon="3.67323">
        <ele>242</ele>
        <time>2014-09-07T08:50:49Z</time>
      </trkpt>
      <trkpt lat="47.70769" lon="3.67336">
        <ele>243</ele>
        <time>2014-09-07T08:50:55Z</time>
      </trkpt>
      <trkpt lat="47.70766" lon="3.67363">
        <ele>243</ele>
        <time>2014-09-07T08:51:09Z</time>
      </trkpt>
      <trkpt lat="47.70764" lon="3.6738">
        <ele>243</ele>
        <time>2014-09-07T08:51:18Z</time>
      </trkpt>
      <trkpt lat="47.70761" lon="3.6739">
        <ele>243</ele>
        <time>2014-09-07T08:51:24Z</time>
      </trkpt>
      <trkpt lat="47.70758" lon="3.67402">
        <ele>244</ele>
        <time>2014-09-07T08:51:30Z</time>
      </trkpt>
      <trkpt lat="47.70757" lon="3.67417">
        <ele>243</ele>
        <time>2014-09-07T08:51:39Z</time>
      </trkpt>
      <trkpt lat="47.70762" lon="3.67438">
        <ele>244</ele>
        <time>2014-09-07T08:51:51Z</time>
      </trkpt>
      <trkpt lat="47.70764" lon="3.67442">
        <ele>244</ele>
        <time>2014-09-07T08:51:54Z</time>
      </trkpt>
      <trkpt lat="47.70766" lon="3.67445">
        <ele>244</ele>
        <time>2014-09-07T08:51:56Z</time>
      </trkpt>
      <trkpt lat="47.70772" lon="3.67467">
        <ele>245</ele>
        <time>2014-09-07T08:52:08Z</time>
      </trkpt>
      <trkpt lat="47.70775" lon="3.67485">
        <ele>245</ele>
        <time>2014-09-07T08:52:16Z</time>
      </trkpt>
      <trkpt lat="47.70781" lon="3.67498">
        <ele>245</ele>
        <time>2014-09-07T08:52:23Z</time>
      </trkpt>
      <trkpt lat="47.70782" lon="3.67506">
        <ele>245</ele>
        <time>2014-09-07T08:52:28Z</time>
      </trkpt>
      <trkpt lat="47.70783" lon="3.6752">
        <ele>246</ele>
        <time>2014-09-07T08:52:35Z</time>
      </trkpt>
      <trkpt lat="47.70785" lon="3.67524">
        <ele>245</ele>
        <time>2014-09-07T08:52:38Z</time>
      </trkpt>
      <trkpt lat="47.708" lon="3.67541">
        <ele>245</ele>
        <time>2014-09-07T08:52:51Z</time>
      </trkpt>
      <trkpt lat="47.70801" lon="3.67542">
        <ele>245</ele>
        <time>2014-09-07T08:52:52Z</time>
      </trkpt>
      <trkpt lat="47.70811" lon="3.67553">
        <ele>245</ele>
        <time>2014-09-07T08:53:06Z</time>
      </trkpt>
      <trkpt lat="47.70816" lon="3.67557">
        <ele>245</ele>
        <time>2014-09-07T08:53:10Z</time>
      </trkpt>
      <trkpt lat="47.70828" lon="3.67568">
        <ele>246</ele>
        <time>2014-09-07T08:53:22Z</time>
      </trkpt>
      <trkpt lat="47.70839" lon="3.67576">
        <ele>246</ele>
        <time>2014-09-07T08:53:34Z</time>
      </trkpt>
      <trkpt lat="47.7084" lon="3.67577">
        <ele>247</ele>
        <time>2014-09-07T08:53:35Z</time>
      </trkpt>
      <trkpt lat="47.70843" lon="3.67578">
        <ele>247</ele>
        <time>2014-09-07T08:53:37Z</time>
      </trkpt>
      <trkpt lat="47.70855" lon="3.67585">
        <ele>247</ele>
        <time>2014-09-07T08:53:49Z</time>
      </trkpt>
      <trkpt lat="47.7086" lon="3.67587">
        <ele>247</ele>
        <time>2014-09-07T08:53:53Z</time>
      </trkpt>
      <trkpt lat="47.70873" lon="3.67596">
        <ele>248</ele>
        <time>2014-09-07T08:54:05Z</time>
      </trkpt>
      <trkpt lat="47.70887" lon="3.67602">
        <ele>248</ele>
        <time>2014-09-07T08:54:17Z</time>
      </trkpt>
      <trkpt lat="47.70904" lon="3.67612">
        <ele>249</ele>
        <time>2014-09-07T08:54:32Z</time>
      </trkpt>
      <trkpt lat="47.70905" lon="3.67613">
        <ele>249</ele>
        <time>2014-09-07T08:54:33Z</time>
      </trkpt>
      <trkpt lat="47.70925" lon="3.67623">
        <ele>250</ele>
        <time>2014-09-07T08:54:49Z</time>
      </trkpt>
      <trkpt lat="47.70941" lon="3.67633">
        <ele>251</ele>
        <time>2014-09-07T08:55:03Z</time>
      </trkpt>
      <trkpt lat="47.70955" lon="3.67644">
        <ele>251</ele>
        <time>2014-09-07T08:55:16Z</time>
      </trkpt>
      <trkpt lat="47.70961" lon="3.6765">
        <ele>252</ele>
        <time>2014-09-07T08:55:23Z</time>
      </trkpt>
      <trkpt lat="47.70972" lon="3.67661">
        <ele>252</ele>
        <time>2014-09-07T08:55:35Z</time>
      </trkpt>
      <trkpt lat="47.70984" lon="3.67671">
        <ele>252</ele>
        <time>2014-09-07T08:55:47Z</time>
      </trkpt>
      <trkpt lat="47.70989" lon="3.67676">
        <ele>252</ele>
        <time>2014-09-07T08:55:52Z</time>
      </trkpt>
      <trkpt lat="47.71001" lon="3.67686">
        <ele>252</ele>
        <time>2014-09-07T08:56:04Z</time>
      </trkpt>
      <trkpt lat="47.71016" lon="3.67696">
        <ele>252</ele>
        <time>2014-09-07T08:56:17Z</time>
      </trkpt>
      <trkpt lat="47.71017" lon="3.67696">
        <ele>253</ele>
        <time>2014-09-07T08:56:18Z</time>
      </trkpt>
      <trkpt lat="47.71018" lon="3.67697">
        <ele>252</ele>
        <time>2014-09-07T08:56:20Z</time>
      </trkpt>
      <trkpt lat="47.71025" lon="3.67703">
        <ele>252</ele>
        <time>2014-09-07T08:56:26Z</time>
      </trkpt>
      <trkpt lat="47.7103" lon="3.67708">
        <ele>252</ele>
        <time>2014-09-07T08:56:31Z</time>
      </trkpt>
      <trkpt lat="47.71043" lon="3.6772">
        <ele>251</ele>
        <time>2014-09-07T08:56:44Z</time>
      </trkpt>
      <trkpt lat="47.71045" lon="3.67722">
        <ele>252</ele>
        <time>2014-09-07T08:56:46Z</time>
      </trkpt>
      <trkpt lat="47.71061" lon="3.67733">
        <ele>251</ele>
        <time>2014-09-07T08:56:59Z</time>
      </trkpt>
      <trkpt lat="47.71079" lon="3.67742">
        <ele>250</ele>
        <time>2014-09-07T08:57:13Z</time>
      </trkpt>
      <trkpt lat="47.71092" lon="3.67747">
        <ele>250</ele>
        <time>2014-09-07T08:57:24Z</time>
      </trkpt>
      <trkpt lat="47.71098" lon="3.67748">
        <ele>250</ele>
        <time>2014-09-07T08:57:30Z</time>
      </trkpt>
      <trkpt lat="47.71103" lon="3.6775">
        <ele>250</ele>
        <time>2014-09-07T08:57:34Z</time>
      </trkpt>
      <trkpt lat="47.7111" lon="3.67751">
        <ele>250</ele>
        <time>2014-09-07T08:57:40Z</time>
      </trkpt>
      <trkpt lat="47.71117" lon="3.67752">
        <ele>249</ele>
        <time>2014-09-07T08:57:45Z</time>
      </trkpt>
      <trkpt lat="47.71119" lon="3.67753">
        <ele>249</ele>
        <time>2014-09-07T08:57:47Z</time>
      </trkpt>
      <trkpt lat="47.71137" lon="3.67757">
        <ele>249</ele>
        <time>2014-09-07T08:58:00Z</time>
      </trkpt>
      <trkpt lat="47.7114" lon="3.67758">
        <ele>250</ele>
        <time>2014-09-07T08:58:03Z</time>
      </trkpt>
      <trkpt lat="47.71158" lon="3.67764">
        <ele>249</ele>
        <time>2014-09-07T08:58:19Z</time>
      </trkpt>
      <trkpt lat="47.71164" lon="3.67767">
        <ele>249</ele>
        <time>2014-09-07T08:58:24Z</time>
      </trkpt>
      <trkpt lat="47.71168" lon="3.67768">
        <ele>249</ele>
        <time>2014-09-07T08:58:28Z</time>
      </trkpt>
      <trkpt lat="47.71173" lon="3.6777">
        <ele>249</ele>
        <time>2014-09-07T08:58:32Z</time>
      </trkpt>
      <trkpt lat="47.71186" lon="3.67775">
        <ele>249</ele>
        <time>2014-09-07T08:58:45Z</time>
      </trkpt>
      <trkpt lat="47.71191" lon="3.67775">
        <ele>249</ele>
        <time>2014-09-07T08:58:51Z</time>
      </trkpt>
      <trkpt lat="47.71193" lon="3.67774">
        <ele>249</ele>
        <time>2014-09-07T08:58:53Z</time>
      </trkpt>
      <trkpt lat="47.71204" lon="3.67775">
        <ele>248</ele>
        <time>2014-09-07T08:59:03Z</time>
      </trkpt>
      <trkpt lat="47.71205" lon="3.67776">
        <ele>248</ele>
        <time>2014-09-07T08:59:04Z</time>
      </trkpt>
      <trkpt lat="47.71209" lon="3.67776">
        <ele>248</ele>
        <time>2014-09-07T08:59:07Z</time>
      </trkpt>
      <trkpt lat="47.71211" lon="3.67776">
        <ele>248</ele>
        <time>2014-09-07T08:59:09Z</time>
      </trkpt>
      <trkpt lat="47.71219" lon="3.67777">
        <ele>247</ele>
        <time>2014-09-07T08:59:15Z</time>
      </trkpt>
      <trkpt lat="47.71236" lon="3.67781">
        <ele>246</ele>
        <time>2014-09-07T08:59:28Z</time>
      </trkpt>
      <trkpt lat="47.71238" lon="3.67781">
        <ele>246</ele>
        <time>2014-09-07T08:59:30Z</time>
      </trkpt>
      <trkpt lat="47.71253" lon="3.67784">
        <ele>245</ele>
        <time>2014-09-07T08:59:44Z</time>
      </trkpt>
      <trkpt lat="47.71258" lon="3.67787">
        <ele>245</ele>
        <time>2014-09-07T08:59:57Z</time>
      </trkpt>
      <trkpt lat="47.71258" lon="3.67787">
        <ele>245</ele>
        <time>2014-09-07T09:00:13Z</time>
      </trkpt>
      <trkpt lat="47.71265" lon="3.6779">
        <ele>245</ele>
        <time>2014-09-07T09:00:36Z</time>
      </trkpt>
      <trkpt lat="47.71278" lon="3.678">
        <ele>244</ele>
        <time>2014-09-07T09:00:50Z</time>
      </trkpt>
      <trkpt lat="47.71288" lon="3.67804">
        <ele>244</ele>
        <time>2014-09-07T09:01:01Z</time>
      </trkpt>
      <trkpt lat="47.71301" lon="3.67807">
        <ele>243</ele>
        <time>2014-09-07T09:01:13Z</time>
      </trkpt>
      <trkpt lat="47.71306" lon="3.67809">
        <ele>243</ele>
        <time>2014-09-07T09:01:18Z</time>
      </trkpt>
      <trkpt lat="47.71308" lon="3.6781">
        <ele>243</ele>
        <time>2014-09-07T09:01:20Z</time>
      </trkpt>
      <trkpt lat="47.71314" lon="3.67811">
        <ele>243</ele>
        <time>2014-09-07T09:01:26Z</time>
      </trkpt>
      <trkpt lat="47.71331" lon="3.67812">
        <ele>242</ele>
        <time>2014-09-07T09:01:41Z</time>
      </trkpt>
      <trkpt lat="47.71343" lon="3.67809">
        <ele>242</ele>
        <time>2014-09-07T09:01:52Z</time>
      </trkpt>
      <trkpt lat="47.71346" lon="3.67812">
        <ele>242</ele>
        <time>2014-09-07T09:01:57Z</time>
      </trkpt>
      <trkpt lat="47.7135" lon="3.67811">
        <ele>243</ele>
        <time>2014-09-07T09:02:02Z</time>
      </trkpt>
      <trkpt lat="47.71352" lon="3.67809">
        <ele>242</ele>
        <time>2014-09-07T09:02:05Z</time>
      </trkpt>
      <trkpt lat="47.71365" lon="3.67798">
        <ele>242</ele>
        <time>2014-09-07T09:02:19Z</time>
      </trkpt>
      <trkpt lat="47.71366" lon="3.67797">
        <ele>241</ele>
        <time>2014-09-07T09:02:20Z</time>
      </trkpt>
      <trkpt lat="47.71376" lon="3.67783">
        <ele>241</ele>
        <time>2014-09-07T09:02:33Z</time>
      </trkpt>
      <trkpt lat="47.71389" lon="3.67768">
        <ele>240</ele>
        <time>2014-09-07T09:02:48Z</time>
      </trkpt>
      <trkpt lat="47.71397" lon="3.67755">
        <ele>240</ele>
        <time>2014-09-07T09:03:01Z</time>
      </trkpt>
      <trkpt lat="47.7141" lon="3.67737">
        <ele>239</ele>
        <time>2014-09-07T09:03:17Z</time>
      </trkpt>
      <trkpt lat="47.71417" lon="3.67731">
        <ele>239</ele>
        <time>2014-09-07T09:03:30Z</time>
      </trkpt>
      <trkpt lat="47.71421" lon="3.67739">
        <ele>240</ele>
        <time>2014-09-07T09:03:41Z</time>
      </trkpt>
      <trkpt lat="47.71422" lon="3.67746">
        <ele>240</ele>
        <time>2014-09-07T09:03:47Z</time>
      </trkpt>
      <trkpt lat="47.71422" lon="3.67749">
        <ele>241</ele>
        <time>2014-09-07T09:03:50Z</time>
      </trkpt>
      <trkpt lat="47.71422" lon="3.67752">
        <ele>241</ele>
        <time>2014-09-07T09:03:52Z</time>
      </trkpt>
      <trkpt lat="47.71424" lon="3.67766">
        <ele>243</ele>
        <time>2014-09-07T09:04:04Z</time>
      </trkpt>
      <trkpt lat="47.71426" lon="3.67778">
        <ele>244</ele>
        <time>2014-09-07T09:04:14Z</time>
      </trkpt>
      <trkpt lat="47.71426" lon="3.67781">
        <ele>244</ele>
        <time>2014-09-07T09:04:16Z</time>
      </trkpt>
      <trkpt lat="47.71428" lon="3.67789">
        <ele>246</ele>
        <time>2014-09-07T09:04:24Z</time>
      </trkpt>
      <trkpt lat="47.7143" lon="3.67803">
        <ele>248</ele>
        <time>2014-09-07T09:04:37Z</time>
      </trkpt>
      <trkpt lat="47.71432" lon="3.67815">
        <ele>250</ele>
        <time>2014-09-07T09:04:48Z</time>
      </trkpt>
      <trkpt lat="47.71433" lon="3.67826">
        <ele>252</ele>
        <time>2014-09-07T09:04:59Z</time>
      </trkpt>
      <trkpt lat="47.71435" lon="3.67837">
        <ele>252</ele>
        <time>2014-09-07T09:05:09Z</time>
      </trkpt>
      <trkpt lat="47.71439" lon="3.67852">
        <ele>255</ele>
        <time>2014-09-07T09:05:22Z</time>
      </trkpt>
      <trkpt lat="47.71441" lon="3.67867">
        <ele>256</ele>
        <time>2014-09-07T09:05:35Z</time>
      </trkpt>
      <trkpt lat="47.71444" lon="3.67882">
        <ele>258</ele>
        <time>2014-09-07T09:05:49Z</time>
      </trkpt>
      <trkpt lat="47.71448" lon="3.67888">
        <ele>259</ele>
        <time>2014-09-07T09:05:57Z</time>
      </trkpt>
      <trkpt lat="47.71455" lon="3.67891">
        <ele>259</ele>
        <time>2014-09-07T09:06:09Z</time>
      </trkpt>
      <trkpt lat="47.71473" lon="3.67889">
        <ele>258</ele>
        <time>2014-09-07T09:06:24Z</time>
      </trkpt>
      <trkpt lat="47.71474" lon="3.67889">
        <ele>258</ele>
        <time>2014-09-07T09:06:25Z</time>
      </trkpt>
      <trkpt lat="47.71483" lon="3.67888">
        <ele>258</ele>
        <time>2014-09-07T09:06:34Z</time>
      </trkpt>
      <trkpt lat="47.71488" lon="3.6789">
        <ele>258</ele>
        <time>2014-09-07T09:06:40Z</time>
      </trkpt>
      <trkpt lat="47.71488" lon="3.67905">
        <ele>260</ele>
        <time>2014-09-07T09:06:54Z</time>
      </trkpt>
      <trkpt lat="47.71488" lon="3.6792">
        <ele>261</ele>
        <time>2014-09-07T09:07:08Z</time>
      </trkpt>
      <trkpt lat="47.71488" lon="3.67921">
        <ele>262</ele>
        <time>2014-09-07T09:07:09Z</time>
      </trkpt>
      <trkpt lat="47.7149" lon="3.67937">
        <ele>263</ele>
        <time>2014-09-07T09:07:23Z</time>
      </trkpt>
      <trkpt lat="47.7149" lon="3.67938">
        <ele>264</ele>
        <time>2014-09-07T09:07:24Z</time>
      </trkpt>
      <trkpt lat="47.71492" lon="3.67953">
        <ele>265</ele>
        <time>2014-09-07T09:07:37Z</time>
      </trkpt>
      <trkpt lat="47.71492" lon="3.67956">
        <ele>265</ele>
        <time>2014-09-07T09:07:39Z</time>
      </trkpt>
      <trkpt lat="47.71493" lon="3.67961">
        <ele>265</ele>
        <time>2014-09-07T09:07:42Z</time>
      </trkpt>
      <trkpt lat="47.71492" lon="3.67964">
        <ele>266</ele>
        <time>2014-09-07T09:07:44Z</time>
      </trkpt>
      <trkpt lat="47.71495" lon="3.67978">
        <ele>267</ele>
        <time>2014-09-07T09:07:56Z</time>
      </trkpt>
      <trkpt lat="47.71494" lon="3.67988">
        <ele>268</ele>
        <time>2014-09-07T09:08:04Z</time>
      </trkpt>
      <trkpt lat="47.71494" lon="3.6799">
        <ele>268</ele>
        <time>2014-09-07T09:08:05Z</time>
      </trkpt>
      <trkpt lat="47.71497" lon="3.68003">
        <ele>270</ele>
        <time>2014-09-07T09:08:17Z</time>
      </trkpt>
      <trkpt lat="47.715" lon="3.68019">
        <ele>272</ele>
        <time>2014-09-07T09:08:30Z</time>
      </trkpt>
      <trkpt lat="47.71504" lon="3.68033">
        <ele>274</ele>
        <time>2014-09-07T09:08:43Z</time>
      </trkpt>
      <trkpt lat="47.71505" lon="3.68046">
        <ele>275</ele>
        <time>2014-09-07T09:08:55Z</time>
      </trkpt>
      <trkpt lat="47.71507" lon="3.68059">
        <ele>277</ele>
        <time>2014-09-07T09:09:07Z</time>
      </trkpt>
      <trkpt lat="47.71511" lon="3.68074">
        <ele>279</ele>
        <time>2014-09-07T09:09:22Z</time>
      </trkpt>
      <trkpt lat="47.71511" lon="3.6809">
        <ele>280</ele>
        <time>2014-09-07T09:09:35Z</time>
      </trkpt>
      <trkpt lat="47.71512" lon="3.6809">
        <ele>281</ele>
        <time>2014-09-07T09:09:48Z</time>
      </trkpt>
      <trkpt lat="47.71511" lon="3.68091">
        <ele>280</ele>
        <time>2014-09-07T09:09:53Z</time>
      </trkpt>
      <trkpt lat="47.71507" lon="3.68092">
        <ele>280</ele>
        <time>2014-09-07T09:09:58Z</time>
      </trkpt>
      <trkpt lat="47.71504" lon="3.68099">
        <ele>282</ele>
        <time>2014-09-07T09:10:04Z</time>
      </trkpt>
      <trkpt lat="47.71511" lon="3.68106">
        <ele>282</ele>
        <time>2014-09-07T09:10:17Z</time>
      </trkpt>
      <trkpt lat="47.71514" lon="3.68106">
        <ele>282</ele>
        <time>2014-09-07T09:10:22Z</time>
      </trkpt>
      <trkpt lat="47.71533" lon="3.68103">
        <ele>282</ele>
        <time>2014-09-07T09:10:38Z</time>
      </trkpt>
      <trkpt lat="47.71535" lon="3.68103">
        <ele>282</ele>
        <time>2014-09-07T09:10:40Z</time>
      </trkpt>
      <trkpt lat="47.71555" lon="3.681">
        <ele>282</ele>
        <time>2014-09-07T09:10:55Z</time>
      </trkpt>
      <trkpt lat="47.71568" lon="3.681">
        <ele>280</ele>
        <time>2014-09-07T09:11:07Z</time>
      </trkpt>
      <trkpt lat="47.71577" lon="3.68117">
        <ele>282</ele>
        <time>2014-09-07T09:11:23Z</time>
      </trkpt>
      <trkpt lat="47.71578" lon="3.6812">
        <ele>282</ele>
        <time>2014-09-07T09:11:25Z</time>
      </trkpt>
      <trkpt lat="47.7158" lon="3.68136">
        <ele>283</ele>
        <time>2014-09-07T09:11:36Z</time>
      </trkpt>
      <trkpt lat="47.71585" lon="3.68157">
        <ele>284</ele>
        <time>2014-09-07T09:11:50Z</time>
      </trkpt>
      <trkpt lat="47.71591" lon="3.68169">
        <ele>284</ele>
        <time>2014-09-07T09:12:00Z</time>
      </trkpt>
      <trkpt lat="47.71596" lon="3.68183">
        <ele>284</ele>
        <time>2014-09-07T09:12:10Z</time>
      </trkpt>
      <trkpt lat="47.71597" lon="3.68186">
        <ele>284</ele>
        <time>2014-09-07T09:12:12Z</time>
      </trkpt>
      <trkpt lat="47.71601" lon="3.68196">
        <ele>285</ele>
        <time>2014-09-07T09:12:19Z</time>
      </trkpt>
      <trkpt lat="47.71605" lon="3.68213">
        <ele>284</ele>
        <time>2014-09-07T09:12:31Z</time>
      </trkpt>
      <trkpt lat="47.71611" lon="3.68227">
        <ele>285</ele>
        <time>2014-09-07T09:12:40Z</time>
      </trkpt>
      <trkpt lat="47.71614" lon="3.68233">
        <ele>284</ele>
        <time>2014-09-07T09:12:45Z</time>
      </trkpt>
      <trkpt lat="47.71621" lon="3.68249">
        <ele>284</ele>
        <time>2014-09-07T09:12:56Z</time>
      </trkpt>
      <trkpt lat="47.71626" lon="3.68268">
        <ele>285</ele>
        <time>2014-09-07T09:13:08Z</time>
      </trkpt>
      <trkpt lat="47.71626" lon="3.68293">
        <ele>285</ele>
        <time>2014-09-07T09:13:22Z</time>
      </trkpt>
      <trkpt lat="47.71625" lon="3.68317">
        <ele>285</ele>
        <time>2014-09-07T09:13:35Z</time>
      </trkpt>
      <trkpt lat="47.71626" lon="3.68333">
        <ele>285</ele>
        <time>2014-09-07T09:13:45Z</time>
      </trkpt>
      <trkpt lat="47.71627" lon="3.68335">
        <ele>286</ele>
        <time>2014-09-07T09:13:47Z</time>
      </trkpt>
      <trkpt lat="47.71631" lon="3.68335">
        <ele>286</ele>
        <time>2014-09-07T09:13:51Z</time>
      </trkpt>
      <trkpt lat="47.71644" lon="3.68324">
        <ele>285</ele>
        <time>2014-09-07T09:14:05Z</time>
      </trkpt>
      <trkpt lat="47.71656" lon="3.68311">
        <ele>285</ele>
        <time>2014-09-07T09:14:17Z</time>
      </trkpt>
      <trkpt lat="47.71672" lon="3.68296">
        <ele>284</ele>
        <time>2014-09-07T09:14:32Z</time>
      </trkpt>
      <trkpt lat="47.71675" lon="3.68292">
        <ele>285</ele>
        <time>2014-09-07T09:14:35Z</time>
      </trkpt>
      <trkpt lat="47.71688" lon="3.68277">
        <ele>284</ele>
        <time>2014-09-07T09:14:48Z</time>
      </trkpt>
      <trkpt lat="47.71699" lon="3.68264">
        <ele>284</ele>
        <time>2014-09-07T09:15:00Z</time>
      </trkpt>
      <trkpt lat="47.71701" lon="3.68262">
        <ele>284</ele>
        <time>2014-09-07T09:15:02Z</time>
      </trkpt>
      <trkpt lat="47.71704" lon="3.68258">
        <ele>283</ele>
        <time>2014-09-07T09:15:06Z</time>
      </trkpt>
      <trkpt lat="47.71713" lon="3.68247">
        <ele>282</ele>
        <time>2014-09-07T09:15:18Z</time>
      </trkpt>
      <trkpt lat="47.71714" lon="3.68241">
        <ele>282</ele>
        <time>2014-09-07T09:15:23Z</time>
      </trkpt>
      <trkpt lat="47.71717" lon="3.68237">
        <ele>282</ele>
        <time>2014-09-07T09:15:27Z</time>
      </trkpt>
      <trkpt lat="47.71729" lon="3.68222">
        <ele>282</ele>
        <time>2014-09-07T09:15:40Z</time>
      </trkpt>
      <trkpt lat="47.71731" lon="3.68219">
        <ele>281</ele>
        <time>2014-09-07T09:15:42Z</time>
      </trkpt>
      <trkpt lat="47.71735" lon="3.68204">
        <ele>281</ele>
        <time>2014-09-07T09:15:55Z</time>
      </trkpt>
      <trkpt lat="47.71748" lon="3.6819">
        <ele>280</ele>
        <time>2014-09-07T09:16:07Z</time>
      </trkpt>
      <trkpt lat="47.71759" lon="3.68175">
        <ele>279</ele>
        <time>2014-09-07T09:16:20Z</time>
      </trkpt>
      <trkpt lat="47.7176" lon="3.68174">
        <ele>279</ele>
        <time>2014-09-07T09:16:21Z</time>
      </trkpt>
      <trkpt lat="47.71772" lon="3.68158">
        <ele>277</ele>
        <time>2014-09-07T09:16:34Z</time>
      </trkpt>
      <trkpt lat="47.71779" lon="3.68147">
        <ele>276</ele>
        <time>2014-09-07T09:16:46Z</time>
      </trkpt>
      <trkpt lat="47.71787" lon="3.68136">
        <ele>276</ele>
        <time>2014-09-07T09:16:58Z</time>
      </trkpt>
      <trkpt lat="47.71791" lon="3.6813">
        <ele>275</ele>
        <time>2014-09-07T09:17:04Z</time>
      </trkpt>
      <trkpt lat="47.71797" lon="3.68117">
        <ele>275</ele>
        <time>2014-09-07T09:17:16Z</time>
      </trkpt>
      <trkpt lat="47.718" lon="3.68105">
        <ele>274</ele>
        <time>2014-09-07T09:17:25Z</time>
      </trkpt>
      <trkpt lat="47.71802" lon="3.68093">
        <ele>272</ele>
        <time>2014-09-07T09:17:39Z</time>
      </trkpt>
      <trkpt lat="47.71806" lon="3.68086">
        <ele>272</ele>
        <time>2014-09-07T09:17:52Z</time>
      </trkpt>
      <trkpt lat="47.71805" lon="3.68086">
        <ele>270</ele>
        <time>2014-09-07T09:18:08Z</time>
      </trkpt>
      <trkpt lat="47.71805" lon="3.68086">
        <ele>270</ele>
        <time>2014-09-07T09:18:38Z</time>
      </trkpt>
      <trkpt lat="47.71805" lon="3.68086">
        <ele>269</ele>
        <time>2014-09-07T09:19:01Z</time>
      </trkpt>
      <trkpt lat="47.71807" lon="3.68084">
        <ele>268</ele>
        <time>2014-09-07T09:19:31Z</time>
      </trkpt>
      <trkpt lat="47.71807" lon="3.68084">
        <ele>268</ele>
        <time>2014-09-07T09:19:59Z</time>
      </trkpt>
      <trkpt lat="47.71809" lon="3.68083">
        <ele>268</ele>
        <time>2014-09-07T09:20:33Z</time>
      </trkpt>
      <trkpt lat="47.71811" lon="3.68081">
        <ele>267</ele>
        <time>2014-09-07T09:21:06Z</time>
      </trkpt>
      <trkpt lat="47.71816" lon="3.68078">
        <ele>266</ele>
        <time>2014-09-07T09:21:41Z</time>
      </trkpt>
      <trkpt lat="47.71823" lon="3.68077">
        <ele>266</ele>
        <time>2014-09-07T09:22:14Z</time>
      </trkpt>
      <trkpt lat="47.71823" lon="3.68077">
        <ele>265</ele>
        <time>2014-09-07T09:22:45Z</time>
      </trkpt>
      <trkpt lat="47.71826" lon="3.68077">
        <ele>265</ele>
        <time>2014-09-07T09:23:18Z</time>
      </trkpt>
      <trkpt lat="47.71828" lon="3.68077">
        <ele>265</ele>
        <time>2014-09-07T09:23:54Z</time>
      </trkpt>
      <trkpt lat="47.71829" lon="3.68077">
        <ele>265</ele>
        <time>2014-09-07T09:24:25Z</time>
      </trkpt>
      <trkpt lat="47.71829" lon="3.68078">
        <ele>265</ele>
        <time>2014-09-07T09:24:53Z</time>
      </trkpt>
      <trkpt lat="47.71829" lon="3.68078">
        <ele>265</ele>
        <time>2014-09-07T09:25:22Z</time>
      </trkpt>
      <trkpt lat="47.71831" lon="3.68079">
        <ele>265</ele>
        <time>2014-09-07T09:25:46Z</time>
      </trkpt>
      <trkpt lat="47.71831" lon="3.68079">
        <ele>266</ele>
        <time>2014-09-07T09:26:03Z</time>
      </trkpt>
      <trkpt lat="47.71834" lon="3.68076">
        <ele>265</ele>
        <time>2014-09-07T09:26:17Z</time>
      </trkpt>
      <trkpt lat="47.71834" lon="3.68076">
        <ele>265</ele>
        <time>2014-09-07T09:26:31Z</time>
      </trkpt>
      <trkpt lat="47.71838" lon="3.68076">
        <ele>265</ele>
        <time>2014-09-07T09:26:36Z</time>
      </trkpt>
      <trkpt lat="47.71843" lon="3.68075">
        <ele>265</ele>
        <time>2014-09-07T09:26:40Z</time>
      </trkpt>
      <trkpt lat="47.71861" lon="3.68072">
        <ele>264</ele>
        <time>2014-09-07T09:26:53Z</time>
      </trkpt>
      <trkpt lat="47.71875" lon="3.68066">
        <ele>263</ele>
        <time>2014-09-07T09:27:05Z</time>
      </trkpt>
      <trkpt lat="47.71897" lon="3.68053">
        <ele>262</ele>
        <time>2014-09-07T09:27:18Z</time>
      </trkpt>
      <trkpt lat="47.71908" lon="3.68041">
        <ele>262</ele>
        <time>2014-09-07T09:27:30Z</time>
      </trkpt>
      <trkpt lat="47.71915" lon="3.68014">
        <ele>260</ele>
        <time>2014-09-07T09:27:46Z</time>
      </trkpt>
      <trkpt lat="47.71924" lon="3.67989">
        <ele>260</ele>
        <time>2014-09-07T09:28:01Z</time>
      </trkpt>
      <trkpt lat="47.71931" lon="3.67971">
        <ele>259</ele>
        <time>2014-09-07T09:28:13Z</time>
      </trkpt>
      <trkpt lat="47.71941" lon="3.67952">
        <ele>259</ele>
        <time>2014-09-07T09:28:27Z</time>
      </trkpt>
      <trkpt lat="47.71942" lon="3.67949">
        <ele>259</ele>
        <time>2014-09-07T09:28:29Z</time>
      </trkpt>
      <trkpt lat="47.71945" lon="3.6794">
        <ele>258</ele>
        <time>2014-09-07T09:28:34Z</time>
      </trkpt>
      <trkpt lat="47.71946" lon="3.67935">
        <ele>259</ele>
        <time>2014-09-07T09:28:37Z</time>
      </trkpt>
      <trkpt lat="47.71955" lon="3.6791">
        <ele>258</ele>
        <time>2014-09-07T09:28:52Z</time>
      </trkpt>
      <trkpt lat="47.71956" lon="3.67909">
        <ele>259</ele>
        <time>2014-09-07T09:28:53Z</time>
      </trkpt>
      <trkpt lat="47.71964" lon="3.67886">
        <ele>258</ele>
        <time>2014-09-07T09:29:07Z</time>
      </trkpt>
      <trkpt lat="47.71973" lon="3.67865">
        <ele>258</ele>
        <time>2014-09-07T09:29:20Z</time>
      </trkpt>
      <trkpt lat="47.71982" lon="3.67842">
        <ele>258</ele>
        <time>2014-09-07T09:29:34Z</time>
      </trkpt>
      <trkpt lat="47.71991" lon="3.67821">
        <ele>258</ele>
        <time>2014-09-07T09:29:47Z</time>
      </trkpt>
      <trkpt lat="47.71998" lon="3.67798">
        <ele>257</ele>
        <time>2014-09-07T09:30:01Z</time>
      </trkpt>
      <trkpt lat="47.72002" lon="3.67776">
        <ele>257</ele>
        <time>2014-09-07T09:30:14Z</time>
      </trkpt>
      <trkpt lat="47.72006" lon="3.67751">
        <ele>256</ele>
        <time>2014-09-07T09:30:28Z</time>
      </trkpt>
      <trkpt lat="47.72007" lon="3.67734">
        <ele>256</ele>
        <time>2014-09-07T09:30:38Z</time>
      </trkpt>
      <trkpt lat="47.72008" lon="3.67714">
        <ele>255</ele>
        <time>2014-09-07T09:30:47Z</time>
      </trkpt>
      <trkpt lat="47.7201" lon="3.67689">
        <ele>255</ele>
        <time>2014-09-07T09:31:01Z</time>
      </trkpt>
      <trkpt lat="47.72011" lon="3.67666">
        <ele>254</ele>
        <time>2014-09-07T09:31:15Z</time>
      </trkpt>
      <trkpt lat="47.7201" lon="3.67646">
        <ele>253</ele>
        <time>2014-09-07T09:31:26Z</time>
      </trkpt>
      <trkpt lat="47.72011" lon="3.67627">
        <ele>252</ele>
        <time>2014-09-07T09:31:36Z</time>
      </trkpt>
      <trkpt lat="47.7201" lon="3.67615">
        <ele>252</ele>
        <time>2014-09-07T09:31:42Z</time>
      </trkpt>
      <trkpt lat="47.7201" lon="3.67607">
        <ele>252</ele>
        <time>2014-09-07T09:31:47Z</time>
      </trkpt>
      <trkpt lat="47.72008" lon="3.67601">
        <ele>252</ele>
        <time>2014-09-07T09:31:50Z</time>
      </trkpt>
      <trkpt lat="47.72009" lon="3.67594">
        <ele>251</ele>
        <time>2014-09-07T09:31:54Z</time>
      </trkpt>
      <trkpt lat="47.72006" lon="3.67564">
        <ele>251</ele>
        <time>2014-09-07T09:32:10Z</time>
      </trkpt>
      <trkpt lat="47.72002" lon="3.67537">
        <ele>249</ele>
        <time>2014-09-07T09:32:26Z</time>
      </trkpt>
      <trkpt lat="47.71997" lon="3.67514">
        <ele>249</ele>
        <time>2014-09-07T09:32:40Z</time>
      </trkpt>
      <trkpt lat="47.71996" lon="3.67513">
        <ele>249</ele>
        <time>2014-09-07T09:32:41Z</time>
      </trkpt>
      <trkpt lat="47.71991" lon="3.67487">
        <ele>248</ele>
        <time>2014-09-07T09:32:56Z</time>
      </trkpt>
      <trkpt lat="47.71985" lon="3.67464">
        <ele>248</ele>
        <time>2014-09-07T09:33:10Z</time>
      </trkpt>
      <trkpt lat="47.71978" lon="3.6744">
        <ele>246</ele>
        <time>2014-09-07T09:33:24Z</time>
      </trkpt>
      <trkpt lat="47.71975" lon="3.67429">
        <ele>246</ele>
        <time>2014-09-07T09:33:37Z</time>
      </trkpt>
      <trkpt lat="47.71973" lon="3.67424">
        <ele>245</ele>
        <time>2014-09-07T09:33:40Z</time>
      </trkpt>
      <trkpt lat="47.7197" lon="3.67415">
        <ele>245</ele>
        <time>2014-09-07T09:33:46Z</time>
      </trkpt>
      <trkpt lat="47.71965" lon="3.67399">
        <ele>244</ele>
        <time>2014-09-07T09:33:56Z</time>
      </trkpt>
      <trkpt lat="47.71961" lon="3.67391">
        <ele>244</ele>
        <time>2014-09-07T09:34:01Z</time>
      </trkpt>
      <trkpt lat="47.71959" lon="3.67385">
        <ele>243</ele>
        <time>2014-09-07T09:34:04Z</time>
      </trkpt>
      <trkpt lat="47.71953" lon="3.67374">
        <ele>242</ele>
        <time>2014-09-07T09:34:12Z</time>
      </trkpt>
      <trkpt lat="47.71942" lon="3.67355">
        <ele>241</ele>
        <time>2014-09-07T09:34:25Z</time>
      </trkpt>
      <trkpt lat="47.71934" lon="3.67335">
        <ele>240</ele>
        <time>2014-09-07T09:34:39Z</time>
      </trkpt>
      <trkpt lat="47.71928" lon="3.67321">
        <ele>239</ele>
        <time>2014-09-07T09:34:49Z</time>
      </trkpt>
      <trkpt lat="47.71925" lon="3.67307">
        <ele>238</ele>
        <time>2014-09-07T09:35:02Z</time>
      </trkpt>
      <trkpt lat="47.71925" lon="3.67303">
        <ele>238</ele>
        <time>2014-09-07T09:35:19Z</time>
      </trkpt>
      <trkpt lat="47.71913" lon="3.67295">
        <ele>237</ele>
        <time>2014-09-07T09:35:34Z</time>
      </trkpt>
      <trkpt lat="47.7191" lon="3.67293">
        <ele>236</ele>
        <time>2014-09-07T09:35:44Z</time>
      </trkpt>
      <trkpt lat="47.71907" lon="3.67291">
        <ele>236</ele>
        <time>2014-09-07T09:35:47Z</time>
      </trkpt>
      <trkpt lat="47.71904" lon="3.67286">
        <ele>235</ele>
        <time>2014-09-07T09:35:52Z</time>
      </trkpt>
      <trkpt lat="47.719" lon="3.6728">
        <ele>235</ele>
        <time>2014-09-07T09:35:58Z</time>
      </trkpt>
      <trkpt lat="47.71889" lon="3.67266">
        <ele>234</ele>
        <time>2014-09-07T09:36:12Z</time>
      </trkpt>
      <trkpt lat="47.71884" lon="3.67258">
        <ele>233</ele>
        <time>2014-09-07T09:36:19Z</time>
      </trkpt>
      <trkpt lat="47.71875" lon="3.67252">
        <ele>232</ele>
        <time>2014-09-07T09:36:26Z</time>
      </trkpt>
      <trkpt lat="47.7187" lon="3.67249">
        <ele>232</ele>
        <time>2014-09-07T09:36:30Z</time>
      </trkpt>
      <trkpt lat="47.71868" lon="3.67248">
        <ele>232</ele>
        <time>2014-09-07T09:36:32Z</time>
      </trkpt>
      <trkpt lat="47.71855" lon="3.67232">
        <ele>230</ele>
        <time>2014-09-07T09:36:47Z</time>
      </trkpt>
      <trkpt lat="47.71847" lon="3.6722">
        <ele>229</ele>
        <time>2014-09-07T09:36:58Z</time>
      </trkpt>
      <trkpt lat="47.71842" lon="3.67214">
        <ele>229</ele>
        <time>2014-09-07T09:37:03Z</time>
      </trkpt>
      <trkpt lat="47.71819" lon="3.672">
        <ele>228</ele>
        <time>2014-09-07T09:37:16Z</time>
      </trkpt>
      <trkpt lat="47.71804" lon="3.67181">
        <ele>227</ele>
        <time>2014-09-07T09:37:32Z</time>
      </trkpt>
      <trkpt lat="47.71793" lon="3.67166">
        <ele>226</ele>
        <time>2014-09-07T09:37:44Z</time>
      </trkpt>
      <trkpt lat="47.71788" lon="3.67159">
        <ele>226</ele>
        <time>2014-09-07T09:37:49Z</time>
      </trkpt>
      <trkpt lat="47.71785" lon="3.67154">
        <ele>227</ele>
        <time>2014-09-07T09:37:53Z</time>
      </trkpt>
      <trkpt lat="47.71772" lon="3.67138">
        <ele>226</ele>
        <time>2014-09-07T09:38:06Z</time>
      </trkpt>
      <trkpt lat="47.71757" lon="3.6712">
        <ele>225</ele>
        <time>2014-09-07T09:38:22Z</time>
      </trkpt>
      <trkpt lat="47.71742" lon="3.67097">
        <ele>224</ele>
        <time>2014-09-07T09:38:40Z</time>
      </trkpt>
      <trkpt lat="47.7173" lon="3.67079">
        <ele>223</ele>
        <time>2014-09-07T09:38:55Z</time>
      </trkpt>
      <trkpt lat="47.71729" lon="3.6708">
        <ele>223</ele>
        <time>2014-09-07T09:38:56Z</time>
      </trkpt>
      <trkpt lat="47.71727" lon="3.67086">
        <ele>222</ele>
        <time>2014-09-07T09:39:10Z</time>
      </trkpt>
      <trkpt lat="47.7173" lon="3.67082">
        <ele>223</ele>
        <time>2014-09-07T09:39:43Z</time>
      </trkpt>
      <trkpt lat="47.7173" lon="3.67082">
        <ele>223</ele>
        <time>2014-09-07T09:39:44Z</time>
      </trkpt>
      <trkpt lat="47.71717" lon="3.67062">
        <ele>222</ele>
        <time>2014-09-07T09:40:00Z</time>
      </trkpt>
      <trkpt lat="47.71717" lon="3.67061">
        <ele>222</ele>
        <time>2014-09-07T09:40:16Z</time>
      </trkpt>
      <trkpt lat="47.71715" lon="3.67059">
        <ele>222</ele>
        <time>2014-09-07T09:40:29Z</time>
      </trkpt>
      <trkpt lat="47.71709" lon="3.67053">
        <ele>221</ele>
        <time>2014-09-07T09:40:42Z</time>
      </trkpt>
      <trkpt lat="47.71708" lon="3.67052">
        <ele>221</ele>
        <time>2014-09-07T09:40:50Z</time>
      </trkpt>
      <trkpt lat="47.71705" lon="3.67047">
        <ele>220</ele>
        <time>2014-09-07T09:40:54Z</time>
      </trkpt>
      <trkpt lat="47.7169" lon="3.67025">
        <ele>220</ele>
        <time>2014-09-07T09:41:10Z</time>
      </trkpt>
      <trkpt lat="47.71678" lon="3.67002">
        <ele>219</ele>
        <time>2014-09-07T09:41:25Z</time>
      </trkpt>
      <trkpt lat="47.71666" lon="3.66977">
        <ele>217</ele>
        <time>2014-09-07T09:41:41Z</time>
      </trkpt>
      <trkpt lat="47.71657" lon="3.66956">
        <ele>217</ele>
        <time>2014-09-07T09:41:54Z</time>
      </trkpt>
      <trkpt lat="47.71648" lon="3.66932">
        <ele>216</ele>
        <time>2014-09-07T09:42:09Z</time>
      </trkpt>
      <trkpt lat="47.71644" lon="3.66908">
        <ele>215</ele>
        <time>2014-09-07T09:42:22Z</time>
      </trkpt>
      <trkpt lat="47.71637" lon="3.66883">
        <ele>214</ele>
        <time>2014-09-07T09:42:36Z</time>
      </trkpt>
      <trkpt lat="47.71634" lon="3.66853">
        <ele>214</ele>
        <time>2014-09-07T09:42:51Z</time>
      </trkpt>
      <trkpt lat="47.71636" lon="3.66824">
        <ele>214</ele>
        <time>2014-09-07T09:43:05Z</time>
      </trkpt>
      <trkpt lat="47.71636" lon="3.66812">
        <ele>214</ele>
        <time>2014-09-07T09:43:11Z</time>
      </trkpt>
      <trkpt lat="47.71637" lon="3.66806">
        <ele>214</ele>
        <time>2014-09-07T09:43:15Z</time>
      </trkpt>
      <trkpt lat="47.71637" lon="3.66792">
        <ele>214</ele>
        <time>2014-09-07T09:43:23Z</time>
      </trkpt>
      <trkpt lat="47.71641" lon="3.66767">
        <ele>214</ele>
        <time>2014-09-07T09:43:39Z</time>
      </trkpt>
      <trkpt lat="47.71644" lon="3.66757">
        <ele>214</ele>
        <time>2014-09-07T09:43:46Z</time>
      </trkpt>
      <trkpt lat="47.71646" lon="3.66743">
        <ele>215</ele>
        <time>2014-09-07T09:43:54Z</time>
      </trkpt>
      <trkpt lat="47.71649" lon="3.66736">
        <ele>215</ele>
        <time>2014-09-07T09:44:04Z</time>
      </trkpt>
      <trkpt lat="47.71657" lon="3.66709">
        <ele>215</ele>
        <time>2014-09-07T09:44:20Z</time>
      </trkpt>
      <trkpt lat="47.71659" lon="3.66701">
        <ele>215</ele>
        <time>2014-09-07T09:44:25Z</time>
      </trkpt>
      <trkpt lat="47.71663" lon="3.66687">
        <ele>215</ele>
        <time>2014-09-07T09:44:33Z</time>
      </trkpt>
      <trkpt lat="47.7167" lon="3.66672">
        <ele>215</ele>
        <time>2014-09-07T09:44:44Z</time>
      </trkpt>
      <trkpt lat="47.71673" lon="3.66665">
        <ele>215</ele>
        <time>2014-09-07T09:44:48Z</time>
      </trkpt>
      <trkpt lat="47.71685" lon="3.66639">
        <ele>215</ele>
        <time>2014-09-07T09:45:05Z</time>
      </trkpt>
      <trkpt lat="47.71687" lon="3.66635">
        <ele>215</ele>
        <time>2014-09-07T09:45:08Z</time>
      </trkpt>
      <trkpt lat="47.7169" lon="3.6663">
        <ele>215</ele>
        <time>2014-09-07T09:45:12Z</time>
      </trkpt>
      <trkpt lat="47.71694" lon="3.66623">
        <ele>215</ele>
        <time>2014-09-07T09:45:17Z</time>
      </trkpt>
      <trkpt lat="47.71699" lon="3.66615">
        <ele>215</ele>
        <time>2014-09-07T09:45:24Z</time>
      </trkpt>
      <trkpt lat="47.71708" lon="3.666">
        <ele>215</ele>
        <time>2014-09-07T09:45:35Z</time>
      </trkpt>
      <trkpt lat="47.71711" lon="3.66597">
        <ele>215</ele>
        <time>2014-09-07T09:45:38Z</time>
      </trkpt>
      <trkpt lat="47.71716" lon="3.66592">
        <ele>215</ele>
        <time>2014-09-07T09:45:42Z</time>
      </trkpt>
      <trkpt lat="47.71721" lon="3.66587">
        <ele>215</ele>
        <time>2014-09-07T09:45:47Z</time>
      </trkpt>
      <trkpt lat="47.71731" lon="3.66579">
        <ele>215</ele>
        <time>2014-09-07T09:45:56Z</time>
      </trkpt>
      <trkpt lat="47.71747" lon="3.66564">
        <ele>215</ele>
        <time>2014-09-07T09:46:11Z</time>
      </trkpt>
      <trkpt lat="47.71762" lon="3.66553">
        <ele>213</ele>
        <time>2014-09-07T09:46:24Z</time>
      </trkpt>
      <trkpt lat="47.71766" lon="3.66551">
        <ele>213</ele>
        <time>2014-09-07T09:46:27Z</time>
      </trkpt>
      <trkpt lat="47.71775" lon="3.66548">
        <ele>212</ele>
        <time>2014-09-07T09:46:35Z</time>
      </trkpt>
      <trkpt lat="47.71784" lon="3.66548">
        <ele>212</ele>
        <time>2014-09-07T09:46:43Z</time>
      </trkpt>
      <trkpt lat="47.71795" lon="3.66561">
        <ele>213</ele>
        <time>2014-09-07T09:46:56Z</time>
      </trkpt>
      <trkpt lat="47.71796" lon="3.66563">
        <ele>213</ele>
        <time>2014-09-07T09:46:58Z</time>
      </trkpt>
      <trkpt lat="47.71806" lon="3.6658">
        <ele>215</ele>
        <time>2014-09-07T09:47:11Z</time>
      </trkpt>
      <trkpt lat="47.71813" lon="3.6659">
        <ele>215</ele>
        <time>2014-09-07T09:47:20Z</time>
      </trkpt>
      <trkpt lat="47.71828" lon="3.66605">
        <ele>217</ele>
        <time>2014-09-07T09:47:37Z</time>
      </trkpt>
      <trkpt lat="47.71831" lon="3.66609">
        <ele>218</ele>
        <time>2014-09-07T09:47:42Z</time>
      </trkpt>
      <trkpt lat="47.71838" lon="3.66616">
        <ele>220</ele>
        <time>2014-09-07T09:47:54Z</time>
      </trkpt>
      <trkpt lat="47.7184" lon="3.66619">
        <ele>220</ele>
        <time>2014-09-07T09:47:57Z</time>
      </trkpt>
      <trkpt lat="47.71851" lon="3.66631">
        <ele>221</ele>
        <time>2014-09-07T09:48:12Z</time>
      </trkpt>
      <trkpt lat="47.71853" lon="3.66632">
        <ele>222</ele>
        <time>2014-09-07T09:48:15Z</time>
      </trkpt>
      <trkpt lat="47.71856" lon="3.66632">
        <ele>222</ele>
        <time>2014-09-07T09:48:18Z</time>
      </trkpt>
      <trkpt lat="47.71862" lon="3.66632">
        <ele>222</ele>
        <time>2014-09-07T09:48:23Z</time>
      </trkpt>
      <trkpt lat="47.71864" lon="3.66632">
        <ele>222</ele>
        <time>2014-09-07T09:48:25Z</time>
      </trkpt>
      <trkpt lat="47.7187" lon="3.6663">
        <ele>221</ele>
        <time>2014-09-07T09:48:31Z</time>
      </trkpt>
      <trkpt lat="47.71888" lon="3.66629">
        <ele>221</ele>
        <time>2014-09-07T09:48:44Z</time>
      </trkpt>
      <trkpt lat="47.71896" lon="3.66625">
        <ele>221</ele>
        <time>2014-09-07T09:48:52Z</time>
      </trkpt>
      <trkpt lat="47.71905" lon="3.6662">
        <ele>221</ele>
        <time>2014-09-07T09:49:00Z</time>
      </trkpt>
      <trkpt lat="47.71919" lon="3.66616">
        <ele>221</ele>
        <time>2014-09-07T09:49:12Z</time>
      </trkpt>
      <trkpt lat="47.7193" lon="3.66612">
        <ele>222</ele>
        <time>2014-09-07T09:49:22Z</time>
      </trkpt>
      <trkpt lat="47.71939" lon="3.66604">
        <ele>222</ele>
        <time>2014-09-07T09:49:32Z</time>
      </trkpt>
      <trkpt lat="47.71941" lon="3.666">
        <ele>222</ele>
        <time>2014-09-07T09:49:35Z</time>
      </trkpt>
      <trkpt lat="47.71945" lon="3.66596">
        <ele>222</ele>
        <time>2014-09-07T09:49:39Z</time>
      </trkpt>
      <trkpt lat="47.71953" lon="3.66578">
        <ele>223</ele>
        <time>2014-09-07T09:49:52Z</time>
      </trkpt>
      <trkpt lat="47.7196" lon="3.66556">
        <ele>223</ele>
        <time>2014-09-07T09:50:05Z</time>
      </trkpt>
      <trkpt lat="47.71961" lon="3.66552">
        <ele>223</ele>
        <time>2014-09-07T09:50:08Z</time>
      </trkpt>
      <trkpt lat="47.71963" lon="3.66543">
        <ele>222</ele>
        <time>2014-09-07T09:50:13Z</time>
      </trkpt>
      <trkpt lat="47.71965" lon="3.66517">
        <ele>223</ele>
        <time>2014-09-07T09:50:27Z</time>
      </trkpt>
      <trkpt lat="47.71966" lon="3.66495">
        <ele>223</ele>
        <time>2014-09-07T09:50:39Z</time>
      </trkpt>
      <trkpt lat="47.71967" lon="3.66476">
        <ele>224</ele>
        <time>2014-09-07T09:50:49Z</time>
      </trkpt>
      <trkpt lat="47.71968" lon="3.66466">
        <ele>224</ele>
        <time>2014-09-07T09:50:57Z</time>
      </trkpt>
      <trkpt lat="47.71968" lon="3.66462">
        <ele>224</ele>
        <time>2014-09-07T09:50:59Z</time>
      </trkpt>
      <trkpt lat="47.71969" lon="3.66458">
        <ele>224</ele>
        <time>2014-09-07T09:51:01Z</time>
      </trkpt>
      <trkpt lat="47.71967" lon="3.66431">
        <ele>225</ele>
        <time>2014-09-07T09:51:16Z</time>
      </trkpt>
      <trkpt lat="47.71966" lon="3.66412">
        <ele>226</ele>
        <time>2014-09-07T09:51:27Z</time>
      </trkpt>
      <trkpt lat="47.71963" lon="3.66389">
        <ele>226</ele>
        <time>2014-09-07T09:51:39Z</time>
      </trkpt>
      <trkpt lat="47.71961" lon="3.66366">
        <ele>226</ele>
        <time>2014-09-07T09:51:51Z</time>
      </trkpt>
      <trkpt lat="47.71959" lon="3.6635">
        <ele>227</ele>
        <time>2014-09-07T09:52:01Z</time>
      </trkpt>
      <trkpt lat="47.71959" lon="3.66344">
        <ele>226</ele>
        <time>2014-09-07T09:52:05Z</time>
      </trkpt>
      <trkpt lat="47.71956" lon="3.66326">
        <ele>227</ele>
        <time>2014-09-07T09:52:16Z</time>
      </trkpt>
      <trkpt lat="47.71955" lon="3.66305">
        <ele>227</ele>
        <time>2014-09-07T09:52:28Z</time>
      </trkpt>
      <trkpt lat="47.71956" lon="3.6628">
        <ele>227</ele>
        <time>2014-09-07T09:52:42Z</time>
      </trkpt>
      <trkpt lat="47.71955" lon="3.66257">
        <ele>227</ele>
        <time>2014-09-07T09:52:55Z</time>
      </trkpt>
      <trkpt lat="47.71954" lon="3.66255">
        <ele>227</ele>
        <time>2014-09-07T09:52:56Z</time>
      </trkpt>
      <trkpt lat="47.71954" lon="3.66234">
        <ele>226</ele>
        <time>2014-09-07T09:53:06Z</time>
      </trkpt>
      <trkpt lat="47.71956" lon="3.66206">
        <ele>227</ele>
        <time>2014-09-07T09:53:20Z</time>
      </trkpt>
      <trkpt lat="47.71955" lon="3.6619">
        <ele>227</ele>
        <time>2014-09-07T09:53:29Z</time>
      </trkpt>
      <trkpt lat="47.71955" lon="3.66186">
        <ele>227</ele>
        <time>2014-09-07T09:53:31Z</time>
      </trkpt>
      <trkpt lat="47.71948" lon="3.66161">
        <ele>227</ele>
        <time>2014-09-07T09:53:45Z</time>
      </trkpt>
      <trkpt lat="47.71947" lon="3.66157">
        <ele>227</ele>
        <time>2014-09-07T09:53:48Z</time>
      </trkpt>
      <trkpt lat="47.71946" lon="3.66149">
        <ele>227</ele>
        <time>2014-09-07T09:53:52Z</time>
      </trkpt>
      <trkpt lat="47.71945" lon="3.66146">
        <ele>227</ele>
        <time>2014-09-07T09:53:54Z</time>
      </trkpt>
      <trkpt lat="47.71932" lon="3.66127">
        <ele>227</ele>
        <time>2014-09-07T09:54:08Z</time>
      </trkpt>
      <trkpt lat="47.71922" lon="3.66113">
        <ele>225</ele>
        <time>2014-09-07T09:54:20Z</time>
      </trkpt>
      <trkpt lat="47.7191" lon="3.66104">
        <ele>225</ele>
        <time>2014-09-07T09:54:33Z</time>
      </trkpt>
      <trkpt lat="47.71898" lon="3.66095">
        <ele>224</ele>
        <time>2014-09-07T09:54:45Z</time>
      </trkpt>
      <trkpt lat="47.71882" lon="3.66086">
        <ele>223</ele>
        <time>2014-09-07T09:54:58Z</time>
      </trkpt>
      <trkpt lat="47.71867" lon="3.66076">
        <ele>221</ele>
        <time>2014-09-07T09:55:12Z</time>
      </trkpt>
      <trkpt lat="47.71851" lon="3.6607">
        <ele>219</ele>
        <time>2014-09-07T09:55:24Z</time>
      </trkpt>
      <trkpt lat="47.71829" lon="3.66066">
        <ele>219</ele>
        <time>2014-09-07T09:55:37Z</time>
      </trkpt>
      <trkpt lat="47.71809" lon="3.6606">
        <ele>217</ele>
        <time>2014-09-07T09:55:52Z</time>
      </trkpt>
      <trkpt lat="47.71793" lon="3.66054">
        <ele>215</ele>
        <time>2014-09-07T09:56:04Z</time>
      </trkpt>
      <trkpt lat="47.71778" lon="3.66049">
        <ele>214</ele>
        <time>2014-09-07T09:56:16Z</time>
      </trkpt>
      <trkpt lat="47.71768" lon="3.66045">
        <ele>214</ele>
        <time>2014-09-07T09:56:24Z</time>
      </trkpt>
      <trkpt lat="47.71753" lon="3.66041">
        <ele>212</ele>
        <time>2014-09-07T09:56:36Z</time>
      </trkpt>
      <trkpt lat="47.71743" lon="3.66039">
        <ele>212</ele>
        <time>2014-09-07T09:56:43Z</time>
      </trkpt>
      <trkpt lat="47.71726" lon="3.66033">
        <ele>212</ele>
        <time>2014-09-07T09:56:57Z</time>
      </trkpt>
      <trkpt lat="47.71714" lon="3.66022">
        <ele>211</ele>
        <time>2014-09-07T09:57:08Z</time>
      </trkpt>
      <trkpt lat="47.71705" lon="3.6601">
        <ele>211</ele>
        <time>2014-09-07T09:57:18Z</time>
      </trkpt>
      <trkpt lat="47.71689" lon="3.65992">
        <ele>211</ele>
        <time>2014-09-07T09:57:33Z</time>
      </trkpt>
      <trkpt lat="47.71676" lon="3.65973">
        <ele>211</ele>
        <time>2014-09-07T09:57:48Z</time>
      </trkpt>
      <trkpt lat="47.71662" lon="3.65955">
        <ele>211</ele>
        <time>2014-09-07T09:58:02Z</time>
      </trkpt>
      <trkpt lat="47.7165" lon="3.65938">
        <ele>210</ele>
        <time>2014-09-07T09:58:15Z</time>
      </trkpt>
      <trkpt lat="47.71642" lon="3.65926">
        <ele>210</ele>
        <time>2014-09-07T09:58:24Z</time>
      </trkpt>
      <trkpt lat="47.71635" lon="3.65916">
        <ele>211</ele>
        <time>2014-09-07T09:58:32Z</time>
      </trkpt>
      <trkpt lat="47.71622" lon="3.65889">
        <ele>210</ele>
        <time>2014-09-07T09:58:49Z</time>
      </trkpt>
      <trkpt lat="47.71613" lon="3.65861">
        <ele>211</ele>
        <time>2014-09-07T09:59:06Z</time>
      </trkpt>
      <trkpt lat="47.71606" lon="3.65828">
        <ele>211</ele>
        <time>2014-09-07T09:59:23Z</time>
      </trkpt>
      <trkpt lat="47.71601" lon="3.65802">
        <ele>212</ele>
        <time>2014-09-07T09:59:37Z</time>
      </trkpt>
      <trkpt lat="47.716" lon="3.65798">
        <ele>212</ele>
        <time>2014-09-07T09:59:40Z</time>
      </trkpt>
      <trkpt lat="47.71596" lon="3.65772">
        <ele>212</ele>
        <time>2014-09-07T09:59:54Z</time>
      </trkpt>
      <trkpt lat="47.71592" lon="3.65752">
        <ele>212</ele>
        <time>2014-09-07T10:00:05Z</time>
      </trkpt>
      <trkpt lat="47.71589" lon="3.6573">
        <ele>212</ele>
        <time>2014-09-07T10:00:17Z</time>
      </trkpt>
      <trkpt lat="47.71586" lon="3.65698">
        <ele>212</ele>
        <time>2014-09-07T10:00:34Z</time>
      </trkpt>
      <trkpt lat="47.71585" lon="3.6569">
        <ele>212</ele>
        <time>2014-09-07T10:00:38Z</time>
      </trkpt>
      <trkpt lat="47.71584" lon="3.65661">
        <ele>212</ele>
        <time>2014-09-07T10:00:53Z</time>
      </trkpt>
      <trkpt lat="47.71584" lon="3.65648">
        <ele>211</ele>
        <time>2014-09-07T10:01:00Z</time>
      </trkpt>
      <trkpt lat="47.71587" lon="3.65624">
        <ele>210</ele>
        <time>2014-09-07T10:01:14Z</time>
      </trkpt>
      <trkpt lat="47.71587" lon="3.65617">
        <ele>210</ele>
        <time>2014-09-07T10:01:27Z</time>
      </trkpt>
      <trkpt lat="47.71589" lon="3.65617">
        <ele>210</ele>
        <time>2014-09-07T10:01:39Z</time>
      </trkpt>
      <trkpt lat="47.71589" lon="3.65617">
        <ele>210</ele>
        <time>2014-09-07T10:02:07Z</time>
      </trkpt>
      <trkpt lat="47.71589" lon="3.65617">
        <ele>210</ele>
        <time>2014-09-07T10:02:29Z</time>
      </trkpt>
      <trkpt lat="47.71589" lon="3.65617">
        <ele>210</ele>
        <time>2014-09-07T10:02:52Z</time>
      </trkpt>
      <trkpt lat="47.71589" lon="3.65617">
        <ele>211</ele>
        <time>2014-09-07T10:03:26Z</time>
      </trkpt>
      <trkpt lat="47.71591" lon="3.65616">
        <ele>211</ele>
        <time>2014-09-07T10:03:46Z</time>
      </trkpt>
      <trkpt lat="47.71594" lon="3.65617">
        <ele>211</ele>
        <time>2014-09-07T10:03:58Z</time>
      </trkpt>
      <trkpt lat="47.7161" lon="3.65622">
        <ele>213</ele>
        <time>2014-09-07T10:04:15Z</time>
      </trkpt>
      <trkpt lat="47.71614" lon="3.65622">
        <ele>213</ele>
        <time>2014-09-07T10:04:19Z</time>
      </trkpt>
      <trkpt lat="47.71617" lon="3.65622">
        <ele>213</ele>
        <time>2014-09-07T10:04:23Z</time>
      </trkpt>
      <trkpt lat="47.71629" lon="3.65623">
        <ele>214</ele>
        <time>2014-09-07T10:04:35Z</time>
      </trkpt>
      <trkpt lat="47.71635" lon="3.65623">
        <ele>215</ele>
        <time>2014-09-07T10:04:41Z</time>
      </trkpt>
      <trkpt lat="47.71641" lon="3.65624">
        <ele>215</ele>
        <time>2014-09-07T10:04:47Z</time>
      </trkpt>
      <trkpt lat="47.71648" lon="3.65623">
        <ele>216</ele>
        <time>2014-09-07T10:04:55Z</time>
      </trkpt>
      <trkpt lat="47.71656" lon="3.65622">
        <ele>217</ele>
        <time>2014-09-07T10:05:02Z</time>
      </trkpt>
      <trkpt lat="47.71663" lon="3.65616">
        <ele>217</ele>
        <time>2014-09-07T10:05:11Z</time>
      </trkpt>
      <trkpt lat="47.7167" lon="3.65591">
        <ele>217</ele>
        <time>2014-09-07T10:05:27Z</time>
      </trkpt>
      <trkpt lat="47.71671" lon="3.65586">
        <ele>217</ele>
        <time>2014-09-07T10:05:31Z</time>
      </trkpt>
      <trkpt lat="47.71674" lon="3.65578">
        <ele>217</ele>
        <time>2014-09-07T10:05:36Z</time>
      </trkpt>
      <trkpt lat="47.71681" lon="3.65563">
        <ele>216</ele>
        <time>2014-09-07T10:05:47Z</time>
      </trkpt>
      <trkpt lat="47.71683" lon="3.65557">
        <ele>216</ele>
        <time>2014-09-07T10:05:51Z</time>
      </trkpt>
      <trkpt lat="47.71693" lon="3.65533">
        <ele>216</ele>
        <time>2014-09-07T10:06:07Z</time>
      </trkpt>
      <trkpt lat="47.71701" lon="3.65509">
        <ele>216</ele>
        <time>2014-09-07T10:06:22Z</time>
      </trkpt>
      <trkpt lat="47.71703" lon="3.65498">
        <ele>216</ele>
        <time>2014-09-07T10:06:28Z</time>
      </trkpt>
      <trkpt lat="47.71705" lon="3.6549">
        <ele>216</ele>
        <time>2014-09-07T10:06:32Z</time>
      </trkpt>
      <trkpt lat="47.71708" lon="3.6548">
        <ele>217</ele>
        <time>2014-09-07T10:06:38Z</time>
      </trkpt>
      <trkpt lat="47.71709" lon="3.65474">
        <ele>216</ele>
        <time>2014-09-07T10:06:42Z</time>
      </trkpt>
      <trkpt lat="47.71713" lon="3.65459">
        <ele>217</ele>
        <time>2014-09-07T10:06:51Z</time>
      </trkpt>
      <trkpt lat="47.7172" lon="3.65439">
        <ele>218</ele>
        <time>2014-09-07T10:07:05Z</time>
      </trkpt>
      <trkpt lat="47.71725" lon="3.65422">
        <ele>220</ele>
        <time>2014-09-07T10:07:17Z</time>
      </trkpt>
      <trkpt lat="47.7173" lon="3.654">
        <ele>221</ele>
        <time>2014-09-07T10:07:31Z</time>
      </trkpt>
      <trkpt lat="47.71734" lon="3.65382">
        <ele>222</ele>
        <time>2014-09-07T10:07:42Z</time>
      </trkpt>
      <trkpt lat="47.71741" lon="3.65361">
        <ele>223</ele>
        <time>2014-09-07T10:07:55Z</time>
      </trkpt>
      <trkpt lat="47.71744" lon="3.65351">
        <ele>223</ele>
        <time>2014-09-07T10:08:02Z</time>
      </trkpt>
      <trkpt lat="47.71757" lon="3.65328">
        <ele>224</ele>
        <time>2014-09-07T10:08:19Z</time>
      </trkpt>
      <trkpt lat="47.71762" lon="3.65323">
        <ele>224</ele>
        <time>2014-09-07T10:08:24Z</time>
      </trkpt>
      <trkpt lat="47.71767" lon="3.65311">
        <ele>224</ele>
        <time>2014-09-07T10:08:33Z</time>
      </trkpt>
      <trkpt lat="47.7177" lon="3.65308">
        <ele>224</ele>
        <time>2014-09-07T10:08:36Z</time>
      </trkpt>
      <trkpt lat="47.7178" lon="3.65289">
        <ele>225</ele>
        <time>2014-09-07T10:08:49Z</time>
      </trkpt>
      <trkpt lat="47.71789" lon="3.65274">
        <ele>225</ele>
        <time>2014-09-07T10:08:59Z</time>
      </trkpt>
      <trkpt lat="47.71796" lon="3.65262">
        <ele>224</ele>
        <time>2014-09-07T10:09:08Z</time>
      </trkpt>
      <trkpt lat="47.71805" lon="3.65238">
        <ele>226</ele>
        <time>2014-09-07T10:09:24Z</time>
      </trkpt>
      <trkpt lat="47.71808" lon="3.6523">
        <ele>226</ele>
        <time>2014-09-07T10:09:30Z</time>
      </trkpt>
      <trkpt lat="47.71811" lon="3.65222">
        <ele>227</ele>
        <time>2014-09-07T10:09:35Z</time>
      </trkpt>
      <trkpt lat="47.71812" lon="3.65218">
        <ele>227</ele>
        <time>2014-09-07T10:09:38Z</time>
      </trkpt>
      <trkpt lat="47.71816" lon="3.65211">
        <ele>228</ele>
        <time>2014-09-07T10:09:44Z</time>
      </trkpt>
      <trkpt lat="47.71817" lon="3.65207">
        <ele>228</ele>
        <time>2014-09-07T10:09:46Z</time>
      </trkpt>
      <trkpt lat="47.71822" lon="3.65198">
        <ele>229</ele>
        <time>2014-09-07T10:09:54Z</time>
      </trkpt>
      <trkpt lat="47.71825" lon="3.65184">
        <ele>231</ele>
        <time>2014-09-07T10:10:04Z</time>
      </trkpt>
      <trkpt lat="47.71825" lon="3.65182">
        <ele>231</ele>
        <time>2014-09-07T10:10:05Z</time>
      </trkpt>
      <trkpt lat="47.71825" lon="3.65175">
        <ele>232</ele>
        <time>2014-09-07T10:10:12Z</time>
      </trkpt>
      <trkpt lat="47.71825" lon="3.65172">
        <ele>232</ele>
        <time>2014-09-07T10:10:14Z</time>
      </trkpt>
      <trkpt lat="47.71824" lon="3.65167">
        <ele>232</ele>
        <time>2014-09-07T10:10:17Z</time>
      </trkpt>
      <trkpt lat="47.71823" lon="3.65148">
        <ele>233</ele>
        <time>2014-09-07T10:10:30Z</time>
      </trkpt>
      <trkpt lat="47.71821" lon="3.65133">
        <ele>234</ele>
        <time>2014-09-07T10:10:39Z</time>
      </trkpt>
      <trkpt lat="47.7182" lon="3.65129">
        <ele>234</ele>
        <time>2014-09-07T10:10:41Z</time>
      </trkpt>
      <trkpt lat="47.71816" lon="3.65111">
        <ele>235</ele>
        <time>2014-09-07T10:10:52Z</time>
      </trkpt>
      <trkpt lat="47.71815" lon="3.65108">
        <ele>235</ele>
        <time>2014-09-07T10:10:54Z</time>
      </trkpt>
      <trkpt lat="47.71815" lon="3.65105">
        <ele>235</ele>
        <time>2014-09-07T10:10:56Z</time>
      </trkpt>
      <trkpt lat="47.71807" lon="3.65084">
        <ele>234</ele>
        <time>2014-09-07T10:11:09Z</time>
      </trkpt>
      <trkpt lat="47.71804" lon="3.65076">
        <ele>234</ele>
        <time>2014-09-07T10:11:14Z</time>
      </trkpt>
      <trkpt lat="47.71801" lon="3.65069">
        <ele>234</ele>
        <time>2014-09-07T10:11:18Z</time>
      </trkpt>
      <trkpt lat="47.71797" lon="3.6506">
        <ele>234</ele>
        <time>2014-09-07T10:11:25Z</time>
      </trkpt>
      <trkpt lat="47.71788" lon="3.65047">
        <ele>234</ele>
        <time>2014-09-07T10:11:35Z</time>
      </trkpt>
      <trkpt lat="47.71781" lon="3.65025">
        <ele>233</ele>
        <time>2014-09-07T10:11:48Z</time>
      </trkpt>
      <trkpt lat="47.71772" lon="3.65009">
        <ele>233</ele>
        <time>2014-09-07T10:12:00Z</time>
      </trkpt>
      <trkpt lat="47.7176" lon="3.64986">
        <ele>233</ele>
        <time>2014-09-07T10:12:15Z</time>
      </trkpt>
      <trkpt lat="47.71751" lon="3.64968">
        <ele>232</ele>
        <time>2014-09-07T10:12:28Z</time>
      </trkpt>
      <trkpt lat="47.71741" lon="3.64945">
        <ele>231</ele>
        <time>2014-09-07T10:12:43Z</time>
      </trkpt>
      <trkpt lat="47.71731" lon="3.64922">
        <ele>231</ele>
        <time>2014-09-07T10:12:57Z</time>
      </trkpt>
      <trkpt lat="47.71724" lon="3.64901">
        <ele>231</ele>
        <time>2014-09-07T10:13:10Z</time>
      </trkpt>
      <trkpt lat="47.71719" lon="3.6488">
        <ele>231</ele>
        <time>2014-09-07T10:13:23Z</time>
      </trkpt>
      <trkpt lat="47.71714" lon="3.64859">
        <ele>231</ele>
        <time>2014-09-07T10:13:36Z</time>
      </trkpt>
      <trkpt lat="47.71709" lon="3.64834">
        <ele>231</ele>
        <time>2014-09-07T10:13:50Z</time>
      </trkpt>
      <trkpt lat="47.71706" lon="3.64811">
        <ele>231</ele>
        <time>2014-09-07T10:14:03Z</time>
      </trkpt>
      <trkpt lat="47.71704" lon="3.64795">
        <ele>231</ele>
        <time>2014-09-07T10:14:12Z</time>
      </trkpt>
      <trkpt lat="47.717" lon="3.6477">
        <ele>231</ele>
        <time>2014-09-07T10:14:27Z</time>
      </trkpt>
      <trkpt lat="47.71699" lon="3.64765">
        <ele>231</ele>
        <time>2014-09-07T10:14:31Z</time>
      </trkpt>
      <trkpt lat="47.71696" lon="3.64761">
        <ele>230</ele>
        <time>2014-09-07T10:14:36Z</time>
      </trkpt>
      <trkpt lat="47.71684" lon="3.64762">
        <ele>228</ele>
        <time>2014-09-07T10:14:47Z</time>
      </trkpt>
      <trkpt lat="47.71673" lon="3.64765">
        <ele>227</ele>
        <time>2014-09-07T10:14:55Z</time>
      </trkpt>
      <trkpt lat="47.71656" lon="3.6477">
        <ele>223</ele>
        <time>2014-09-07T10:15:08Z</time>
      </trkpt>
      <trkpt lat="47.71639" lon="3.64766">
        <ele>220</ele>
        <time>2014-09-07T10:15:22Z</time>
      </trkpt>
      <trkpt lat="47.71636" lon="3.64741">
        <ele>219</ele>
        <time>2014-09-07T10:15:35Z</time>
      </trkpt>
      <trkpt lat="47.71637" lon="3.64731">
        <ele>218</ele>
        <time>2014-09-07T10:15:41Z</time>
      </trkpt>
      <trkpt lat="47.71642" lon="3.64702">
        <ele>221</ele>
        <time>2014-09-07T10:15:57Z</time>
      </trkpt>
      <trkpt lat="47.71646" lon="3.64682">
        <ele>221</ele>
        <time>2014-09-07T10:16:07Z</time>
      </trkpt>
      <trkpt lat="47.7165" lon="3.64674">
        <ele>221</ele>
        <time>2014-09-07T10:16:12Z</time>
      </trkpt>
      <trkpt lat="47.71652" lon="3.64668">
        <ele>222</ele>
        <time>2014-09-07T10:16:15Z</time>
      </trkpt>
      <trkpt lat="47.71659" lon="3.64655">
        <ele>222</ele>
        <time>2014-09-07T10:16:24Z</time>
      </trkpt>
      <trkpt lat="47.71663" lon="3.64644">
        <ele>222</ele>
        <time>2014-09-07T10:16:30Z</time>
      </trkpt>
      <trkpt lat="47.71671" lon="3.64628">
        <ele>222</ele>
        <time>2014-09-07T10:16:41Z</time>
      </trkpt>
      <trkpt lat="47.71674" lon="3.64619">
        <ele>223</ele>
        <time>2014-09-07T10:16:46Z</time>
      </trkpt>
      <trkpt lat="47.7168" lon="3.64593">
        <ele>224</ele>
        <time>2014-09-07T10:17:01Z</time>
      </trkpt>
      <trkpt lat="47.7168" lon="3.6457">
        <ele>224</ele>
        <time>2014-09-07T10:17:13Z</time>
      </trkpt>
      <trkpt lat="47.71674" lon="3.64552">
        <ele>224</ele>
        <time>2014-09-07T10:17:25Z</time>
      </trkpt>
      <trkpt lat="47.71666" lon="3.64533">
        <ele>222</ele>
        <time>2014-09-07T10:17:37Z</time>
      </trkpt>
      <trkpt lat="47.7166" lon="3.6452">
        <ele>221</ele>
        <time>2014-09-07T10:17:46Z</time>
      </trkpt>
      <trkpt lat="47.7165" lon="3.64494">
        <ele>220</ele>
        <time>2014-09-07T10:18:01Z</time>
      </trkpt>
      <trkpt lat="47.71646" lon="3.64472">
        <ele>221</ele>
        <time>2014-09-07T10:18:13Z</time>
      </trkpt>
      <trkpt lat="47.71645" lon="3.64455">
        <ele>221</ele>
        <time>2014-09-07T10:18:22Z</time>
      </trkpt>
      <trkpt lat="47.71645" lon="3.64451">
        <ele>221</ele>
        <time>2014-09-07T10:18:25Z</time>
      </trkpt>
      <trkpt lat="47.71646" lon="3.64441">
        <ele>222</ele>
        <time>2014-09-07T10:18:31Z</time>
      </trkpt>
      <trkpt lat="47.71647" lon="3.64426">
        <ele>222</ele>
        <time>2014-09-07T10:18:39Z</time>
      </trkpt>
      <trkpt lat="47.71646" lon="3.64418">
        <ele>222</ele>
        <time>2014-09-07T10:18:43Z</time>
      </trkpt>
      <trkpt lat="47.71649" lon="3.64389">
        <ele>223</ele>
        <time>2014-09-07T10:18:59Z</time>
      </trkpt>
      <trkpt lat="47.71649" lon="3.64364">
        <ele>223</ele>
        <time>2014-09-07T10:19:13Z</time>
      </trkpt>
      <trkpt lat="47.71649" lon="3.64358">
        <ele>222</ele>
        <time>2014-09-07T10:19:16Z</time>
      </trkpt>
      <trkpt lat="47.7165" lon="3.64348">
        <ele>223</ele>
        <time>2014-09-07T10:19:21Z</time>
      </trkpt>
      <trkpt lat="47.71651" lon="3.64316">
        <ele>223</ele>
        <time>2014-09-07T10:19:36Z</time>
      </trkpt>
      <trkpt lat="47.71652" lon="3.6429">
        <ele>222</ele>
        <time>2014-09-07T10:19:50Z</time>
      </trkpt>
      <trkpt lat="47.71649" lon="3.64286">
        <ele>222</ele>
        <time>2014-09-07T10:19:53Z</time>
      </trkpt>
      <trkpt lat="47.71632" lon="3.64278">
        <ele>218</ele>
        <time>2014-09-07T10:20:08Z</time>
      </trkpt>
      <trkpt lat="47.71632" lon="3.64278">
        <ele>218</ele>
        <time>2014-09-07T10:20:09Z</time>
      </trkpt>
      <trkpt lat="47.71629" lon="3.64278">
        <ele>218</ele>
        <time>2014-09-07T10:20:12Z</time>
      </trkpt>
      <trkpt lat="47.71618" lon="3.64272">
        <ele>216</ele>
        <time>2014-09-07T10:20:23Z</time>
      </trkpt>
      <trkpt lat="47.71605" lon="3.64263">
        <ele>213</ele>
        <time>2014-09-07T10:20:37Z</time>
      </trkpt>
      <trkpt lat="47.71595" lon="3.64259">
        <ele>212</ele>
        <time>2014-09-07T10:20:46Z</time>
      </trkpt>
      <trkpt lat="47.71589" lon="3.64257">
        <ele>210</ele>
        <time>2014-09-07T10:20:52Z</time>
      </trkpt>
      <trkpt lat="47.71584" lon="3.64253">
        <ele>209</ele>
        <time>2014-09-07T10:20:58Z</time>
      </trkpt>
      <trkpt lat="47.71571" lon="3.64246">
        <ele>206</ele>
        <time>2014-09-07T10:21:12Z</time>
      </trkpt>
      <trkpt lat="47.71562" lon="3.64241">
        <ele>204</ele>
        <time>2014-09-07T10:21:22Z</time>
      </trkpt>
      <trkpt lat="47.7156" lon="3.6424">
        <ele>203</ele>
        <time>2014-09-07T10:21:24Z</time>
      </trkpt>
      <trkpt lat="47.71547" lon="3.64232">
        <ele>201</ele>
        <time>2014-09-07T10:21:38Z</time>
      </trkpt>
      <trkpt lat="47.71538" lon="3.64226">
        <ele>199</ele>
        <time>2014-09-07T10:21:47Z</time>
      </trkpt>
      <trkpt lat="47.71536" lon="3.64224">
        <ele>198</ele>
        <time>2014-09-07T10:21:50Z</time>
      </trkpt>
      <trkpt lat="47.71522" lon="3.64217">
        <ele>196</ele>
        <time>2014-09-07T10:22:03Z</time>
      </trkpt>
      <trkpt lat="47.71507" lon="3.64212">
        <ele>193</ele>
        <time>2014-09-07T10:22:17Z</time>
      </trkpt>
      <trkpt lat="47.71502" lon="3.64209">
        <ele>192</ele>
        <time>2014-09-07T10:22:23Z</time>
      </trkpt>
      <trkpt lat="47.71494" lon="3.64203">
        <ele>191</ele>
        <time>2014-09-07T10:22:32Z</time>
      </trkpt>
      <trkpt lat="47.71486" lon="3.64201">
        <ele>190</ele>
        <time>2014-09-07T10:22:39Z</time>
      </trkpt>
      <trkpt lat="47.71471" lon="3.64195">
        <ele>187</ele>
        <time>2014-09-07T10:22:54Z</time>
      </trkpt>
      <trkpt lat="47.71468" lon="3.64194">
        <ele>186</ele>
        <time>2014-09-07T10:22:57Z</time>
      </trkpt>
      <trkpt lat="47.71454" lon="3.64189">
        <ele>184</ele>
        <time>2014-09-07T10:23:12Z</time>
      </trkpt>
      <trkpt lat="47.7144" lon="3.64183">
        <ele>182</ele>
        <time>2014-09-07T10:23:26Z</time>
      </trkpt>
      <trkpt lat="47.71431" lon="3.6418">
        <ele>180</ele>
        <time>2014-09-07T10:23:35Z</time>
      </trkpt>
      <trkpt lat="47.71417" lon="3.64172">
        <ele>178</ele>
        <time>2014-09-07T10:23:49Z</time>
      </trkpt>
      <trkpt lat="47.71406" lon="3.64164">
        <ele>176</ele>
        <time>2014-09-07T10:24:01Z</time>
      </trkpt>
      <trkpt lat="47.71398" lon="3.64159">
        <ele>174</ele>
        <time>2014-09-07T10:24:09Z</time>
      </trkpt>
      <trkpt lat="47.71396" lon="3.64156">
        <ele>173</ele>
        <time>2014-09-07T10:24:12Z</time>
      </trkpt>
      <trkpt lat="47.71381" lon="3.64142">
        <ele>170</ele>
        <time>2014-09-07T10:24:29Z</time>
      </trkpt>
      <trkpt lat="47.71379" lon="3.6414">
        <ele>169</ele>
        <time>2014-09-07T10:24:32Z</time>
      </trkpt>
      <trkpt lat="47.71374" lon="3.64136">
        <ele>168</ele>
        <time>2014-09-07T10:24:37Z</time>
      </trkpt>
      <trkpt lat="47.71361" lon="3.64124">
        <ele>165</ele>
        <time>2014-09-07T10:24:53Z</time>
      </trkpt>
      <trkpt lat="47.71353" lon="3.64117">
        <ele>163</ele>
        <time>2014-09-07T10:25:05Z</time>
      </trkpt>
      <trkpt lat="47.71344" lon="3.64106">
        <ele>160</ele>
        <time>2014-09-07T10:25:17Z</time>
      </trkpt>
      <trkpt lat="47.71339" lon="3.64101">
        <ele>159</ele>
        <time>2014-09-07T10:25:23Z</time>
      </trkpt>
      <trkpt lat="47.71328" lon="3.64088">
        <ele>155</ele>
        <time>2014-09-07T10:25:36Z</time>
      </trkpt>
      <trkpt lat="47.71319" lon="3.64078">
        <ele>153</ele>
        <time>2014-09-07T10:25:48Z</time>
      </trkpt>
      <trkpt lat="47.71314" lon="3.64068">
        <ele>151</ele>
        <time>2014-09-07T10:25:56Z</time>
      </trkpt>
      <trkpt lat="47.7131" lon="3.64064">
        <ele>150</ele>
        <time>2014-09-07T10:26:00Z</time>
      </trkpt>
      <trkpt lat="47.71296" lon="3.64055">
        <ele>148</ele>
        <time>2014-09-07T10:26:14Z</time>
      </trkpt>
      <trkpt lat="47.71283" lon="3.64048">
        <ele>145</ele>
        <time>2014-09-07T10:26:28Z</time>
      </trkpt>
      <trkpt lat="47.7127" lon="3.64041">
        <ele>143</ele>
        <time>2014-09-07T10:26:41Z</time>
      </trkpt>
      <trkpt lat="47.71267" lon="3.64039">
        <ele>142</ele>
        <time>2014-09-07T10:26:43Z</time>
      </trkpt>
      <trkpt lat="47.71257" lon="3.64031">
        <ele>141</ele>
        <time>2014-09-07T10:26:54Z</time>
      </trkpt>
      <trkpt lat="47.7124" lon="3.64025">
        <ele>139</ele>
        <time>2014-09-07T10:27:10Z</time>
      </trkpt>
      <trkpt lat="47.71225" lon="3.64016">
        <ele>136</ele>
        <time>2014-09-07T10:27:25Z</time>
      </trkpt>
      <trkpt lat="47.71209" lon="3.64007">
        <ele>135</ele>
        <time>2014-09-07T10:27:40Z</time>
      </trkpt>
      <trkpt lat="47.71203" lon="3.64004">
        <ele>133</ele>
        <time>2014-09-07T10:27:46Z</time>
      </trkpt>
      <trkpt lat="47.712" lon="3.64003">
        <ele>133</ele>
        <time>2014-09-07T10:27:49Z</time>
      </trkpt>
      <trkpt lat="47.71193" lon="3.64002">
        <ele>133</ele>
        <time>2014-09-07T10:27:55Z</time>
      </trkpt>
      <trkpt lat="47.71181" lon="3.63991">
        <ele>131</ele>
        <time>2014-09-07T10:28:08Z</time>
      </trkpt>
      <trkpt lat="47.71178" lon="3.6399">
        <ele>131</ele>
        <time>2014-09-07T10:28:11Z</time>
      </trkpt>
      <trkpt lat="47.7117" lon="3.63985">
        <ele>129</ele>
        <time>2014-09-07T10:28:19Z</time>
      </trkpt>
      <trkpt lat="47.71168" lon="3.63984">
        <ele>129</ele>
        <time>2014-09-07T10:28:21Z</time>
      </trkpt>
      <trkpt lat="47.71163" lon="3.63983">
        <ele>129</ele>
        <time>2014-09-07T10:28:25Z</time>
      </trkpt>
      <trkpt lat="47.71148" lon="3.63975">
        <ele>128</ele>
        <time>2014-09-07T10:28:38Z</time>
      </trkpt>
      <trkpt lat="47.71134" lon="3.63968">
        <ele>125</ele>
        <time>2014-09-07T10:28:50Z</time>
      </trkpt>
      <trkpt lat="47.71131" lon="3.63966">
        <ele>125</ele>
        <time>2014-09-07T10:28:53Z</time>
      </trkpt>
      <trkpt lat="47.71117" lon="3.63957">
        <ele>123</ele>
        <time>2014-09-07T10:29:07Z</time>
      </trkpt>
      <trkpt lat="47.71103" lon="3.63948">
        <ele>121</ele>
        <time>2014-09-07T10:29:20Z</time>
      </trkpt>
      <trkpt lat="47.71091" lon="3.63944">
        <ele>119</ele>
        <time>2014-09-07T10:29:35Z</time>
      </trkpt>
      <trkpt lat="47.71091" lon="3.63944">
        <ele>119</ele>
        <time>2014-09-07T10:29:54Z</time>
      </trkpt>
      <trkpt lat="47.71091" lon="3.63944">
        <ele>119</ele>
        <time>2014-09-07T10:30:17Z</time>
      </trkpt>
      <trkpt lat="47.71091" lon="3.63944">
        <ele>119</ele>
        <time>2014-09-07T10:30:40Z</time>
      </trkpt>
      <trkpt lat="47.71091" lon="3.63944">
        <ele>119</ele>
        <time>2014-09-07T10:31:08Z</time>
      </trkpt>
      <trkpt lat="47.71091" lon="3.63944">
        <ele>119</ele>
        <time>2014-09-07T10:31:32Z</time>
      </trkpt>
      <trkpt lat="47.71091" lon="3.63944">
        <ele>119</ele>
        <time>2014-09-07T10:31:57Z</time>
      </trkpt>
      <trkpt lat="47.71091" lon="3.63944">
        <ele>119</ele>
        <time>2014-09-07T10:32:22Z</time>
      </trkpt>
      <trkpt lat="47.71091" lon="3.63944">
        <ele>119</ele>
        <time>2014-09-07T10:32:44Z</time>
      </trkpt>
      <trkpt lat="47.71091" lon="3.63944">
        <ele>119</ele>
        <time>2014-09-07T10:33:08Z</time>
      </trkpt>
      <trkpt lat="47.71091" lon="3.63944">
        <ele>119</ele>
        <time>2014-09-07T10:33:27Z</time>
      </trkpt>
      <trkpt lat="47.71091" lon="3.63944">
        <ele>119</ele>
        <time>2014-09-07T10:33:50Z</time>
      </trkpt>
      <trkpt lat="47.71091" lon="3.63944">
        <ele>119</ele>
        <time>2014-09-07T10:34:16Z</time>
      </trkpt>
      <trkpt lat="47.71091" lon="3.63942">
        <ele>119</ele>
        <time>2014-09-07T10:34:38Z</time>
      </trkpt>
      <trkpt lat="47.71089" lon="3.63934">
        <ele>118</ele>
        <time>2014-09-07T10:34:44Z</time>
      </trkpt>
      <trkpt lat="47.71081" lon="3.63913">
        <ele>118</ele>
        <time>2014-09-07T10:34:57Z</time>
      </trkpt>
      <trkpt lat="47.71077" lon="3.63909">
        <ele>117</ele>
        <time>2014-09-07T10:35:01Z</time>
      </trkpt>
      <trkpt lat="47.7107" lon="3.63908">
        <ele>117</ele>
        <time>2014-09-07T10:35:06Z</time>
      </trkpt>
      <trkpt lat="47.71068" lon="3.63908">
        <ele>117</ele>
        <time>2014-09-07T10:35:09Z</time>
      </trkpt>
      <trkpt lat="47.7106" lon="3.63905">
        <ele>116</ele>
        <time>2014-09-07T10:35:17Z</time>
      </trkpt>
      <trkpt lat="47.71057" lon="3.63903">
        <ele>116</ele>
        <time>2014-09-07T10:35:20Z</time>
      </trkpt>
      <trkpt lat="47.71047" lon="3.63899">
        <ele>115</ele>
        <time>2014-09-07T10:35:28Z</time>
      </trkpt>
      <trkpt lat="47.7104" lon="3.63887">
        <ele>113</ele>
        <time>2014-09-07T10:35:37Z</time>
      </trkpt>
      <trkpt lat="47.71034" lon="3.6388">
        <ele>113</ele>
        <time>2014-09-07T10:35:44Z</time>
      </trkpt>
      <trkpt lat="47.7102" lon="3.63883">
        <ele>112</ele>
        <time>2014-09-07T10:35:59Z</time>
      </trkpt>
      <trkpt lat="47.71011" lon="3.63889">
        <ele>112</ele>
        <time>2014-09-07T10:36:10Z</time>
      </trkpt>
      <trkpt lat="47.70998" lon="3.63895">
        <ele>111</ele>
        <time>2014-09-07T10:36:20Z</time>
      </trkpt>
      <trkpt lat="47.70994" lon="3.63894">
        <ele>111</ele>
        <time>2014-09-07T10:36:24Z</time>
      </trkpt>
      <trkpt lat="47.70991" lon="3.63891">
        <ele>111</ele>
        <time>2014-09-07T10:36:27Z</time>
      </trkpt>
      <trkpt lat="47.70984" lon="3.63888">
        <ele>111</ele>
        <time>2014-09-07T10:36:37Z</time>
      </trkpt>
      <trkpt lat="47.70978" lon="3.63889">
        <ele>111</ele>
        <time>2014-09-07T10:36:43Z</time>
      </trkpt>
      <trkpt lat="47.70971" lon="3.63891">
        <ele>110</ele>
        <time>2014-09-07T10:36:49Z</time>
      </trkpt>
      <trkpt lat="47.70964" lon="3.63893">
        <ele>110</ele>
        <time>2014-09-07T10:36:55Z</time>
      </trkpt>
      <trkpt lat="47.70957" lon="3.63892">
        <ele>111</ele>
        <time>2014-09-07T10:37:03Z</time>
      </trkpt>
      <trkpt lat="47.70953" lon="3.63894">
        <ele>111</ele>
        <time>2014-09-07T10:37:19Z</time>
      </trkpt>
      <trkpt lat="47.70952" lon="3.63894">
        <ele>111</ele>
        <time>2014-09-07T10:37:32Z</time>
      </trkpt>
      <trkpt lat="47.70952" lon="3.63894">
        <ele>109</ele>
        <time>2014-09-07T10:37:49Z</time>
      </trkpt>
      <trkpt lat="47.70952" lon="3.63894">
        <ele>109</ele>
        <time>2014-09-07T10:38:11Z</time>
      </trkpt>
      <trkpt lat="47.70952" lon="3.63894">
        <ele>110</ele>
        <time>2014-09-07T10:38:38Z</time>
      </trkpt>
      <trkpt lat="47.70952" lon="3.63895">
        <ele>110</ele>
        <time>2014-09-07T10:38:59Z</time>
      </trkpt>
      <trkpt lat="47.70951" lon="3.63894">
        <ele>110</ele>
        <time>2014-09-07T10:39:18Z</time>
      </trkpt>
      <trkpt lat="47.70951" lon="3.63893">
        <ele>110</ele>
        <time>2014-09-07T10:39:47Z</time>
      </trkpt>
      <trkpt lat="47.70951" lon="3.63893">
        <ele>110</ele>
        <time>2014-09-07T10:40:18Z</time>
      </trkpt>
      <trkpt lat="47.70951" lon="3.63893">
        <ele>110</ele>
        <time>2014-09-07T10:40:53Z</time>
      </trkpt>
      <trkpt lat="47.70951" lon="3.63893">
        <ele>109</ele>
        <time>2014-09-07T10:41:22Z</time>
      </trkpt>
      <trkpt lat="47.7095" lon="3.63893">
        <ele>109</ele>
        <time>2014-09-07T10:41:53Z</time>
      </trkpt>
      <trkpt lat="47.70951" lon="3.63893">
        <ele>109</ele>
        <time>2014-09-07T10:42:24Z</time>
      </trkpt>
      <trkpt lat="47.70951" lon="3.63893">
        <ele>110</ele>
        <time>2014-09-07T10:42:56Z</time>
      </trkpt>
      <trkpt lat="47.7095" lon="3.63892">
        <ele>109</ele>
        <time>2014-09-07T10:43:30Z</time>
      </trkpt>
      <trkpt lat="47.70951" lon="3.63892">
        <ele>110</ele>
        <time>2014-09-07T10:43:54Z</time>
      </trkpt>
      <trkpt lat="47.7095" lon="3.63893">
        <ele>109</ele>
        <time>2014-09-07T10:44:28Z</time>
      </trkpt>
      <trkpt lat="47.7095" lon="3.63892">
        <ele>110</ele>
        <time>2014-09-07T10:45:00Z</time>
      </trkpt>
      <trkpt lat="47.70949" lon="3.63891">
        <ele>110</ele>
        <time>2014-09-07T10:45:33Z</time>
      </trkpt>
      <trkpt lat="47.70949" lon="3.63891">
        <ele>110</ele>
        <time>2014-09-07T10:46:06Z</time>
      </trkpt>
      <trkpt lat="47.70949" lon="3.63891">
        <ele>110</ele>
        <time>2014-09-07T10:46:39Z</time>
      </trkpt>
      <trkpt lat="47.70949" lon="3.63891">
        <ele>110</ele>
        <time>2014-09-07T10:47:14Z</time>
      </trkpt>
      <trkpt lat="47.7095" lon="3.63891">
        <ele>110</ele>
        <time>2014-09-07T10:47:49Z</time>
      </trkpt>
      <trkpt lat="47.7095" lon="3.63891">
        <ele>110</ele>
        <time>2014-09-07T10:48:18Z</time>
      </trkpt>
      <trkpt lat="47.70949" lon="3.63892">
        <ele>110</ele>
        <time>2014-09-07T10:48:51Z</time>
      </trkpt>
      <trkpt lat="47.70949" lon="3.63892">
        <ele>110</ele>
        <time>2014-09-07T10:49:25Z</time>
      </trkpt>
      <trkpt lat="47.7095" lon="3.63894">
        <ele>110</ele>
        <time>2014-09-07T10:50:00Z</time>
      </trkpt>
      <trkpt lat="47.7095" lon="3.63893">
        <ele>110</ele>
        <time>2014-09-07T10:50:38Z</time>
      </trkpt>
      <trkpt lat="47.7095" lon="3.63893">
        <ele>110</ele>
        <time>2014-09-07T10:51:13Z</time>
      </trkpt>
      <trkpt lat="47.7095" lon="3.63893">
        <ele>110</ele>
        <time>2014-09-07T10:51:51Z</time>
      </trkpt>
      <trkpt lat="47.7095" lon="3.63893">
        <ele>110</ele>
        <time>2014-09-07T10:52:24Z</time>
      </trkpt>
      <trkpt lat="47.7095" lon="3.63893">
        <ele>110</ele>
        <time>2014-09-07T10:52:55Z</time>
      </trkpt>
      <trkpt lat="47.7095" lon="3.63893">
        <ele>111</ele>
        <time>2014-09-07T10:53:26Z</time>
      </trkpt>
      <trkpt lat="47.7095" lon="3.63893">
        <ele>111</ele>
        <time>2014-09-07T10:53:58Z</time>
      </trkpt>
      <trkpt lat="47.70951" lon="3.63892">
        <ele>110</ele>
        <time>2014-09-07T10:54:33Z</time>
      </trkpt>
      <trkpt lat="47.70951" lon="3.63892">
        <ele>110</ele>
        <time>2014-09-07T10:55:08Z</time>
      </trkpt>
      <trkpt lat="47.70951" lon="3.63892">
        <ele>111</ele>
        <time>2014-09-07T10:55:47Z</time>
      </trkpt>
      <trkpt lat="47.70951" lon="3.63892">
        <ele>111</ele>
        <time>2014-09-07T10:56:22Z</time>
      </trkpt>
      <trkpt lat="47.7095" lon="3.63893">
        <ele>110</ele>
        <time>2014-09-07T10:57:03Z</time>
      </trkpt>
      <trkpt lat="47.7095" lon="3.63892">
        <ele>111</ele>
        <time>2014-09-07T10:57:40Z</time>
      </trkpt>
      <trkpt lat="47.7095" lon="3.63892">
        <ele>110</ele>
        <time>2014-09-07T10:58:14Z</time>
      </trkpt>
      <trkpt lat="47.7095" lon="3.63892">
        <ele>111</ele>
        <time>2014-09-07T10:58:47Z</time>
      </trkpt>
      <trkpt lat="47.7095" lon="3.63892">
        <ele>111</ele>
        <time>2014-09-07T10:59:24Z</time>
      </trkpt>
      <trkpt lat="47.7095" lon="3.63891">
        <ele>111</ele>
        <time>2014-09-07T11:00:05Z</time>
      </trkpt>
      <trkpt lat="47.70949" lon="3.63892">
        <ele>111</ele>
        <time>2014-09-07T11:00:40Z</time>
      </trkpt>
      <trkpt lat="47.70949" lon="3.63892">
        <ele>111</ele>
        <time>2014-09-07T11:01:17Z</time>
      </trkpt>
      <trkpt lat="47.7095" lon="3.63891">
        <ele>111</ele>
        <time>2014-09-07T11:01:59Z</time>
      </trkpt>
      <trkpt lat="47.70949" lon="3.6389">
        <ele>111</ele>
        <time>2014-09-07T11:02:37Z</time>
      </trkpt>
      <trkpt lat="47.7095" lon="3.6389">
        <ele>111</ele>
        <time>2014-09-07T11:03:15Z</time>
      </trkpt>
      <trkpt lat="47.7095" lon="3.6389">
        <ele>111</ele>
        <time>2014-09-07T11:03:51Z</time>
      </trkpt>
      <trkpt lat="47.7095" lon="3.6389">
        <ele>111</ele>
        <time>2014-09-07T11:04:30Z</time>
      </trkpt>
      <trkpt lat="47.7095" lon="3.6389">
        <ele>111</ele>
        <time>2014-09-07T11:05:12Z</time>
      </trkpt>
      <trkpt lat="47.7095" lon="3.63891">
        <ele>111</ele>
        <time>2014-09-07T11:05:55Z</time>
      </trkpt>
      <trkpt lat="47.7095" lon="3.63891">
        <ele>111</ele>
        <time>2014-09-07T11:06:33Z</time>
      </trkpt>
      <trkpt lat="47.7095" lon="3.63891">
        <ele>110</ele>
        <time>2014-09-07T11:07:11Z</time>
      </trkpt>
      <trkpt lat="47.70949" lon="3.63892">
        <ele>111</ele>
        <time>2014-09-07T11:07:49Z</time>
      </trkpt>
      <trkpt lat="47.7095" lon="3.63893">
        <ele>110</ele>
        <time>2014-09-07T11:08:31Z</time>
      </trkpt>
      <trkpt lat="47.7095" lon="3.63892">
        <ele>111</ele>
        <time>2014-09-07T11:09:09Z</time>
      </trkpt>
      <trkpt lat="47.7095" lon="3.63892">
        <ele>110</ele>
        <time>2014-09-07T11:09:47Z</time>
      </trkpt>
      <trkpt lat="47.7095" lon="3.63892">
        <ele>110</ele>
        <time>2014-09-07T11:10:21Z</time>
      </trkpt>
      <trkpt lat="47.7095" lon="3.63892">
        <ele>111</ele>
        <time>2014-09-07T11:10:52Z</time>
      </trkpt>
      <trkpt lat="47.7095" lon="3.63892">
        <ele>111</ele>
        <time>2014-09-07T11:11:29Z</time>
      </trkpt>
      <trkpt lat="47.7095" lon="3.63892">
        <ele>111</ele>
        <time>2014-09-07T11:12:07Z</time>
      </trkpt>
      <trkpt lat="47.7095" lon="3.63892">
        <ele>111</ele>
        <time>2014-09-07T11:12:40Z</time>
      </trkpt>
      <trkpt lat="47.7095" lon="3.63892">
        <ele>111</ele>
        <time>2014-09-07T11:13:16Z</time>
      </trkpt>
      <trkpt lat="47.7095" lon="3.63892">
        <ele>111</ele>
        <time>2014-09-07T11:13:49Z</time>
      </trkpt>
      <trkpt lat="47.70951" lon="3.63892">
        <ele>111</ele>
        <time>2014-09-07T11:14:21Z</time>
      </trkpt>
      <trkpt lat="47.70951" lon="3.63893">
        <ele>111</ele>
        <time>2014-09-07T11:14:56Z</time>
      </trkpt>
      <trkpt lat="47.70951" lon="3.63893">
        <ele>111</ele>
        <time>2014-09-07T11:15:32Z</time>
      </trkpt>
      <trkpt lat="47.70951" lon="3.63893">
        <ele>111</ele>
        <time>2014-09-07T11:15:54Z</time>
      </trkpt>
      <trkpt lat="47.70951" lon="3.63893">
        <ele>111</ele>
        <time>2014-09-07T11:16:23Z</time>
      </trkpt>
      <trkpt lat="47.7095" lon="3.63894">
        <ele>111</ele>
        <time>2014-09-07T11:16:39Z</time>
      </trkpt>
      <trkpt lat="47.7095" lon="3.63893">
        <ele>110</ele>
        <time>2014-09-07T11:17:11Z</time>
      </trkpt>
      <trkpt lat="47.7095" lon="3.63893">
        <ele>110</ele>
        <time>2014-09-07T11:17:46Z</time>
      </trkpt>
      <trkpt lat="47.7095" lon="3.63894">
        <ele>111</ele>
        <time>2014-09-07T11:18:23Z</time>
      </trkpt>
      <trkpt lat="47.7095" lon="3.63893">
        <ele>110</ele>
        <time>2014-09-07T11:18:59Z</time>
      </trkpt>
      <trkpt lat="47.7095" lon="3.63894">
        <ele>111</ele>
        <time>2014-09-07T11:19:34Z</time>
      </trkpt>
      <trkpt lat="47.7095" lon="3.63894">
        <ele>111</ele>
        <time>2014-09-07T11:20:07Z</time>
      </trkpt>
      <trkpt lat="47.7095" lon="3.63894">
        <ele>110</ele>
        <time>2014-09-07T11:20:40Z</time>
      </trkpt>
      <trkpt lat="47.70949" lon="3.63894">
        <ele>110</ele>
        <time>2014-09-07T11:21:13Z</time>
      </trkpt>
      <trkpt lat="47.70949" lon="3.63894">
        <ele>111</ele>
        <time>2014-09-07T11:21:43Z</time>
      </trkpt>
      <trkpt lat="47.70949" lon="3.63894">
        <ele>110</ele>
        <time>2014-09-07T11:22:17Z</time>
      </trkpt>
      <trkpt lat="47.70949" lon="3.63894">
        <ele>111</ele>
        <time>2014-09-07T11:22:45Z</time>
      </trkpt>
      <trkpt lat="47.7095" lon="3.63895">
        <ele>112</ele>
        <time>2014-09-07T11:23:06Z</time>
      </trkpt>
      <trkpt lat="47.70951" lon="3.63896">
        <ele>112</ele>
        <time>2014-09-07T11:23:26Z</time>
      </trkpt>
      <trkpt lat="47.7095" lon="3.63894">
        <ele>111</ele>
        <time>2014-09-07T11:23:52Z</time>
      </trkpt>
      <trkpt lat="47.70949" lon="3.63894">
        <ele>111</ele>
        <time>2014-09-07T11:24:10Z</time>
      </trkpt>
      <trkpt lat="47.70948" lon="3.63901">
        <ele>112</ele>
        <time>2014-09-07T11:24:25Z</time>
      </trkpt>
      <trkpt lat="47.70936" lon="3.63906">
        <ele>112</ele>
        <time>2014-09-07T11:24:37Z</time>
      </trkpt>
      <trkpt lat="47.70928" lon="3.63912">
        <ele>111</ele>
        <time>2014-09-07T11:24:49Z</time>
      </trkpt>
      <trkpt lat="47.70918" lon="3.63916">
        <ele>111</ele>
        <time>2014-09-07T11:25:02Z</time>
      </trkpt>
      <trkpt lat="47.70908" lon="3.63915">
        <ele>111</ele>
        <time>2014-09-07T11:25:16Z</time>
      </trkpt>
      <trkpt lat="47.70908" lon="3.63915">
        <ele>111</ele>
        <time>2014-09-07T11:25:43Z</time>
      </trkpt>
      <trkpt lat="47.70908" lon="3.63915">
        <ele>111</ele>
        <time>2014-09-07T11:26:12Z</time>
      </trkpt>
      <trkpt lat="47.70908" lon="3.63915">
        <ele>111</ele>
        <time>2014-09-07T11:26:43Z</time>
      </trkpt>
      <trkpt lat="47.70908" lon="3.63915">
        <ele>111</ele>
        <time>2014-09-07T11:27:09Z</time>
      </trkpt>
      <trkpt lat="47.70905" lon="3.63919">
        <ele>111</ele>
        <time>2014-09-07T11:27:26Z</time>
      </trkpt>
      <trkpt lat="47.70896" lon="3.63924">
        <ele>111</ele>
        <time>2014-09-07T11:27:39Z</time>
      </trkpt>
      <trkpt lat="47.70894" lon="3.63925">
        <ele>112</ele>
        <time>2014-09-07T11:27:41Z</time>
      </trkpt>
      <trkpt lat="47.70887" lon="3.63926">
        <ele>112</ele>
        <time>2014-09-07T11:27:47Z</time>
      </trkpt>
      <trkpt lat="47.70872" lon="3.6393">
        <ele>112</ele>
        <time>2014-09-07T11:28:02Z</time>
      </trkpt>
      <trkpt lat="47.70859" lon="3.63934">
        <ele>112</ele>
        <time>2014-09-07T11:28:14Z</time>
      </trkpt>
      <trkpt lat="47.70844" lon="3.63936">
        <ele>112</ele>
        <time>2014-09-07T11:28:27Z</time>
      </trkpt>
      <trkpt lat="47.70832" lon="3.63936">
        <ele>112</ele>
        <time>2014-09-07T11:28:37Z</time>
      </trkpt>
      <trkpt lat="47.70831" lon="3.6394">
        <ele>112</ele>
        <time>2014-09-07T11:28:40Z</time>
      </trkpt>
      <trkpt lat="47.70832" lon="3.63967">
        <ele>112</ele>
        <time>2014-09-07T11:28:54Z</time>
      </trkpt>
      <trkpt lat="47.70836" lon="3.63969">
        <ele>112</ele>
        <time>2014-09-07T11:28:59Z</time>
      </trkpt>
      <trkpt lat="47.7084" lon="3.6397">
        <ele>112</ele>
        <time>2014-09-07T11:29:07Z</time>
      </trkpt>
      <trkpt lat="47.70849" lon="3.63968">
        <ele>113</ele>
        <time>2014-09-07T11:29:13Z</time>
      </trkpt>
      <trkpt lat="47.7087" lon="3.63967">
        <ele>113</ele>
        <time>2014-09-07T11:29:27Z</time>
      </trkpt>
      <trkpt lat="47.70873" lon="3.63969">
        <ele>114</ele>
        <time>2014-09-07T11:29:45Z</time>
      </trkpt>
      <trkpt lat="47.70872" lon="3.63974">
        <ele>114</ele>
        <time>2014-09-07T11:29:49Z</time>
      </trkpt>
      <trkpt lat="47.70873" lon="3.63991">
        <ele>116</ele>
        <time>2014-09-07T11:30:02Z</time>
      </trkpt>
      <trkpt lat="47.70874" lon="3.64014">
        <ele>117</ele>
        <time>2014-09-07T11:30:17Z</time>
      </trkpt>
      <trkpt lat="47.70876" lon="3.64032">
        <ele>120</ele>
        <time>2014-09-07T11:30:33Z</time>
      </trkpt>
      <trkpt lat="47.70878" lon="3.64046">
        <ele>122</ele>
        <time>2014-09-07T11:30:47Z</time>
      </trkpt>
      <trkpt lat="47.70879" lon="3.6407">
        <ele>124</ele>
        <time>2014-09-07T11:31:04Z</time>
      </trkpt>
      <trkpt lat="47.7088" lon="3.64081">
        <ele>125</ele>
        <time>2014-09-07T11:31:13Z</time>
      </trkpt>
      <trkpt lat="47.70881" lon="3.64084">
        <ele>125</ele>
        <time>2014-09-07T11:31:16Z</time>
      </trkpt>
      <trkpt lat="47.70881" lon="3.64096">
        <ele>127</ele>
        <time>2014-09-07T11:31:24Z</time>
      </trkpt>
      <trkpt lat="47.7088" lon="3.64119">
        <ele>128</ele>
        <time>2014-09-07T11:31:40Z</time>
      </trkpt>
      <trkpt lat="47.7088" lon="3.64136">
        <ele>130</ele>
        <time>2014-09-07T11:31:54Z</time>
      </trkpt>
      <trkpt lat="47.7088" lon="3.64137">
        <ele>130</ele>
        <time>2014-09-07T11:31:55Z</time>
      </trkpt>
      <trkpt lat="47.7088" lon="3.6414">
        <ele>131</ele>
        <time>2014-09-07T11:31:57Z</time>
      </trkpt>
      <trkpt lat="47.7088" lon="3.64157">
        <ele>133</ele>
        <time>2014-09-07T11:32:10Z</time>
      </trkpt>
      <trkpt lat="47.70879" lon="3.6416">
        <ele>133</ele>
        <time>2014-09-07T11:32:12Z</time>
      </trkpt>
      <trkpt lat="47.70879" lon="3.64163">
        <ele>133</ele>
        <time>2014-09-07T11:32:14Z</time>
      </trkpt>
      <trkpt lat="47.7088" lon="3.64179">
        <ele>135</ele>
        <time>2014-09-07T11:32:29Z</time>
      </trkpt>
      <trkpt lat="47.7088" lon="3.64182">
        <ele>135</ele>
        <time>2014-09-07T11:32:44Z</time>
      </trkpt>
      <trkpt lat="47.70882" lon="3.64183">
        <ele>135</ele>
        <time>2014-09-07T11:32:58Z</time>
      </trkpt>
      <trkpt lat="47.70884" lon="3.64182">
        <ele>136</ele>
        <time>2014-09-07T11:33:13Z</time>
      </trkpt>
      <trkpt lat="47.70893" lon="3.64179">
        <ele>135</ele>
        <time>2014-09-07T11:33:28Z</time>
      </trkpt>
      <trkpt lat="47.70893" lon="3.64179">
        <ele>135</ele>
        <time>2014-09-07T11:33:46Z</time>
      </trkpt>
      <trkpt lat="47.70893" lon="3.64179">
        <ele>135</ele>
        <time>2014-09-07T11:34:13Z</time>
      </trkpt>
      <trkpt lat="47.70893" lon="3.64179">
        <ele>135</ele>
        <time>2014-09-07T11:34:40Z</time>
      </trkpt>
      <trkpt lat="47.70893" lon="3.64179">
        <ele>135</ele>
        <time>2014-09-07T11:35:02Z</time>
      </trkpt>
      <trkpt lat="47.70893" lon="3.6418">
        <ele>136</ele>
        <time>2014-09-07T11:35:19Z</time>
      </trkpt>
      <trkpt lat="47.70893" lon="3.6418">
        <ele>135</ele>
        <time>2014-09-07T11:35:45Z</time>
      </trkpt>
      <trkpt lat="47.70894" lon="3.6418">
        <ele>135</ele>
        <time>2014-09-07T11:36:08Z</time>
      </trkpt>
      <trkpt lat="47.70901" lon="3.64176">
        <ele>135</ele>
        <time>2014-09-07T11:36:22Z</time>
      </trkpt>
      <trkpt lat="47.70902" lon="3.64177">
        <ele>134</ele>
        <time>2014-09-07T11:36:37Z</time>
      </trkpt>
      <trkpt lat="47.70902" lon="3.64176">
        <ele>135</ele>
        <time>2014-09-07T11:37:06Z</time>
      </trkpt>
      <trkpt lat="47.70907" lon="3.64175">
        <ele>135</ele>
        <time>2014-09-07T11:37:14Z</time>
      </trkpt>
      <trkpt lat="47.7092" lon="3.64173">
        <ele>135</ele>
        <time>2014-09-07T11:37:25Z</time>
      </trkpt>
      <trkpt lat="47.70939" lon="3.6417">
        <ele>134</ele>
        <time>2014-09-07T11:37:39Z</time>
      </trkpt>
      <trkpt lat="47.7096" lon="3.64165">
        <ele>134</ele>
        <time>2014-09-07T11:37:54Z</time>
      </trkpt>
      <trkpt lat="47.70975" lon="3.64163">
        <ele>133</ele>
        <time>2014-09-07T11:38:07Z</time>
      </trkpt>
      <trkpt lat="47.70992" lon="3.6416">
        <ele>133</ele>
        <time>2014-09-07T11:38:22Z</time>
      </trkpt>
      <trkpt lat="47.71009" lon="3.6416">
        <ele>133</ele>
        <time>2014-09-07T11:38:36Z</time>
      </trkpt>
      <trkpt lat="47.71023" lon="3.64161">
        <ele>131</ele>
        <time>2014-09-07T11:38:50Z</time>
      </trkpt>
      <trkpt lat="47.71036" lon="3.64163">
        <ele>130</ele>
        <time>2014-09-07T11:39:02Z</time>
      </trkpt>
      <trkpt lat="47.71039" lon="3.64163">
        <ele>130</ele>
        <time>2014-09-07T11:39:04Z</time>
      </trkpt>
      <trkpt lat="47.71056" lon="3.64159">
        <ele>128</ele>
        <time>2014-09-07T11:39:17Z</time>
      </trkpt>
      <trkpt lat="47.71072" lon="3.64158">
        <ele>127</ele>
        <time>2014-09-07T11:39:30Z</time>
      </trkpt>
      <trkpt lat="47.71073" lon="3.64158">
        <ele>126</ele>
        <time>2014-09-07T11:39:31Z</time>
      </trkpt>
      <trkpt lat="47.71078" lon="3.64158">
        <ele>126</ele>
        <time>2014-09-07T11:39:35Z</time>
      </trkpt>
      <trkpt lat="47.71097" lon="3.64158">
        <ele>125</ele>
        <time>2014-09-07T11:39:49Z</time>
      </trkpt>
      <trkpt lat="47.711" lon="3.64162">
        <ele>124</ele>
        <time>2014-09-07T11:39:53Z</time>
      </trkpt>
      <trkpt lat="47.71102" lon="3.64168">
        <ele>125</ele>
        <time>2014-09-07T11:39:56Z</time>
      </trkpt>
      <trkpt lat="47.71097" lon="3.64189">
        <ele>126</ele>
        <time>2014-09-07T11:40:07Z</time>
      </trkpt>
      <trkpt lat="47.71096" lon="3.64193">
        <ele>126</ele>
        <time>2014-09-07T11:40:09Z</time>
      </trkpt>
      <trkpt lat="47.71091" lon="3.64209">
        <ele>127</ele>
        <time>2014-09-07T11:40:18Z</time>
      </trkpt>
      <trkpt lat="47.71088" lon="3.64221">
        <ele>127</ele>
        <time>2014-09-07T11:40:25Z</time>
      </trkpt>
      <trkpt lat="47.71087" lon="3.64229">
        <ele>127</ele>
        <time>2014-09-07T11:40:29Z</time>
      </trkpt>
      <trkpt lat="47.71078" lon="3.64251">
        <ele>128</ele>
        <time>2014-09-07T11:40:43Z</time>
      </trkpt>
      <trkpt lat="47.71074" lon="3.64264">
        <ele>128</ele>
        <time>2014-09-07T11:40:51Z</time>
      </trkpt>
      <trkpt lat="47.71073" lon="3.64268">
        <ele>129</ele>
        <time>2014-09-07T11:40:54Z</time>
      </trkpt>
      <trkpt lat="47.71063" lon="3.64294">
        <ele>130</ele>
        <time>2014-09-07T11:41:09Z</time>
      </trkpt>
      <trkpt lat="47.71063" lon="3.64296">
        <ele>130</ele>
        <time>2014-09-07T11:41:10Z</time>
      </trkpt>
      <trkpt lat="47.71057" lon="3.64317">
        <ele>131</ele>
        <time>2014-09-07T11:41:22Z</time>
      </trkpt>
      <trkpt lat="47.71057" lon="3.64318">
        <ele>131</ele>
        <time>2014-09-07T11:41:23Z</time>
      </trkpt>
      <trkpt lat="47.71056" lon="3.64323">
        <ele>131</ele>
        <time>2014-09-07T11:41:26Z</time>
      </trkpt>
      <trkpt lat="47.71055" lon="3.64328">
        <ele>131</ele>
        <time>2014-09-07T11:41:29Z</time>
      </trkpt>
      <trkpt lat="47.7105" lon="3.6434">
        <ele>132</ele>
        <time>2014-09-07T11:41:36Z</time>
      </trkpt>
      <trkpt lat="47.71039" lon="3.64366">
        <ele>132</ele>
        <time>2014-09-07T11:41:51Z</time>
      </trkpt>
      <trkpt lat="47.71035" lon="3.64378">
        <ele>133</ele>
        <time>2014-09-07T11:41:58Z</time>
      </trkpt>
      <trkpt lat="47.71032" lon="3.64391">
        <ele>134</ele>
        <time>2014-09-07T11:42:04Z</time>
      </trkpt>
      <trkpt lat="47.7103" lon="3.64404">
        <ele>134</ele>
        <time>2014-09-07T11:42:11Z</time>
      </trkpt>
      <trkpt lat="47.71028" lon="3.64409">
        <ele>134</ele>
        <time>2014-09-07T11:42:14Z</time>
      </trkpt>
      <trkpt lat="47.71027" lon="3.64418">
        <ele>135</ele>
        <time>2014-09-07T11:42:19Z</time>
      </trkpt>
      <trkpt lat="47.71025" lon="3.64427">
        <ele>135</ele>
        <time>2014-09-07T11:42:24Z</time>
      </trkpt>
      <trkpt lat="47.71023" lon="3.64432">
        <ele>135</ele>
        <time>2014-09-07T11:42:27Z</time>
      </trkpt>
      <trkpt lat="47.71017" lon="3.64456">
        <ele>136</ele>
        <time>2014-09-07T11:42:41Z</time>
      </trkpt>
      <trkpt lat="47.71016" lon="3.64462">
        <ele>136</ele>
        <time>2014-09-07T11:42:44Z</time>
      </trkpt>
      <trkpt lat="47.71014" lon="3.64469">
        <ele>136</ele>
        <time>2014-09-07T11:42:48Z</time>
      </trkpt>
      <trkpt lat="47.7101" lon="3.64495">
        <ele>137</ele>
        <time>2014-09-07T11:43:02Z</time>
      </trkpt>
      <trkpt lat="47.71007" lon="3.6451">
        <ele>138</ele>
        <time>2014-09-07T11:43:12Z</time>
      </trkpt>
      <trkpt lat="47.71005" lon="3.64513">
        <ele>138</ele>
        <time>2014-09-07T11:43:15Z</time>
      </trkpt>
      <trkpt lat="47.71005" lon="3.6453">
        <ele>139</ele>
        <time>2014-09-07T11:43:27Z</time>
      </trkpt>
      <trkpt lat="47.71006" lon="3.64533">
        <ele>139</ele>
        <time>2014-09-07T11:43:29Z</time>
      </trkpt>
      <trkpt lat="47.71017" lon="3.64556">
        <ele>140</ele>
        <time>2014-09-07T11:43:43Z</time>
      </trkpt>
      <trkpt lat="47.71018" lon="3.64558">
        <ele>140</ele>
        <time>2014-09-07T11:43:44Z</time>
      </trkpt>
      <trkpt lat="47.71022" lon="3.64574">
        <ele>140</ele>
        <time>2014-09-07T11:43:57Z</time>
      </trkpt>
      <trkpt lat="47.71028" lon="3.64577">
        <ele>140</ele>
        <time>2014-09-07T11:44:12Z</time>
      </trkpt>
      <trkpt lat="47.71029" lon="3.64582">
        <ele>140</ele>
        <time>2014-09-07T11:44:16Z</time>
      </trkpt>
      <trkpt lat="47.7103" lon="3.64585">
        <ele>140</ele>
        <time>2014-09-07T11:44:18Z</time>
      </trkpt>
      <trkpt lat="47.71031" lon="3.64589">
        <ele>140</ele>
        <time>2014-09-07T11:44:22Z</time>
      </trkpt>
      <trkpt lat="47.71032" lon="3.64592">
        <ele>140</ele>
        <time>2014-09-07T11:44:24Z</time>
      </trkpt>
      <trkpt lat="47.71034" lon="3.64597">
        <ele>141</ele>
        <time>2014-09-07T11:44:28Z</time>
      </trkpt>
      <trkpt lat="47.71035" lon="3.64601">
        <ele>141</ele>
        <time>2014-09-07T11:44:31Z</time>
      </trkpt>
      <trkpt lat="47.71041" lon="3.64616">
        <ele>142</ele>
        <time>2014-09-07T11:44:41Z</time>
      </trkpt>
      <trkpt lat="47.71051" lon="3.6463">
        <ele>142</ele>
        <time>2014-09-07T11:44:51Z</time>
      </trkpt>
      <trkpt lat="47.71061" lon="3.64651">
        <ele>143</ele>
        <time>2014-09-07T11:45:07Z</time>
      </trkpt>
      <trkpt lat="47.71072" lon="3.6467">
        <ele>145</ele>
        <time>2014-09-07T11:45:23Z</time>
      </trkpt>
      <trkpt lat="47.71077" lon="3.6468">
        <ele>146</ele>
        <time>2014-09-07T11:45:34Z</time>
      </trkpt>
      <trkpt lat="47.7108" lon="3.64684">
        <ele>145</ele>
        <time>2014-09-07T11:45:37Z</time>
      </trkpt>
      <trkpt lat="47.71083" lon="3.64689">
        <ele>146</ele>
        <time>2014-09-07T11:45:41Z</time>
      </trkpt>
      <trkpt lat="47.71093" lon="3.64706">
        <ele>147</ele>
        <time>2014-09-07T11:45:55Z</time>
      </trkpt>
      <trkpt lat="47.71096" lon="3.6471">
        <ele>147</ele>
        <time>2014-09-07T11:45:59Z</time>
      </trkpt>
      <trkpt lat="47.711" lon="3.64716">
        <ele>148</ele>
        <time>2014-09-07T11:46:04Z</time>
      </trkpt>
      <trkpt lat="47.71104" lon="3.64724">
        <ele>148</ele>
        <time>2014-09-07T11:46:10Z</time>
      </trkpt>
      <trkpt lat="47.71115" lon="3.6474">
        <ele>150</ele>
        <time>2014-09-07T11:46:24Z</time>
      </trkpt>
      <trkpt lat="47.71123" lon="3.64753">
        <ele>150</ele>
        <time>2014-09-07T11:46:37Z</time>
      </trkpt>
      <trkpt lat="47.71126" lon="3.64775">
        <ele>152</ele>
        <time>2014-09-07T11:46:53Z</time>
      </trkpt>
      <trkpt lat="47.71122" lon="3.64783">
        <ele>153</ele>
        <time>2014-09-07T11:47:00Z</time>
      </trkpt>
      <trkpt lat="47.71111" lon="3.64793">
        <ele>154</ele>
        <time>2014-09-07T11:47:14Z</time>
      </trkpt>
      <trkpt lat="47.71108" lon="3.64796">
        <ele>155</ele>
        <time>2014-09-07T11:47:19Z</time>
      </trkpt>
      <trkpt lat="47.71099" lon="3.64804">
        <ele>157</ele>
        <time>2014-09-07T11:47:32Z</time>
      </trkpt>
      <trkpt lat="47.71092" lon="3.64812">
        <ele>159</ele>
        <time>2014-09-07T11:47:45Z</time>
      </trkpt>
      <trkpt lat="47.71083" lon="3.64821">
        <ele>160</ele>
        <time>2014-09-07T11:47:57Z</time>
      </trkpt>
      <trkpt lat="47.71074" lon="3.64834">
        <ele>162</ele>
        <time>2014-09-07T11:48:11Z</time>
      </trkpt>
      <trkpt lat="47.71064" lon="3.64848">
        <ele>163</ele>
        <time>2014-09-07T11:48:25Z</time>
      </trkpt>
      <trkpt lat="47.71056" lon="3.6486">
        <ele>165</ele>
        <time>2014-09-07T11:48:38Z</time>
      </trkpt>
      <trkpt lat="47.71044" lon="3.64875">
        <ele>164</ele>
        <time>2014-09-07T11:48:53Z</time>
      </trkpt>
      <trkpt lat="47.71034" lon="3.64887">
        <ele>167</ele>
        <time>2014-09-07T11:49:05Z</time>
      </trkpt>
      <trkpt lat="47.71024" lon="3.64906">
        <ele>167</ele>
        <time>2014-09-07T11:49:19Z</time>
      </trkpt>
      <trkpt lat="47.71014" lon="3.6493">
        <ele>167</ele>
        <time>2014-09-07T11:49:35Z</time>
      </trkpt>
      <trkpt lat="47.71008" lon="3.64953">
        <ele>167</ele>
        <time>2014-09-07T11:49:49Z</time>
      </trkpt>
      <trkpt lat="47.71007" lon="3.64974">
        <ele>168</ele>
        <time>2014-09-07T11:50:02Z</time>
      </trkpt>
      <trkpt lat="47.71009" lon="3.65001">
        <ele>168</ele>
        <time>2014-09-07T11:50:18Z</time>
      </trkpt>
      <trkpt lat="47.71017" lon="3.65011">
        <ele>169</ele>
        <time>2014-09-07T11:50:28Z</time>
      </trkpt>
      <trkpt lat="47.7103" lon="3.65025">
        <ele>170</ele>
        <time>2014-09-07T11:50:44Z</time>
      </trkpt>
      <trkpt lat="47.71039" lon="3.65038">
        <ele>172</ele>
        <time>2014-09-07T11:50:56Z</time>
      </trkpt>
      <trkpt lat="47.71042" lon="3.65042">
        <ele>171</ele>
        <time>2014-09-07T11:51:00Z</time>
      </trkpt>
      <trkpt lat="47.71052" lon="3.65059">
        <ele>173</ele>
        <time>2014-09-07T11:51:14Z</time>
      </trkpt>
      <trkpt lat="47.71054" lon="3.65061">
        <ele>173</ele>
        <time>2014-09-07T11:51:16Z</time>
      </trkpt>
      <trkpt lat="47.71055" lon="3.65064">
        <ele>173</ele>
        <time>2014-09-07T11:51:18Z</time>
      </trkpt>
      <trkpt lat="47.71062" lon="3.65085">
        <ele>174</ele>
        <time>2014-09-07T11:51:34Z</time>
      </trkpt>
      <trkpt lat="47.71066" lon="3.65098">
        <ele>174</ele>
        <time>2014-09-07T11:51:46Z</time>
      </trkpt>
      <trkpt lat="47.71066" lon="3.65098">
        <ele>173</ele>
        <time>2014-09-07T11:52:08Z</time>
      </trkpt>
      <trkpt lat="47.71066" lon="3.65098">
        <ele>174</ele>
        <time>2014-09-07T11:52:37Z</time>
      </trkpt>
      <trkpt lat="47.71067" lon="3.65099">
        <ele>174</ele>
        <time>2014-09-07T11:52:59Z</time>
      </trkpt>
      <trkpt lat="47.71067" lon="3.65101">
        <ele>172</ele>
        <time>2014-09-07T11:53:14Z</time>
      </trkpt>
      <trkpt lat="47.71067" lon="3.65101">
        <ele>172</ele>
        <time>2014-09-07T11:53:41Z</time>
      </trkpt>
      <trkpt lat="47.71068" lon="3.65103">
        <ele>173</ele>
        <time>2014-09-07T11:54:12Z</time>
      </trkpt>
      <trkpt lat="47.7107" lon="3.65122">
        <ele>173</ele>
        <time>2014-09-07T11:54:24Z</time>
      </trkpt>
      <trkpt lat="47.71072" lon="3.65137">
        <ele>173</ele>
        <time>2014-09-07T11:54:34Z</time>
      </trkpt>
      <trkpt lat="47.71075" lon="3.65156">
        <ele>172</ele>
        <time>2014-09-07T11:54:46Z</time>
      </trkpt>
      <trkpt lat="47.71076" lon="3.65164">
        <ele>172</ele>
        <time>2014-09-07T11:54:51Z</time>
      </trkpt>
      <trkpt lat="47.71077" lon="3.65171">
        <ele>172</ele>
        <time>2014-09-07T11:54:55Z</time>
      </trkpt>
      <trkpt lat="47.71083" lon="3.652">
        <ele>171</ele>
        <time>2014-09-07T11:55:11Z</time>
      </trkpt>
      <trkpt lat="47.71089" lon="3.65224">
        <ele>170</ele>
        <time>2014-09-07T11:55:26Z</time>
      </trkpt>
      <trkpt lat="47.71093" lon="3.65243">
        <ele>169</ele>
        <time>2014-09-07T11:55:38Z</time>
      </trkpt>
      <trkpt lat="47.71097" lon="3.65258">
        <ele>168</ele>
        <time>2014-09-07T11:55:47Z</time>
      </trkpt>
      <trkpt lat="47.71097" lon="3.65262">
        <ele>167</ele>
        <time>2014-09-07T11:55:49Z</time>
      </trkpt>
      <trkpt lat="47.71103" lon="3.65278">
        <ele>166</ele>
        <time>2014-09-07T11:56:01Z</time>
      </trkpt>
      <trkpt lat="47.71104" lon="3.65282">
        <ele>166</ele>
        <time>2014-09-07T11:56:04Z</time>
      </trkpt>
      <trkpt lat="47.71112" lon="3.65307">
        <ele>164</ele>
        <time>2014-09-07T11:56:20Z</time>
      </trkpt>
      <trkpt lat="47.71117" lon="3.65322">
        <ele>162</ele>
        <time>2014-09-07T11:56:30Z</time>
      </trkpt>
      <trkpt lat="47.71124" lon="3.6534">
        <ele>160</ele>
        <time>2014-09-07T11:56:42Z</time>
      </trkpt>
      <trkpt lat="47.71128" lon="3.65358">
        <ele>159</ele>
        <time>2014-09-07T11:56:55Z</time>
      </trkpt>
      <trkpt lat="47.71135" lon="3.65381">
        <ele>156</ele>
        <time>2014-09-07T11:57:10Z</time>
      </trkpt>
      <trkpt lat="47.71143" lon="3.65402">
        <ele>154</ele>
        <time>2014-09-07T11:57:24Z</time>
      </trkpt>
      <trkpt lat="47.71152" lon="3.65424">
        <ele>152</ele>
        <time>2014-09-07T11:57:39Z</time>
      </trkpt>
      <trkpt lat="47.71158" lon="3.65443">
        <ele>150</ele>
        <time>2014-09-07T11:57:52Z</time>
      </trkpt>
      <trkpt lat="47.71161" lon="3.6545">
        <ele>149</ele>
        <time>2014-09-07T11:57:57Z</time>
      </trkpt>
      <trkpt lat="47.71172" lon="3.65468">
        <ele>147</ele>
        <time>2014-09-07T11:58:10Z</time>
      </trkpt>
      <trkpt lat="47.71173" lon="3.65472">
        <ele>146</ele>
        <time>2014-09-07T11:58:13Z</time>
      </trkpt>
      <trkpt lat="47.7118" lon="3.65484">
        <ele>145</ele>
        <time>2014-09-07T11:58:26Z</time>
      </trkpt>
      <trkpt lat="47.71182" lon="3.65489">
        <ele>143</ele>
        <time>2014-09-07T11:58:32Z</time>
      </trkpt>
      <trkpt lat="47.71184" lon="3.65491">
        <ele>142</ele>
        <time>2014-09-07T11:58:36Z</time>
      </trkpt>
      <trkpt lat="47.71184" lon="3.65494">
        <ele>142</ele>
        <time>2014-09-07T11:58:38Z</time>
      </trkpt>
      <trkpt lat="47.71185" lon="3.65497">
        <ele>143</ele>
        <time>2014-09-07T11:58:40Z</time>
      </trkpt>
      <trkpt lat="47.7118" lon="3.6552">
        <ele>140</ele>
        <time>2014-09-07T11:58:55Z</time>
      </trkpt>
      <trkpt lat="47.71174" lon="3.65546">
        <ele>140</ele>
        <time>2014-09-07T11:59:09Z</time>
      </trkpt>
      <trkpt lat="47.71173" lon="3.65559">
        <ele>140</ele>
        <time>2014-09-07T11:59:16Z</time>
      </trkpt>
      <trkpt lat="47.71175" lon="3.65588">
        <ele>139</ele>
        <time>2014-09-07T11:59:31Z</time>
      </trkpt>
      <trkpt lat="47.71174" lon="3.65594">
        <ele>139</ele>
        <time>2014-09-07T11:59:35Z</time>
      </trkpt>
      <trkpt lat="47.71176" lon="3.65597">
        <ele>139</ele>
        <time>2014-09-07T11:59:37Z</time>
      </trkpt>
      <trkpt lat="47.71183" lon="3.65602">
        <ele>139</ele>
        <time>2014-09-07T11:59:44Z</time>
      </trkpt>
      <trkpt lat="47.71186" lon="3.65606">
        <ele>139</ele>
        <time>2014-09-07T11:59:48Z</time>
      </trkpt>
      <trkpt lat="47.71201" lon="3.65615">
        <ele>139</ele>
        <time>2014-09-07T12:00:00Z</time>
      </trkpt>
      <trkpt lat="47.7121" lon="3.65626">
        <ele>139</ele>
        <time>2014-09-07T12:00:13Z</time>
      </trkpt>
      <trkpt lat="47.71215" lon="3.65633">
        <ele>140</ele>
        <time>2014-09-07T12:00:19Z</time>
      </trkpt>
      <trkpt lat="47.71224" lon="3.65645">
        <ele>140</ele>
        <time>2014-09-07T12:00:29Z</time>
      </trkpt>
      <trkpt lat="47.71242" lon="3.65667">
        <ele>140</ele>
        <time>2014-09-07T12:00:43Z</time>
      </trkpt>
      <trkpt lat="47.71249" lon="3.65687">
        <ele>140</ele>
        <time>2014-09-07T12:00:58Z</time>
      </trkpt>
      <trkpt lat="47.71256" lon="3.65709">
        <ele>141</ele>
        <time>2014-09-07T12:01:12Z</time>
      </trkpt>
      <trkpt lat="47.71259" lon="3.65714">
        <ele>141</ele>
        <time>2014-09-07T12:01:15Z</time>
      </trkpt>
      <trkpt lat="47.7126" lon="3.65718">
        <ele>141</ele>
        <time>2014-09-07T12:01:18Z</time>
      </trkpt>
      <trkpt lat="47.71268" lon="3.65738">
        <ele>141</ele>
        <time>2014-09-07T12:01:31Z</time>
      </trkpt>
      <trkpt lat="47.71275" lon="3.65761">
        <ele>141</ele>
        <time>2014-09-07T12:01:45Z</time>
      </trkpt>
      <trkpt lat="47.71275" lon="3.65769">
        <ele>142</ele>
        <time>2014-09-07T12:01:50Z</time>
      </trkpt>
      <trkpt lat="47.71278" lon="3.65794">
        <ele>143</ele>
        <time>2014-09-07T12:02:05Z</time>
      </trkpt>
      <trkpt lat="47.71279" lon="3.65797">
        <ele>143</ele>
        <time>2014-09-07T12:02:07Z</time>
      </trkpt>
      <trkpt lat="47.71282" lon="3.65818">
        <ele>143</ele>
        <time>2014-09-07T12:02:22Z</time>
      </trkpt>
      <trkpt lat="47.71286" lon="3.65829">
        <ele>143</ele>
        <time>2014-09-07T12:02:31Z</time>
      </trkpt>
      <trkpt lat="47.71297" lon="3.65853">
        <ele>144</ele>
        <time>2014-09-07T12:02:45Z</time>
      </trkpt>
      <trkpt lat="47.713" lon="3.65866">
        <ele>144</ele>
        <time>2014-09-07T12:02:51Z</time>
      </trkpt>
      <trkpt lat="47.71301" lon="3.6587">
        <ele>143</ele>
        <time>2014-09-07T12:02:53Z</time>
      </trkpt>
      <trkpt lat="47.71303" lon="3.65877">
        <ele>143</ele>
        <time>2014-09-07T12:02:57Z</time>
      </trkpt>
      <trkpt lat="47.71305" lon="3.65887">
        <ele>144</ele>
        <time>2014-09-07T12:03:04Z</time>
      </trkpt>
      <trkpt lat="47.71314" lon="3.65914">
        <ele>145</ele>
        <time>2014-09-07T12:03:20Z</time>
      </trkpt>
      <trkpt lat="47.71313" lon="3.65922">
        <ele>145</ele>
        <time>2014-09-07T12:03:34Z</time>
      </trkpt>
      <trkpt lat="47.71313" lon="3.65936">
        <ele>145</ele>
        <time>2014-09-07T12:03:43Z</time>
      </trkpt>
      <trkpt lat="47.71319" lon="3.65959">
        <ele>145</ele>
        <time>2014-09-07T12:03:56Z</time>
      </trkpt>
      <trkpt lat="47.71315" lon="3.65973">
        <ele>146</ele>
        <time>2014-09-07T12:04:03Z</time>
      </trkpt>
      <trkpt lat="47.71314" lon="3.65976">
        <ele>146</ele>
        <time>2014-09-07T12:04:05Z</time>
      </trkpt>
      <trkpt lat="47.71315" lon="3.65992">
        <ele>146</ele>
        <time>2014-09-07T12:04:14Z</time>
      </trkpt>
      <trkpt lat="47.71316" lon="3.66009">
        <ele>146</ele>
        <time>2014-09-07T12:04:24Z</time>
      </trkpt>
      <trkpt lat="47.71318" lon="3.66017">
        <ele>147</ele>
        <time>2014-09-07T12:04:29Z</time>
      </trkpt>
      <trkpt lat="47.7132" lon="3.66037">
        <ele>145</ele>
        <time>2014-09-07T12:04:42Z</time>
      </trkpt>
      <trkpt lat="47.71327" lon="3.66058">
        <ele>147</ele>
        <time>2014-09-07T12:04:56Z</time>
      </trkpt>
      <trkpt lat="47.71331" lon="3.66064">
        <ele>147</ele>
        <time>2014-09-07T12:05:10Z</time>
      </trkpt>
      <trkpt lat="47.71336" lon="3.66069">
        <ele>148</ele>
        <time>2014-09-07T12:05:16Z</time>
      </trkpt>
      <trkpt lat="47.7135" lon="3.66077">
        <ele>148</ele>
        <time>2014-09-07T12:05:25Z</time>
      </trkpt>
      <trkpt lat="47.71359" lon="3.66083">
        <ele>148</ele>
        <time>2014-09-07T12:05:32Z</time>
      </trkpt>
      <trkpt lat="47.71373" lon="3.66092">
        <ele>149</ele>
        <time>2014-09-07T12:05:44Z</time>
      </trkpt>
      <trkpt lat="47.71381" lon="3.66099">
        <ele>149</ele>
        <time>2014-09-07T12:05:51Z</time>
      </trkpt>
      <trkpt lat="47.71383" lon="3.66101">
        <ele>149</ele>
        <time>2014-09-07T12:05:53Z</time>
      </trkpt>
      <trkpt lat="47.71394" lon="3.66119">
        <ele>150</ele>
        <time>2014-09-07T12:06:07Z</time>
      </trkpt>
      <trkpt lat="47.71401" lon="3.66126">
        <ele>150</ele>
        <time>2014-09-07T12:06:16Z</time>
      </trkpt>
      <trkpt lat="47.71404" lon="3.66136">
        <ele>150</ele>
        <time>2014-09-07T12:06:27Z</time>
      </trkpt>
      <trkpt lat="47.71405" lon="3.66138">
        <ele>149</ele>
        <time>2014-09-07T12:06:29Z</time>
      </trkpt>
      <trkpt lat="47.7142" lon="3.66153">
        <ele>151</ele>
        <time>2014-09-07T12:06:44Z</time>
      </trkpt>
      <trkpt lat="47.7143" lon="3.66166">
        <ele>151</ele>
        <time>2014-09-07T12:06:57Z</time>
      </trkpt>
      <trkpt lat="47.71437" lon="3.66172">
        <ele>151</ele>
        <time>2014-09-07T12:07:04Z</time>
      </trkpt>
      <trkpt lat="47.71447" lon="3.66183">
        <ele>151</ele>
        <time>2014-09-07T12:07:17Z</time>
      </trkpt>
      <trkpt lat="47.7146" lon="3.66197">
        <ele>152</ele>
        <time>2014-09-07T12:07:31Z</time>
      </trkpt>
      <trkpt lat="47.71483" lon="3.66218">
        <ele>153</ele>
        <time>2014-09-07T12:07:46Z</time>
      </trkpt>
      <trkpt lat="47.7149" lon="3.66231">
        <ele>153</ele>
        <time>2014-09-07T12:07:55Z</time>
      </trkpt>
      <trkpt lat="47.71498" lon="3.66246">
        <ele>153</ele>
        <time>2014-09-07T12:08:07Z</time>
      </trkpt>
      <trkpt lat="47.71502" lon="3.66254">
        <ele>154</ele>
        <time>2014-09-07T12:08:13Z</time>
      </trkpt>
      <trkpt lat="47.71503" lon="3.6626">
        <ele>154</ele>
        <time>2014-09-07T12:08:18Z</time>
      </trkpt>
      <trkpt lat="47.71507" lon="3.66266">
        <ele>154</ele>
        <time>2014-09-07T12:08:23Z</time>
      </trkpt>
      <trkpt lat="47.71509" lon="3.66279">
        <ele>155</ele>
        <time>2014-09-07T12:08:34Z</time>
      </trkpt>
      <trkpt lat="47.7151" lon="3.66281">
        <ele>154</ele>
        <time>2014-09-07T12:08:36Z</time>
      </trkpt>
      <trkpt lat="47.71514" lon="3.66291">
        <ele>154</ele>
        <time>2014-09-07T12:08:41Z</time>
      </trkpt>
      <trkpt lat="47.71518" lon="3.663">
        <ele>155</ele>
        <time>2014-09-07T12:08:47Z</time>
      </trkpt>
      <trkpt lat="47.71524" lon="3.66312">
        <ele>156</ele>
        <time>2014-09-07T12:08:55Z</time>
      </trkpt>
      <trkpt lat="47.71523" lon="3.66317">
        <ele>155</ele>
        <time>2014-09-07T12:08:58Z</time>
      </trkpt>
      <trkpt lat="47.71521" lon="3.6632">
        <ele>158</ele>
        <time>2014-09-07T12:09:00Z</time>
      </trkpt>
    </trkseg>
  </trk>
</gpx>